Provisional Data: Marsh Creek near Blanchard, PA


Please select a monitoring station.
Please select start date.
Please select start date.

Toggle Unit: C/F Toggle Unit: C/F
Sample Time Temperature (C) Temperature (F) Specific Conductivity (mS/cm) pH   Turbidity (NTU+) DO (mg/L)
3/7/2021 12:00:00 AM 3.18 37.724 0.085 6.37 3.83 12.96
3/7/2021 12:15:00 AM 3.12 37.616 0.085 6.38 3.84 12.98
3/7/2021 12:30:00 AM 3.07 37.526 0.085 6.38 4.04 12.99
3/7/2021 12:45:00 AM 3.02 37.436 0.085 6.4 4 13.01
3/7/2021 1:00:00 AM 2.95 37.31 0.085 6.41 4.03 13.03
3/7/2021 1:15:00 AM 2.89 37.202 0.085 6.38 4.25 13.05
3/7/2021 1:30:00 AM 2.83 37.094 0.085 6.39 4.11 13.07
3/7/2021 1:45:00 AM 2.76 36.968 0.085 6.37 3.96 13.11
3/7/2021 2:00:00 AM 2.7 36.86 0.085 6.39 3.99 13.13
3/7/2021 2:15:00 AM 2.63 36.734 0.085 6.4 3.97 13.16
3/7/2021 2:30:00 AM 2.57 36.626 0.085 6.37 3.97 13.17
3/7/2021 2:45:00 AM 2.52 36.536 0.086 6.35 4.08 13.19
3/7/2021 3:00:00 AM 2.47 36.446 0.086 6.37 3.96 13.22
3/7/2021 3:15:00 AM 2.41 36.338 0.086 6.38 3.88 13.24
3/7/2021 3:30:00 AM 2.35 36.23 0.086 6.38 3.97 13.26
3/7/2021 3:45:00 AM 2.29 36.122 0.086 6.38 3.74 13.28
3/7/2021 4:00:00 AM 2.24 36.032 0.086 6.38 3.96 13.3
3/7/2021 4:15:00 AM 2.18 35.924 0.086 6.35 3.74 13.33
3/7/2021 4:30:00 AM 2.12 35.816 0.086 6.37 3.83 13.35
3/7/2021 4:45:00 AM 2.07 35.726 0.086 6.36 3.8 13.37
3/7/2021 5:00:00 AM 2.01 35.618 0.086 6.39 3.85 13.39
3/7/2021 5:15:00 AM 1.95 35.51 0.086 6.4 3.83 13.42
3/7/2021 5:30:00 AM 1.9 35.42 0.086 6.4 3.88 13.44
3/7/2021 5:45:00 AM 1.84 35.312 0.086 6.38 3.85 13.47
3/7/2021 6:00:00 AM 1.78 35.204 0.086 6.38 3.79 13.5
3/7/2021 6:15:00 AM 1.72 35.096 0.086 6.37 3.88 13.52
3/7/2021 6:30:00 AM 1.66 34.988 0.086 6.37 3.78 13.55
3/7/2021 6:45:00 AM 1.6 34.88 0.086 6.37 3.68 13.58
3/7/2021 7:00:00 AM 1.55 34.79 0.086 6.39 3.89 13.62
3/7/2021 7:15:00 AM 1.5 34.7 0.086 6.37 3.71 13.68
3/7/2021 7:30:00 AM 1.48 34.664 0.086 6.39 3.74 13.74
3/7/2021 7:45:00 AM 1.46 34.628 0.086 6.39 3.76 13.8
3/7/2021 8:00:00 AM 1.45 34.61 0.086 6.4 3.63 13.87
3/7/2021 8:15:00 AM 1.45 34.61 0.086 6.37 3.64 13.93
3/7/2021 8:30:00 AM 1.48 34.664 0.086 6.4 3.7 13.99
3/7/2021 8:45:00 AM 1.51 34.718 0.086 6.41 3.73 14.05
3/7/2021 9:00:00 AM 1.57 34.826 0.086 6.4 3.84 14.09
3/7/2021 9:15:00 AM 1.65 34.97 0.086 6.43 3.6 14.13
3/7/2021 9:30:00 AM 1.74 35.132 0.086 6.45 3.73 14.16
3/7/2021 9:45:00 AM 1.85 35.33 0.086 6.45 3.59 14.18
3/7/2021 10:00:00 AM 1.96 35.528 0.086 6.46 3.74 14.18
3/7/2021 10:15:00 AM 2.08 35.744 0.086 6.49 3.59 14.18
3/7/2021 10:30:00 AM 2.21 35.978 0.086 6.48 3.64 14.18
3/7/2021 10:45:00 AM 2.35 36.23 0.086 6.5 3.6 14.15
3/7/2021 11:00:00 AM 2.51 36.518 0.085 6.5 3.59 14.13
3/7/2021 11:15:00 AM 2.65 36.77 0.085 6.5 3.46 14.1
3/7/2021 11:30:00 AM 2.8 37.04 0.085 6.42 3.43 14.07
3/7/2021 11:45:00 AM 2.95 37.31 0.085 6.47 3.61 14.04
3/7/2021 12:00:00 PM 3.09 37.562 0.085 6.48 3.74 13.99
3/7/2021 12:15:00 PM 3.25 37.85 0.085 6.48 3.47 13.96
3/7/2021 12:30:00 PM 3.38 38.084 0.085 6.48 3.48 13.91
3/7/2021 12:45:00 PM 3.5 38.3 0.085 6.48 3.42 13.87
3/7/2021 1:00:00 PM 3.63 38.534 0.085 6.5 3.5 13.83
3/7/2021 1:15:00 PM 3.75 38.75 0.084 6.44 3.42 13.79
3/7/2021 1:30:00 PM 3.89 39.002 0.084 6.47 3.52 13.75
3/7/2021 1:45:00 PM 4 39.2 0.084 6.48 3.45 13.69
3/7/2021 2:00:00 PM 4.08 39.344 0.084 6.49 3.46 13.66
3/7/2021 2:15:00 PM 4.17 39.506 0.084 6.46 3.48 13.62
3/7/2021 2:30:00 PM 4.24 39.632 0.084 6.49 3.42 13.58
3/7/2021 2:45:00 PM 4.31 39.758 0.084 6.44 3.44 13.54
3/7/2021 3:00:00 PM 4.37 39.866 0.084 6.45 3.42 13.5
3/7/2021 3:15:00 PM 4.4 39.92 0.084 6.46 3.42 13.46
3/7/2021 3:30:00 PM 4.44 39.992 0.084 6.44 3.47 13.43
3/7/2021 3:45:00 PM 4.47 40.046 0.084 6.46 3.4 13.39
3/7/2021 4:00:00 PM 4.49 40.082 0.084 6.47 3.4 13.35
3/7/2021 4:15:00 PM 4.49 40.082 0.084 6.43 3.55 13.32
3/7/2021 4:30:00 PM 4.48 40.064 0.084 6.43 3.59 13.29
3/7/2021 4:45:00 PM 4.46 40.028 0.084 6.51 3.6 13.25
3/7/2021 5:00:00 PM 4.43 39.974 0.084 6.44 3.63 13.21
3/7/2021 5:15:00 PM 4.4 39.92 0.084 6.41 3.69 13.17
3/7/2021 5:30:00 PM 4.36 39.848 0.084 6.43 3.74 13.12
3/7/2021 5:45:00 PM 4.32 39.776 0.084 6.4 3.63 13.08
3/7/2021 6:00:00 PM 4.28 39.704 0.084 6.4 3.53 13.03
3/7/2021 6:15:00 PM 4.23 39.614 0.084 6.4 3.58 12.98
3/7/2021 6:30:00 PM 4.19 39.542 0.084 6.41 3.65 12.92
3/7/2021 6:45:00 PM 4.14 39.452 0.084 6.43 3.52 12.87
3/7/2021 7:00:00 PM 4.09 39.362 0.084 6.37 3.59 12.84
3/7/2021 7:15:00 PM 4.04 39.272 0.084 6.4 3.56 12.81
3/7/2021 7:30:00 PM 3.99 39.182 0.084 6.37 3.54 12.79
3/7/2021 7:45:00 PM 3.95 39.11 0.084 6.39 3.48 12.78
3/7/2021 8:00:00 PM 3.89 39.002 0.084 6.36 3.64 12.77
3/7/2021 8:15:00 PM 3.84 38.912 0.084 6.4 3.58 12.78
3/7/2021 8:30:00 PM 3.77 38.786 0.085 6.37 3.64 12.78
3/7/2021 8:45:00 PM 3.71 38.678 0.085 6.35 3.7 12.8
3/7/2021 9:00:00 PM 3.65 38.57 0.085 6.37 3.63 12.81
3/7/2021 9:15:00 PM 3.58 38.444 0.085 6.36 3.79 12.83
3/7/2021 9:30:00 PM 3.51 38.318 0.085 6.38 3.71 12.85
3/7/2021 9:45:00 PM 3.44 38.192 0.085 6.37 3.72 12.88
3/7/2021 10:00:00 PM 3.38 38.084 0.085 6.35 3.66 12.9
3/7/2021 10:15:00 PM 3.31 37.958 0.085 6.34 3.66 12.92
3/7/2021 10:30:00 PM 3.24 37.832 0.085 6.36 3.76 12.94
3/7/2021 10:45:00 PM 3.17 37.706 0.085 6.35 3.75 12.97
3/7/2021 11:00:00 PM 3.09 37.562 0.086 6.35 3.59 13
3/7/2021 11:15:00 PM 3.03 37.454 0.085 6.34 3.86 13.03
3/7/2021 11:30:00 PM 2.96 37.328 0.086 6.35 3.72 13.06
3/7/2021 11:45:00 PM 2.89 37.202 0.086 6.35 3.79 13.07
3/8/2021 12:00:00 AM 2.81 37.058 0.086 6.35 3.61 13.1
3/8/2021 12:15:00 AM 2.74 36.932 0.086 6.33 3.67 13.14
3/8/2021 12:30:00 AM 2.66 36.788 0.086 6.35 3.77 13.17
3/8/2021 12:45:00 AM 2.59 36.662 0.086 6.34 3.77 13.2
3/8/2021 1:00:00 AM 2.52 36.536 0.086 6.35 3.71 13.22
3/8/2021 1:15:00 AM 2.45 36.41 0.086 6.35 3.71 13.25
3/8/2021 1:30:00 AM 2.39 36.302 0.086 6.33 3.66 13.28
3/8/2021 1:45:00 AM 2.32 36.176 0.086 6.33 3.68 13.31
3/8/2021 2:00:00 AM 2.26 36.068 0.086 6.33 3.64 13.33
3/8/2021 2:15:00 AM 2.2 35.96 0.086 6.34 3.62 13.35
3/8/2021 2:30:00 AM 2.13 35.834 0.086 6.33 3.75 13.38
3/8/2021 2:45:00 AM 2.06 35.708 0.086 6.34 3.7 13.41
3/8/2021 3:00:00 AM 2 35.6 0.086 6.34 4.03 13.43
3/8/2021 3:15:00 AM 1.93 35.474 0.087 6.34 4.02 13.46
3/8/2021 3:30:00 AM 1.87 35.366 0.087 6.33 3.68 13.49
3/8/2021 3:45:00 AM 1.81 35.258 0.087 6.35 3.72 13.51
3/8/2021 4:00:00 AM 1.74 35.132 0.087 6.34 3.67 13.54
3/8/2021 4:15:00 AM 1.68 35.024 0.087 6.36 3.64 13.57
3/8/2021 4:30:00 AM 1.62 34.916 0.087 6.36 3.63 13.59
3/8/2021 4:45:00 AM 1.57 34.826 0.087 6.33 3.74 13.62
3/8/2021 5:00:00 AM 1.51 34.718 0.087 6.35 3.78 13.65
3/8/2021 5:15:00 AM 1.45 34.61 0.087 6.35 3.56 13.67
3/8/2021 5:30:00 AM 1.39 34.502 0.087 6.35 3.64 13.69
3/8/2021 5:45:00 AM 1.34 34.412 0.087 6.37 3.6 13.73
3/8/2021 6:00:00 AM 1.28 34.304 0.087 6.33 3.67 13.75
3/8/2021 6:15:00 AM 1.22 34.196 0.087 6.36 3.55 13.77
3/8/2021 6:30:00 AM 1.17 34.106 0.088 6.35 3.56 13.8
3/8/2021 6:45:00 AM 1.11 33.998 0.088 6.35 3.73 13.83
3/8/2021 7:00:00 AM 1.06 33.908 0.088 6.35 3.54 13.88
3/8/2021 7:15:00 AM 1.02 33.836 0.088 6.33 3.65 13.93
3/8/2021 7:30:00 AM 1 33.8 0.088 6.35 3.57 14
3/8/2021 7:45:00 AM 0.98 33.764 0.088 6.35 3.68 14.07
3/8/2021 8:00:00 AM 0.98 33.764 0.088 6.38 3.64 14.13
3/8/2021 8:15:00 AM 0.99 33.782 0.088 6.38 3.54 14.2
3/8/2021 8:30:00 AM 1.02 33.836 0.088 6.39 3.58 14.26
3/8/2021 8:45:00 AM 1.07 33.926 0.087 6.39 3.66 14.31
3/8/2021 9:00:00 AM 1.14 34.052 0.087 6.42 3.68 14.37
3/8/2021 9:15:00 AM 1.22 34.196 0.087 6.41 3.69 14.4
3/8/2021 9:30:00 AM 1.32 34.376 0.087 6.42 3.64 14.43
3/8/2021 9:45:00 AM 1.44 34.592 0.087 6.45 3.61 14.44
3/8/2021 10:00:00 AM 1.57 34.826 0.087 6.47 3.67 14.44
3/8/2021 10:15:00 AM 1.71 35.078 0.087 6.46 3.7 14.44
3/8/2021 10:30:00 AM 1.86 35.348 0.087 6.46 3.42 14.43
3/8/2021 10:45:00 AM 2 35.6 0.087 6.47 3.57 14.41
3/8/2021 11:00:00 AM 2.17 35.906 0.087 6.49 3.53 14.38
3/8/2021 11:15:00 AM 2.33 36.194 0.087 6.49 3.5 14.35
3/8/2021 11:30:00 AM 2.49 36.482 0.087 6.47 3.47 14.31
3/8/2021 11:45:00 AM 2.65 36.77 0.087 6.5 3.41 14.28
3/8/2021 12:00:00 PM 2.72 36.896 0.087 6.48 3.48 14.23
3/8/2021 12:15:00 PM 2.79 37.022 0.087 6.46 3.3 14.19
3/8/2021 12:30:00 PM 3.01 37.418 0.086 6.5 3.34 14.14
3/8/2021 12:45:00 PM 3.05 37.49 0.086 6.5 3.34 14.11
3/8/2021 1:00:00 PM 3.03 37.454 0.086 6.47 3.34 14.06
3/8/2021 1:15:00 PM 3.01 37.418 0.086 6.46 3.37 14.04
3/8/2021 1:30:00 PM 3 37.4 0.086 6.48 3.35 14.02
3/8/2021 1:45:00 PM 3.01 37.418 0.086 6.48 3.32 14
3/8/2021 2:00:00 PM 3.08 37.544 0.086 6.47 3.35 13.96
3/8/2021 2:15:00 PM 3.18 37.724 0.086 6.47 3.47 13.94
3/8/2021 2:30:00 PM 3.25 37.85 0.086 6.45 3.48 13.91
3/8/2021 2:45:00 PM 3.31 37.958 0.085 6.46 3.31 13.88
3/8/2021 3:00:00 PM 3.46 38.228 0.086 6.47 3.31 13.85
3/8/2021 3:15:00 PM 3.6 38.48 0.086 6.49 3.36 13.82
3/8/2021 3:30:00 PM 3.7 38.66 0.085 6.49 3.32 13.78
3/8/2021 3:45:00 PM 3.77 38.786 0.085 6.47 3.44 13.74
3/8/2021 4:00:00 PM 3.86 38.948 0.086 6.46 3.18 13.69
3/8/2021 4:15:00 PM 3.94 39.092 0.085 6.47 3.38 13.66
3/8/2021 4:30:00 PM 3.99 39.182 0.085 6.47 3.32 13.6
3/8/2021 4:45:00 PM 4.03 39.254 0.085 6.47 3.3 13.56
3/8/2021 5:00:00 PM 4.03 39.254 0.085 6.46 3.36 13.51
3/8/2021 5:15:00 PM 4 39.2 0.085 6.48 3.32 13.47
3/8/2021 5:30:00 PM 3.98 39.164 0.085 6.46 3.26 13.42
3/8/2021 5:45:00 PM 3.97 39.146 0.085 6.47 3.54 13.36
3/8/2021 6:00:00 PM 3.94 39.092 0.085 6.46 3.3 13.29
3/8/2021 6:15:00 PM 3.91 39.038 0.086 6.46 3.35 13.21
3/8/2021 6:30:00 PM 3.88 38.984 0.085 6.47 3.26 13.16
3/8/2021 6:45:00 PM 3.85 38.93 0.085 6.45 3.41 13.09
3/8/2021 7:00:00 PM 3.81 38.858 0.085 6.43 3.43 13.04
3/8/2021 7:15:00 PM 3.77 38.786 0.085 6.44 3.37 12.99
3/8/2021 7:30:00 PM 3.74 38.732 0.085 6.45 3.39 12.95
3/8/2021 7:45:00 PM 3.7 38.66 0.086 6.4 3.49 12.92
3/8/2021 8:00:00 PM 3.68 38.624 0.086 6.42 3.4 12.9
3/8/2021 8:15:00 PM 3.66 38.588 0.086 6.44 3.32 12.88
3/8/2021 8:30:00 PM 3.64 38.552 0.086 6.43 3.43 12.86
3/8/2021 8:45:00 PM 3.62 38.516 0.086 6.44 3.4 12.85
3/8/2021 9:00:00 PM 3.59 38.462 0.086 6.46 3.6 12.84
3/8/2021 9:15:00 PM 3.57 38.426 0.086 6.42 3.45 12.84
3/8/2021 9:30:00 PM 3.55 38.39 0.086 6.45 3.43 12.85
3/8/2021 9:45:00 PM 3.51 38.318 0.086 6.42 3.35 12.85
3/8/2021 10:00:00 PM 3.48 38.264 0.086 6.41 3.55 12.86
3/8/2021 10:15:00 PM 3.45 38.21 0.086 6.43 3.47 12.87
3/8/2021 10:30:00 PM 3.41 38.138 0.086 6.39 3.42 12.88
3/8/2021 10:45:00 PM 3.37 38.066 0.086 6.4 3.44 12.89
3/8/2021 11:00:00 PM 3.33 37.994 0.086 6.41 3.4 12.9
3/8/2021 11:15:00 PM 3.31 37.958 0.086 6.41 3.56 12.91
3/8/2021 11:30:00 PM 3.29 37.922 0.086 6.42 3.51 12.93
3/8/2021 11:45:00 PM 3.27 37.886 0.086 6.42 3.37 12.93
3/9/2021 12:00:00 AM 3.27 37.886 0.086 6.41 3.29 12.95
3/9/2021 12:15:00 AM 3.25 37.85 0.087 6.42 3.46 12.95
3/9/2021 12:30:00 AM 3.24 37.832 0.087 6.42 3.52 12.95
3/9/2021 12:45:00 AM 3.22 37.796 0.087 6.43 3.47 12.96
3/9/2021 1:00:00 AM 3.2 37.76 0.087 6.42 3.34 12.97
3/9/2021 1:15:00 AM 3.17 37.706 0.087 6.43 3.41 12.97
3/9/2021 1:30:00 AM 3.13 37.634 0.087 6.43 3.37 12.98
3/9/2021 1:45:00 AM 3.1 37.58 0.087 6.45 3.35 12.99
3/9/2021 2:00:00 AM 3.06 37.508 0.087 6.43 3.46 13
3/9/2021 2:15:00 AM 3.02 37.436 0.087 6.42 3.45 13.02
3/9/2021 2:30:00 AM 2.97 37.346 0.087 6.41 3.37 13.02
3/9/2021 2:45:00 AM 2.93 37.274 0.087 6.42 3.44 13.05
3/9/2021 3:00:00 AM 2.9 37.22 0.087 6.43 3.39 13.05
3/9/2021 3:15:00 AM 2.86 37.148 0.087 6.41 3.35 13.06
3/9/2021 3:30:00 AM 2.82 37.076 0.087 6.44 3.29 13.07
3/9/2021 3:45:00 AM 2.8 37.04 0.087 6.42 3.33 13.08
3/9/2021 4:00:00 AM 2.77 36.986 0.087 6.41 3.46 13.1
3/9/2021 4:15:00 AM 2.75 36.95 0.088 6.44 3.4 13.12
3/9/2021 4:30:00 AM 2.73 36.914 0.088 6.44 3.29 13.11
3/9/2021 4:45:00 AM 2.71 36.878 0.088 6.44 3.41 13.13
3/9/2021 5:00:00 AM 2.68 36.824 0.088 6.41 3.41 13.15
3/9/2021 5:15:00 AM 2.65 36.77 0.088 6.42 3.31 13.15
3/9/2021 5:30:00 AM 2.62 36.716 0.088 6.42 3.29 13.16
3/9/2021 5:45:00 AM 2.59 36.662 0.088 6.41 3.47 13.17
3/9/2021 6:00:00 AM 2.56 36.608 0.088 6.4 3.52 13.19
3/9/2021 6:15:00 AM 2.53 36.554 0.088 6.44 3.44 13.2
3/9/2021 6:30:00 AM 2.5 36.5 0.088 6.41 3.31 13.21
3/9/2021 6:45:00 AM 2.47 36.446 0.089 6.41 3.37 13.23
3/9/2021 7:00:00 AM 2.45 36.41 0.088 6.43 3.4 13.27
3/9/2021 7:15:00 AM 2.44 36.392 0.088 6.43 3.34 13.32
3/9/2021 7:30:00 AM 2.43 36.374 0.088 6.41 3.23 13.37
3/9/2021 7:45:00 AM 2.45 36.41 0.088 6.42 3.22 13.44
3/9/2021 8:00:00 AM 2.48 36.464 0.088 6.46 3.37 13.51
3/9/2021 8:15:00 AM 2.51 36.518 0.088 6.43 3.45 13.57
3/9/2021 8:30:00 AM 2.57 36.626 0.088 6.51 3.47 13.65
3/9/2021 8:45:00 AM 2.65 36.77 0.088 6.44 3.39 13.71
3/9/2021 9:00:00 AM 2.74 36.932 0.088 6.47 3.33 13.77
3/9/2021 9:15:00 AM 2.86 37.148 0.088 6.49 3.28 13.81
3/9/2021 9:30:00 AM 3 37.4 0.088 6.46 3.35 13.82
3/9/2021 9:45:00 AM 3.16 37.688 0.088 6.49 3.35 13.83
3/9/2021 10:00:00 AM 3.34 38.012 0.088 6.5 3.32 13.83
3/9/2021 10:15:00 AM 3.55 38.39 0.088 6.51 3.31 13.82
3/9/2021 10:30:00 AM 3.76 38.768 0.087 6.54 3.31 13.8
3/9/2021 10:45:00 AM 3.95 39.11 0.087 6.53 3.24 13.77
3/9/2021 11:00:00 AM 4.16 39.488 0.087 6.54 3.31 13.74
3/9/2021 11:15:00 AM 4.38 39.884 0.087 6.56 3.15 13.7
3/9/2021 11:30:00 AM 4.63 40.334 0.087 6.55 3.16 13.66
3/9/2021 11:45:00 AM 4.86 40.748 0.087 6.55 3.29 13.6
3/9/2021 12:00:00 PM 5.09 41.162 0.087 6.57 3.2 13.54
3/9/2021 12:15:00 PM 5.33 41.594 0.087 6.54 3.18 13.47
3/9/2021 12:30:00 PM 5.53 41.954 0.087 6.57 3.2 13.41
3/9/2021 12:45:00 PM 5.77 42.386 0.087 6.58 3.27 13.35
3/9/2021 1:00:00 PM 6.02 42.836 0.087 6.59 3.21 13.29
3/9/2021 1:15:00 PM 6.22 43.196 0.087 6.6 3.28 13.22
3/9/2021 1:30:00 PM 6.41 43.538 0.087 6.57 3.51 13.15
3/9/2021 1:45:00 PM 6.58 43.844 0.087 6.56 3.45 13.1
3/9/2021 2:00:00 PM 6.7 44.06 0.087 6.58 3.28 13.05
3/9/2021 2:15:00 PM 6.84 44.312 0.087 6.56 3.18 12.98
3/9/2021 2:30:00 PM 6.95 44.51 0.087 6.56 3.28 12.94
3/9/2021 2:45:00 PM 7.04 44.672 0.087 6.56 3.3 12.89
3/9/2021 3:00:00 PM 7.12 44.816 0.087 6.56 3.51 12.84
3/9/2021 3:15:00 PM 7.21 44.978 0.087 6.55 3.39 12.79
3/9/2021 3:30:00 PM 7.27 45.086 0.087 6.55 3.39 12.74
3/9/2021 3:45:00 PM 7.31 45.158 0.087 6.53 3.64 12.69
3/9/2021 4:00:00 PM 7.33 45.194 0.087 6.51 3.6 12.64
3/9/2021 4:15:00 PM 7.34 45.212 0.087 6.5 3.63 12.59
3/9/2021 4:30:00 PM 7.34 45.212 0.087 6.49 3.92 12.54
3/9/2021 4:45:00 PM 7.33 45.194 0.087 6.52 3.89 12.49
3/9/2021 5:00:00 PM 7.31 45.158 0.087 6.51 3.95 12.43
3/9/2021 5:15:00 PM 7.28 45.104 0.087 6.5 3.89 12.37
3/9/2021 5:30:00 PM 7.24 45.032 0.087 6.46 4.05 12.31
3/9/2021 5:45:00 PM 7.2 44.96 0.088 6.47 4.23 12.24
3/9/2021 6:00:00 PM 7.16 44.888 0.088 6.49 4.06 12.17
3/9/2021 6:15:00 PM 7.12 44.816 0.088 6.47 4.07 12.09
3/9/2021 6:30:00 PM 7.06 44.708 0.088 6.46 4.25 12.02
3/9/2021 6:45:00 PM 7.01 44.618 0.088 6.48 4.18 11.96
3/9/2021 7:00:00 PM 6.95 44.51 0.088 6.46 4.3 11.91
3/9/2021 7:15:00 PM 6.88 44.384 0.088 6.46 4.26 11.87
3/9/2021 7:30:00 PM 6.82 44.276 0.088 6.44 4.34 11.84
3/9/2021 7:45:00 PM 6.75 44.15 0.088 6.44 4.38 11.82
3/9/2021 8:00:00 PM 6.68 44.024 0.088 6.45 4.63 11.82
3/9/2021 8:15:00 PM 6.6 43.88 0.088 6.43 4.71 11.82
3/9/2021 8:30:00 PM 6.52 43.736 0.088 6.43 4.76 11.83
3/9/2021 8:45:00 PM 6.46 43.628 0.088 6.4 5.09 11.84
3/9/2021 9:00:00 PM 6.38 43.484 0.088 6.42 5 11.86
3/9/2021 9:15:00 PM 6.31 43.358 0.088 6.43 5 11.88
3/9/2021 9:30:00 PM 6.24 43.232 0.088 6.39 5.27 11.9
3/9/2021 9:45:00 PM 6.18 43.124 0.088 6.44 5.44 11.92
3/9/2021 10:00:00 PM 6.12 43.016 0.088 6.44 5.41 11.94
3/9/2021 10:15:00 PM 6.06 42.908 0.088 6.4 5.41 11.96
3/9/2021 10:30:00 PM 5.99 42.782 0.088 6.41 5.21 11.97
3/9/2021 10:45:00 PM 5.92 42.656 0.088 6.43 5.12 12
3/9/2021 11:00:00 PM 5.86 42.548 0.088 6.39 5.25 12.02
3/9/2021 11:15:00 PM 5.8 42.44 0.088 6.42 5.34 12.04
3/9/2021 11:30:00 PM 5.73 42.314 0.088 6.41 5.15 12.06
3/9/2021 11:45:00 PM 5.66 42.188 0.089 6.43 5.3 12.08
3/10/2021 12:00:00 AM 5.59 42.062 0.089 6.39 5.43 12.11
3/10/2021 12:15:00 AM 5.52 41.936 0.09 6.39 4.95 12.13
3/10/2021 12:30:00 AM 5.45 41.81 0.09 6.41 4.99 12.16
3/10/2021 12:45:00 AM 5.38 41.684 0.091 6.41 5.24 12.18
3/10/2021 1:00:00 AM 5.3 41.54 0.091 6.42 5.34 12.2
3/10/2021 1:15:00 AM 5.23 41.414 0.092 6.44 5.16 12.23
3/10/2021 1:30:00 AM 5.17 41.306 0.092 6.42 5.16 12.25
3/10/2021 1:45:00 AM 5.09 41.162 0.092 6.4 5.07 12.28
3/10/2021 2:00:00 AM 5.02 41.036 0.093 6.39 5.06 12.3
3/10/2021 2:15:00 AM 4.96 40.928 0.093 6.41 5.07 12.33
3/10/2021 2:30:00 AM 4.89 40.802 0.093 6.4 5.21 12.36
3/10/2021 2:45:00 AM 4.81 40.658 0.093 6.44 5.2 12.38
3/10/2021 3:00:00 AM 4.74 40.532 0.093 6.42 5.26 12.41
3/10/2021 3:15:00 AM 4.67 40.406 0.093 6.41 5.76 12.44
3/10/2021 3:30:00 AM 4.6 40.28 0.093 6.39 5.51 12.46
3/10/2021 3:45:00 AM 4.53 40.154 0.093 6.4 5.85 12.49
3/10/2021 4:00:00 AM 4.46 40.028 0.093 6.41 5.83 12.51
3/10/2021 4:15:00 AM 4.39 39.902 0.093 6.41 5.83 12.54
3/10/2021 4:30:00 AM 4.32 39.776 0.093 6.43 5.81 12.56
3/10/2021 4:45:00 AM 4.25 39.65 0.093 6.43 6.13 12.59
3/10/2021 5:00:00 AM 4.18 39.524 0.093 6.42 5.58 12.61
3/10/2021 5:15:00 AM 4.12 39.416 0.093 6.41 5.84 12.64
3/10/2021 5:30:00 AM 4.06 39.308 0.094 6.42 5.7 12.66
3/10/2021 5:45:00 AM 3.99 39.182 0.094 6.42 5.62 12.69
3/10/2021 6:00:00 AM 3.93 39.074 0.094 6.42 5.87 12.72
3/10/2021 6:15:00 AM 3.86 38.948 0.094 6.42 5.51 12.74
3/10/2021 6:30:00 AM 3.81 38.858 0.094 6.42 5.64 12.77
3/10/2021 6:45:00 AM 3.75 38.75 0.094 6.44 5.49 12.8
3/10/2021 7:00:00 AM 3.7 38.66 0.094 6.43 5.42 12.85
3/10/2021 7:15:00 AM 3.65 38.57 0.093 6.43 5.29 12.9
3/10/2021 7:30:00 AM 3.62 38.516 0.093 6.43 5.5 12.98
3/10/2021 7:45:00 AM 3.59 38.462 0.092 6.42 5.67 13.05
3/10/2021 8:00:00 AM 3.58 38.444 0.092 6.45 5.31 13.14
3/10/2021 8:15:00 AM 3.59 38.462 0.092 6.45 5.02 13.23
3/10/2021 8:30:00 AM 3.62 38.516 0.091 6.46 5.22 13.32
3/10/2021 8:45:00 AM 3.66 38.588 0.091 6.45 4.97 13.4
3/10/2021 9:00:00 AM 3.73 38.714 0.09 6.5 5.03 13.48
3/10/2021 9:15:00 AM 3.8 38.84 0.09 6.48 4.72 13.54
3/10/2021 9:30:00 AM 3.9 39.02 0.089 6.51 4.66 13.6
3/10/2021 9:45:00 AM 4.02 39.236 0.089 6.52 4.93 13.62
3/10/2021 10:00:00 AM 4.15 39.47 0.089 6.51 4.68 13.65
3/10/2021 10:15:00 AM 4.29 39.722 0.088 6.55 4.7 13.66
3/10/2021 10:30:00 AM 4.44 39.992 0.088 6.52 4.72 13.66
3/10/2021 10:45:00 AM 4.6 40.28 0.088 6.54 4.61 13.65
3/10/2021 11:00:00 AM 4.77 40.586 0.088 6.57 4.27 13.63
3/10/2021 11:15:00 AM 4.95 40.91 0.087 6.59 4.44 13.61
3/10/2021 11:30:00 AM 5.14 41.252 0.087 6.56 4.35 13.58
3/10/2021 11:45:00 AM 5.32 41.576 0.087 6.6 4.22 13.55
3/10/2021 12:00:00 PM 5.52 41.936 0.087 6.56 4.26 13.5
3/10/2021 12:15:00 PM 5.71 42.278 0.087 6.56 4.12 13.46
3/10/2021 12:30:00 PM 5.9 42.62 0.087 6.59 4.23 13.41
3/10/2021 12:45:00 PM 6.09 42.962 0.087 6.61 3.96 13.36
3/10/2021 1:00:00 PM 6.28 43.304 0.086 6.6 4.06 13.31
3/10/2021 1:15:00 PM 6.44 43.592 0.086 6.58 3.95 13.27
3/10/2021 1:30:00 PM 6.59 43.862 0.086 6.59 4.04 13.22
3/10/2021 1:45:00 PM 6.74 44.132 0.086 6.58 3.94 13.17
3/10/2021 2:00:00 PM 6.89 44.402 0.086 6.61 3.92 13.11
3/10/2021 2:15:00 PM 7.02 44.636 0.086 6.59 3.99 13.06
3/10/2021 2:30:00 PM 7.13 44.834 0.086 6.61 3.95 13
3/10/2021 2:45:00 PM 7.24 45.032 0.086 6.6 3.92 12.95
3/10/2021 3:00:00 PM 7.32 45.176 0.086 6.57 3.87 12.89
3/10/2021 3:15:00 PM 7.41 45.338 0.086 6.57 3.82 12.84
3/10/2021 3:30:00 PM 7.47 45.446 0.086 6.57 3.87 12.79
3/10/2021 3:45:00 PM 7.52 45.536 0.085 6.57 4 12.74
3/10/2021 4:00:00 PM 7.56 45.608 0.086 6.56 4.22 12.67
3/10/2021 4:15:00 PM 7.6 45.68 0.085 6.55 4 12.63
3/10/2021 4:30:00 PM 7.62 45.716 0.085 6.59 4.04 12.56
3/10/2021 4:45:00 PM 7.63 45.734 0.085 6.53 4.08 12.49
3/10/2021 5:00:00 PM 7.65 45.77 0.085 6.54 4.12 12.44
3/10/2021 5:15:00 PM 7.66 45.788 0.085 6.56 4.02 12.36
3/10/2021 5:30:00 PM 7.66 45.788 0.085 6.52 4.31 12.3
3/10/2021 5:45:00 PM 7.65 45.77 0.085 6.55 4.28 12.22
3/10/2021 6:00:00 PM 7.64 45.752 0.085 6.54 4.3 12.12
3/10/2021 6:15:00 PM 7.64 45.752 0.085 6.53 4.49 12.02
3/10/2021 6:30:00 PM 7.63 45.734 0.085 6.54 4.59 11.93
3/10/2021 6:45:00 PM 7.62 45.716 0.085 6.51 4.61 11.84
3/10/2021 7:00:00 PM 7.59 45.662 0.085 6.53 4.54 11.76
3/10/2021 7:15:00 PM 7.56 45.608 0.085 6.53 4.9 11.71
3/10/2021 7:30:00 PM 7.52 45.536 0.086 6.52 4.98 11.65
3/10/2021 7:45:00 PM 7.49 45.482 0.085 6.52 5.22 11.62
3/10/2021 8:00:00 PM 7.46 45.428 0.085 6.51 5.33 11.6
3/10/2021 8:15:00 PM 7.41 45.338 0.085 6.47 5.71 11.59
3/10/2021 8:30:00 PM 7.35 45.23 0.085 6.54 6.06 11.59
3/10/2021 8:45:00 PM 7.3 45.14 0.085 6.48 6.14 11.59
3/10/2021 9:00:00 PM 7.24 45.032 0.085 6.5 6.27 11.59
3/10/2021 9:15:00 PM 7.2 44.96 0.085 6.48 6.4 11.6
3/10/2021 9:30:00 PM 7.15 44.87 0.085 6.48 6.38 11.61
3/10/2021 9:45:00 PM 7.11 44.798 0.085 6.49 6.4 11.62
3/10/2021 10:00:00 PM 7.07 44.726 0.085 6.48 6.54 11.63
3/10/2021 10:15:00 PM 7.03 44.654 0.085 6.46 6.72 11.65
3/10/2021 10:30:00 PM 6.99 44.582 0.085 6.5 6.97 11.65
3/10/2021 10:45:00 PM 6.95 44.51 0.085 6.47 6.81 11.66
3/10/2021 11:00:00 PM 6.9 44.42 0.085 6.47 6.85 11.68
3/10/2021 11:15:00 PM 6.85 44.33 0.085 6.44 6.86 11.7
3/10/2021 11:30:00 PM 6.8 44.24 0.085 6.44 6.73 11.71
3/10/2021 11:45:00 PM 6.75 44.15 0.085 6.45 6.76 11.73
3/11/2021 12:00:00 AM 6.7 44.06 0.085 6.45 6.56 11.74
3/11/2021 12:15:00 AM 6.64 43.952 0.085 6.45 6.91 11.76
3/11/2021 12:30:00 AM 6.58 43.844 0.086 6.43 7.21 11.78
3/11/2021 12:45:00 AM 6.52 43.736 0.085 6.45 7.15 11.8
3/11/2021 1:00:00 AM 6.45 43.61 0.085 6.43 7.44 11.82
3/11/2021 1:15:00 AM 6.39 43.502 0.085 6.46 7.71 11.84
3/11/2021 1:30:00 AM 6.32 43.376 0.085 6.43 7.94 11.87
3/11/2021 1:45:00 AM 6.27 43.286 0.085 6.44 7.82 11.88
3/11/2021 2:00:00 AM 6.21 43.178 0.085 6.41 8 11.9
3/11/2021 2:15:00 AM 6.16 43.088 0.084 6.43 8 11.92
3/11/2021 2:30:00 AM 6.12 43.016 0.084 6.44 7.94 11.94
3/11/2021 2:45:00 AM 6.07 42.926 0.084 6.45 7.94 11.96
3/11/2021 3:00:00 AM 6.03 42.854 0.084 6.43 7.82 11.98
3/11/2021 3:15:00 AM 5.98 42.764 0.084 6.44 8.07 11.99
3/11/2021 3:30:00 AM 5.93 42.674 0.084 6.43 7.73 12.01
3/11/2021 3:45:00 AM 5.89 42.602 0.084 6.44 7.87 12.03
3/11/2021 4:00:00 AM 5.85 42.53 0.084 6.44 7.66 12.04
3/11/2021 4:15:00 AM 5.8 42.44 0.084 6.44 7.27 12.06
3/11/2021 4:30:00 AM 5.76 42.368 0.083 6.42 7.1 12.07
3/11/2021 4:45:00 AM 5.72 42.296 0.083 6.43 7.22 12.09
3/11/2021 5:00:00 AM 5.67 42.206 0.083 6.45 7.22 12.1
3/11/2021 5:15:00 AM 5.63 42.134 0.082 6.45 7.05 12.12
3/11/2021 5:30:00 AM 5.59 42.062 0.082 6.42 7.03 12.14
3/11/2021 5:45:00 AM 5.55 41.99 0.081 6.44 6.97 12.15
3/11/2021 6:00:00 AM 5.51 41.918 0.081 6.44 7.02 12.17
3/11/2021 6:15:00 AM 5.46 41.828 0.08 6.44 6.96 12.19
3/11/2021 6:30:00 AM 5.41 41.738 0.08 6.44 7.01 12.2
3/11/2021 6:45:00 AM 5.37 41.666 0.08 6.43 6.9 12.22
3/11/2021 7:00:00 AM 5.33 41.594 0.08 6.45 6.92 12.25
3/11/2021 7:15:00 AM 5.3 41.54 0.079 6.45 6.86 12.3
3/11/2021 7:30:00 AM 5.27 41.486 0.079 6.44 6.81 12.35
3/11/2021 7:45:00 AM 5.27 41.486 0.079 6.45 6.54 12.43
3/11/2021 8:00:00 AM 5.24 41.432 0.078 6.44 6.55 12.47
3/11/2021 8:15:00 AM 5.26 41.468 0.078 6.45 6.5 12.56
3/11/2021 8:30:00 AM 5.28 41.504 0.077 6.46 6.54 12.63
3/11/2021 8:45:00 AM 5.34 41.612 0.077 6.48 6.56 12.71
3/11/2021 9:00:00 AM 5.39 41.702 0.077 6.48 6.34 12.79
3/11/2021 9:15:00 AM 5.48 41.864 0.076 6.5 6.45 12.85
3/11/2021 9:30:00 AM 5.58 42.044 0.076 6.5 6.45 12.89
3/11/2021 9:45:00 AM 5.66 42.188 0.076 6.51 6.39 12.93
3/11/2021 10:00:00 AM 5.78 42.404 0.076 6.51 6.37 12.95
3/11/2021 10:15:00 AM 5.89 42.602 0.075 6.53 6.29 12.96
3/11/2021 10:30:00 AM 6.06 42.908 0.075 6.53 6.19 12.97
3/11/2021 10:45:00 AM 6.1 42.98 0.075 6.52 6.06 12.94
3/11/2021 11:00:00 AM 6.16 43.088 0.075 6.53 6.1 12.91
3/11/2021 11:15:00 AM 6.16 43.088 0.075 6.52 7.09 12.81
3/11/2021 11:30:00 AM 6.15 43.07 0.074 6.51 6.12 12.73
3/11/2021 11:45:00 AM 6.12 43.016 0.074 6.5 6.24 12.66
3/11/2021 12:00:00 PM 6.11 42.998 0.074 6.48 6.05 12.6
3/11/2021 12:15:00 PM 6.14 43.052 0.074 6.5 6.07 12.54
3/11/2021 12:30:00 PM 6.17 43.106 0.074 6.5 6.08 12.51
3/11/2021 12:45:00 PM 6.19 43.142 0.073 6.49 6.11 12.47
3/11/2021 1:00:00 PM 6.22 43.196 0.073 6.49 6.38 12.43
3/11/2021 1:15:00 PM 6.25 43.25 0.073 6.48 6.18 12.37
3/11/2021 1:30:00 PM 6.29 43.322 0.073 6.48 6.18 12.34
3/11/2021 1:45:00 PM 6.34 43.412 0.073 6.49 6.21 12.3
3/11/2021 2:00:00 PM 6.39 43.502 0.073 6.5 6.32 12.29
3/11/2021 2:15:00 PM 6.43 43.574 0.072 6.48 6.49 12.27
3/11/2021 2:30:00 PM 6.48 43.664 0.072 6.5 6.33 12.25
3/11/2021 2:45:00 PM 6.52 43.736 0.072 6.5 6.64 12.24
3/11/2021 3:00:00 PM 6.56 43.808 0.072 6.49 6.69 12.22
3/11/2021 3:15:00 PM 6.59 43.862 0.072 6.5 6.8 12.19
3/11/2021 3:30:00 PM 6.62 43.916 0.072 6.5 7.24 12.15
3/11/2021 3:45:00 PM 6.67 44.006 0.072 6.48 7.3 12.09
3/11/2021 4:00:00 PM 6.72 44.096 0.072 6.49 7.77 12.06
3/11/2021 4:15:00 PM 6.77 44.186 0.072 6.48 8.35 12.03
3/11/2021 4:30:00 PM 6.82 44.276 0.072 6.5 8.82 12.02
3/11/2021 4:45:00 PM 6.85 44.33 0.072 6.48 9.83 11.99
3/11/2021 5:00:00 PM 6.87 44.366 0.073 6.49 11.93 11.97
3/11/2021 5:15:00 PM 6.88 44.384 0.073 6.48 12.48 11.96
3/11/2021 5:30:00 PM 6.88 44.384 0.074 6.48 13.11 11.93
3/11/2021 5:45:00 PM 6.89 44.402 0.074 6.48 13.03 11.9
3/11/2021 6:00:00 PM 6.89 44.402 0.075 6.47 13.94 11.87
3/11/2021 6:15:00 PM 6.89 44.402 0.077 6.46 15.24 11.84
3/11/2021 6:30:00 PM 6.89 44.402 0.079 6.45 18.72 11.82
3/11/2021 6:45:00 PM 6.89 44.402 0.08 6.45 19.73 11.8
3/11/2021 7:00:00 PM 6.89 44.402 0.078 6.46 18.68 11.78
3/11/2021 7:15:00 PM 6.88 44.384 0.077 6.45 17.91 11.77
3/11/2021 7:30:00 PM 6.88 44.384 0.076 6.45 17.72 11.77
3/11/2021 7:45:00 PM 6.87 44.366 0.075 6.44 17.72 11.77
3/11/2021 8:00:00 PM 6.86 44.348 0.075 6.45 19.61 11.76
3/11/2021 8:15:00 PM 6.84 44.312 0.074 6.44 17.53 11.76
3/11/2021 8:30:00 PM 6.83 44.294 0.074 6.44 18.52 11.76
3/11/2021 8:45:00 PM 6.81 44.258 0.073 6.44 21.38 11.77
3/11/2021 9:00:00 PM 6.81 44.258 0.073 6.43 18.92 11.77
3/11/2021 9:15:00 PM 6.8 44.24 0.072 6.42 19.76 11.77
3/11/2021 9:30:00 PM 6.79 44.222 0.072 6.43 19.98 11.78
3/11/2021 9:45:00 PM 6.78 44.204 0.072 6.43 19.3 11.78
3/11/2021 10:00:00 PM 6.77 44.186 0.071 6.42 25.3 11.78
3/11/2021 10:15:00 PM 6.77 44.186 0.071 6.44 21.21 11.79
3/11/2021 10:30:00 PM 6.76 44.168 0.071 6.44 19.65 11.79
3/11/2021 10:45:00 PM 6.76 44.168 0.07 6.44 20.3 11.8
3/11/2021 11:00:00 PM 6.76 44.168 0.07 6.43 20.96 11.8
3/11/2021 11:15:00 PM 6.75 44.15 0.07 6.43 20.61 11.8
3/11/2021 11:30:00 PM 6.73 44.114 0.069 6.43 22.98 11.81
3/11/2021 11:45:00 PM 6.72 44.096 0.069 6.42 23.26 11.81
3/12/2021 12:00:00 AM 6.71 44.078 0.069 6.42 22.31 11.82
3/12/2021 12:15:00 AM 6.7 44.06 0.068 6.43 23.34 11.82
3/12/2021 12:30:00 AM 6.69 44.042 0.068 6.42 21.87 11.82
3/12/2021 12:45:00 AM 6.69 44.042 0.068 6.43 21.92 11.82
3/12/2021 1:00:00 AM 6.69 44.042 0.068 6.42 22.96 11.83
3/12/2021 1:15:00 AM 6.68 44.024 0.067 6.42 21.91 11.83
3/12/2021 1:30:00 AM 6.69 44.042 0.067 6.43 21.31 11.82
3/12/2021 1:45:00 AM 6.69 44.042 0.067 6.43 21.21 11.82
3/12/2021 2:00:00 AM 6.71 44.078 0.066 6.43 21.49 11.82
3/12/2021 2:15:00 AM 6.72 44.096 0.066 6.43 21.57 11.81
3/12/2021 2:30:00 AM 6.73 44.114 0.066 6.43 21.72 11.81
3/12/2021 2:45:00 AM 6.73 44.114 0.066 6.43 23.45 11.81
3/12/2021 3:00:00 AM 6.73 44.114 0.066 6.42 20.16 11.81
3/12/2021 3:15:00 AM 6.74 44.132 0.065 6.42 21.74 11.81
3/12/2021 3:30:00 AM 6.74 44.132 0.065 6.43 22.9 11.8
3/12/2021 3:45:00 AM 6.76 44.168 0.065 6.43 23.25 11.8
3/12/2021 4:00:00 AM 6.77 44.186 0.065 6.43 23.11 11.8
3/12/2021 4:15:00 AM 6.78 44.204 0.064 6.44 24.93 11.8
3/12/2021 4:30:00 AM 6.79 44.222 0.064 6.43 23.55 11.8
3/12/2021 4:45:00 AM 6.8 44.24 0.064 6.44 24.05 11.8
3/12/2021 5:00:00 AM 6.81 44.258 0.064 6.43 23.98 11.8
3/12/2021 5:15:00 AM 6.81 44.258 0.063 6.43 24.63 11.8
3/12/2021 5:30:00 AM 6.8 44.24 0.063 6.43 26.49 11.8
3/12/2021 5:45:00 AM 6.79 44.222 0.063 6.42 26.34 11.8
3/12/2021 6:00:00 AM 6.77 44.186 0.062 6.43 26.27 11.81
3/12/2021 6:15:00 AM 6.74 44.132 0.062 6.43 28.4 11.82
3/12/2021 6:30:00 AM 6.71 44.078 0.062 6.42 29.55 11.82
3/12/2021 6:45:00 AM 6.67 44.006 0.062 6.42 27.71 11.84
3/12/2021 7:00:00 AM 6.64 43.952 0.062 6.42 26.85 11.85
3/12/2021 7:15:00 AM 6.61 43.898 0.061 6.41 23.58 11.87
3/12/2021 7:30:00 AM 6.59 43.862 0.061 6.41 27.56 11.89
3/12/2021 7:45:00 AM 6.57 43.826 0.061 6.41 26.86 11.91
3/12/2021 8:00:00 AM 6.57 43.826 0.061 6.41 26.92 11.94
3/12/2021 8:15:00 AM 6.57 43.826 0.061 6.41 26.29 11.97
3/12/2021 8:30:00 AM 6.58 43.844 0.06 6.42 25.77 12.01
3/12/2021 8:45:00 AM 6.6 43.88 0.06 6.42 25.53 12.04
3/12/2021 9:00:00 AM 6.63 43.934 0.06 6.42 25.93 12.07
3/12/2021 9:15:00 AM 6.66 43.988 0.06 6.43 23.39 12.11
3/12/2021 9:30:00 AM 6.7 44.06 0.06 6.42 24.37 12.14
3/12/2021 9:45:00 AM 6.75 44.15 0.06 6.43 22.58 12.16
3/12/2021 10:00:00 AM 6.81 44.258 0.059 6.44 23.46 12.18
3/12/2021 10:15:00 AM 6.88 44.384 0.059 6.44 22.26 12.2
3/12/2021 10:30:00 AM 6.94 44.492 0.059 6.46 21.92 12.22
3/12/2021 10:45:00 AM 7.01 44.618 0.059 6.46 21.27 12.23
3/12/2021 11:00:00 AM 7.1 44.78 0.059 6.46 21.43 12.24
3/12/2021 11:15:00 AM 7.19 44.942 0.059 6.47 20.32 12.25
3/12/2021 11:30:00 AM 7.28 45.104 0.058 6.47 20.07 12.25
3/12/2021 11:45:00 AM 7.39 45.302 0.058 6.48 19.4 12.24
3/12/2021 12:00:00 PM 7.48 45.464 0.058 6.48 26.89 12.24
3/12/2021 12:15:00 PM 7.59 45.662 0.058 6.49 19.06 12.22
3/12/2021 12:30:00 PM 7.71 45.878 0.058 6.49 18.2 12.2
3/12/2021 12:45:00 PM 7.82 46.076 0.057 6.5 17.65 12.18
3/12/2021 1:00:00 PM 7.93 46.274 0.057 6.5 17.58 12.16
3/12/2021 1:15:00 PM 8.05 46.49 0.057 6.51 16.9 12.13
3/12/2021 1:30:00 PM 8.16 46.688 0.057 6.52 15.87 12.1
3/12/2021 1:45:00 PM 8.28 46.904 0.057 6.52 16.78 12.06
3/12/2021 2:00:00 PM 8.39 47.102 0.057 6.52 16.64 12.02
3/12/2021 2:15:00 PM 8.49 47.282 0.056 6.52 14.25 11.98
3/12/2021 2:30:00 PM 8.59 47.462 0.056 6.51 17.25 11.94
3/12/2021 2:45:00 PM 8.68 47.624 0.056 6.52 16.23 11.91
3/12/2021 3:00:00 PM 8.77 47.786 0.056 6.52 16.22 11.87
3/12/2021 3:15:00 PM 8.84 47.912 0.056 6.52 15.83 11.82
3/12/2021 3:30:00 PM 8.9 48.02 0.056 6.51 15.41 11.79
3/12/2021 3:45:00 PM 8.95 48.11 0.056 6.51 15.36 11.74
3/12/2021 4:00:00 PM 8.98 48.164 0.056 6.51 15.33 11.7
3/12/2021 4:15:00 PM 9.01 48.218 0.056 6.5 15.7 11.66
3/12/2021 4:30:00 PM 9.01 48.218 0.056 6.49 15.38 11.62
3/12/2021 4:45:00 PM 9.01 48.218 0.056 6.5 15.26 11.57
3/12/2021 5:00:00 PM 8.99 48.182 0.056 6.49 15.23 11.53
3/12/2021 5:15:00 PM 8.96 48.128 0.056 6.5 15.88 11.49
3/12/2021 5:30:00 PM 8.91 48.038 0.056 6.49 16.08 11.45
3/12/2021 5:45:00 PM 8.86 47.948 0.056 6.48 15.81 11.42
3/12/2021 6:00:00 PM 8.8 47.84 0.056 6.47 15.9 11.38
3/12/2021 6:15:00 PM 8.74 47.732 0.056 6.46 15.75 11.36
3/12/2021 6:30:00 PM 8.67 47.606 0.056 6.45 16.03 11.34
3/12/2021 6:45:00 PM 8.6 47.48 0.056 6.44 15.83 11.33
3/12/2021 7:00:00 PM 8.54 47.372 0.056 6.44 16.22 11.33
3/12/2021 7:15:00 PM 8.46 47.228 0.056 6.43 16.49 11.33
3/12/2021 7:30:00 PM 8.38 47.084 0.056 6.42 16.12 11.34
3/12/2021 7:45:00 PM 8.29 46.922 0.056 6.4 16.44 11.36
3/12/2021 8:00:00 PM 8.2 46.76 0.056 6.4 16.46 11.37
3/12/2021 8:15:00 PM 8.11 46.598 0.056 6.39 16.3 11.39
3/12/2021 8:30:00 PM 8.01 46.418 0.056 6.39 16.14 11.42
3/12/2021 8:45:00 PM 7.93 46.274 0.056 6.38 17.19 11.44
3/12/2021 9:00:00 PM 7.83 46.094 0.056 6.38 16.32 11.47
3/12/2021 9:15:00 PM 7.75 45.95 0.056 6.37 16.33 11.48
3/12/2021 9:30:00 PM 7.67 45.806 0.056 6.38 15.73 11.52
3/12/2021 9:45:00 PM 7.59 45.662 0.056 6.38 14.92 11.54
3/12/2021 10:00:00 PM 7.51 45.518 0.056 6.38 15.95 11.57
3/12/2021 10:15:00 PM 7.42 45.356 0.056 6.38 17.12 11.59
3/12/2021 10:30:00 PM 7.34 45.212 0.056 6.38 16.24 11.62
3/12/2021 10:45:00 PM 7.26 45.068 0.056 6.38 15.91 11.65
3/12/2021 11:00:00 PM 7.17 44.906 0.056 6.37 15.75 11.68
3/12/2021 11:15:00 PM 7.09 44.762 0.056 6.38 15.56 11.7
3/12/2021 11:30:00 PM 7.01 44.618 0.056 6.38 15.44 11.73
3/12/2021 11:45:00 PM 6.93 44.474 0.056 6.38 15.4 11.76
3/13/2021 12:00:00 AM 6.85 44.33 0.055 6.37 14.95 11.78
3/13/2021 12:15:00 AM 6.75 44.15 0.056 6.37 14.71 11.81
3/13/2021 12:30:00 AM 6.66 43.988 0.055 6.38 15.07 11.84
3/13/2021 12:45:00 AM 6.58 43.844 0.055 6.37 14.71 11.87
3/13/2021 1:00:00 AM 6.48 43.664 0.055 6.38 14.41 11.9
3/13/2021 1:15:00 AM 6.41 43.538 0.055 6.37 14.25 11.93
3/13/2021 1:30:00 AM 6.32 43.376 0.055 6.38 14.01 11.97
3/13/2021 1:45:00 AM 6.25 43.25 0.055 6.38 13.4 11.98
3/13/2021 2:00:00 AM 6.17 43.106 0.055 6.39 13.42 12.01
3/13/2021 2:15:00 AM 6.1 42.98 0.055 6.4 13.46 12.04
3/13/2021 2:30:00 AM 6.02 42.836 0.055 6.4 13.2 12.07
3/13/2021 2:45:00 AM 5.94 42.692 0.055 6.4 13.12 12.1
3/13/2021 3:00:00 AM 5.87 42.566 0.055 6.39 12.8 12.12
3/13/2021 3:15:00 AM 5.8 42.44 0.055 6.4 13.08 12.14
3/13/2021 3:30:00 AM 5.74 42.332 0.055 6.39 12.35 12.17
3/13/2021 3:45:00 AM 5.67 42.206 0.055 6.4 12.47 12.18
3/13/2021 4:00:00 AM 5.6 42.08 0.055 6.4 12.43 12.21
3/13/2021 4:15:00 AM 5.54 41.972 0.055 6.41 12.24 12.23
3/13/2021 4:30:00 AM 5.48 41.864 0.055 6.41 12.14 12.25
3/13/2021 4:45:00 AM 5.41 41.738 0.055 6.41 12.04 12.28
3/13/2021 5:00:00 AM 5.35 41.63 0.055 6.42 11.93 12.3
3/13/2021 5:15:00 AM 5.29 41.522 0.055 6.42 11.67 12.32
3/13/2021 5:30:00 AM 5.23 41.414 0.055 6.43 11.65 12.34
3/13/2021 5:45:00 AM 5.18 41.324 0.055 6.42 11.49 12.36
3/13/2021 6:00:00 AM 5.12 41.216 0.055 6.42 11.31 12.38
3/13/2021 6:15:00 AM 5.07 41.126 0.055 6.42 11.46 12.4
3/13/2021 6:30:00 AM 5.01 41.018 0.055 6.42 11.12 12.43
3/13/2021 6:45:00 AM 4.96 40.928 0.055 6.42 10.99 12.45
3/13/2021 7:00:00 AM 4.91 40.838 0.055 6.44 10.88 12.48
3/13/2021 7:15:00 AM 4.87 40.766 0.055 6.43 10.69 12.52
3/13/2021 7:30:00 AM 4.84 40.712 0.055 6.43 10.83 12.56
3/13/2021 7:45:00 AM 4.82 40.676 0.055 6.43 10.56 12.61
3/13/2021 8:00:00 AM 4.8 40.64 0.055 6.45 10.61 12.66
3/13/2021 8:15:00 AM 4.8 40.64 0.055 6.45 10.19 12.71
3/13/2021 8:30:00 AM 4.81 40.658 0.055 6.46 9.9 12.76
3/13/2021 8:45:00 AM 4.83 40.694 0.055 6.47 9.6 12.81
3/13/2021 9:00:00 AM 4.87 40.766 0.055 6.48 9.98 12.86
3/13/2021 9:15:00 AM 4.91 40.838 0.055 6.49 9.34 12.89
3/13/2021 9:30:00 AM 4.96 40.928 0.055 6.5 9.33 12.92
3/13/2021 9:45:00 AM 5.01 41.018 0.055 6.5 9.14 12.95
3/13/2021 10:00:00 AM 5.07 41.126 0.055 6.51 9.15 12.97
3/13/2021 10:15:00 AM 5.15 41.27 0.055 6.52 8.69 12.98
3/13/2021 10:30:00 AM 5.23 41.414 0.055 6.51 8.64 12.98
3/13/2021 10:45:00 AM 5.32 41.576 0.055 6.54 8.57 12.98
3/13/2021 11:00:00 AM 5.42 41.756 0.055 6.54 8.3 12.97
3/13/2021 11:15:00 AM 5.52 41.936 0.055 6.55 8.11 12.97
3/13/2021 11:30:00 AM 5.62 42.116 0.055 6.56 7.99 12.95
3/13/2021 11:45:00 AM 5.73 42.314 0.055 6.56 7.77 12.94
3/13/2021 12:00:00 PM 5.85 42.53 0.055 6.56 7.72 12.91
3/13/2021 12:15:00 PM 5.97 42.746 0.055 6.56 7.72 12.89
3/13/2021 12:30:00 PM 6.09 42.962 0.055 6.58 7.63 12.86
3/13/2021 12:45:00 PM 6.21 43.178 0.055 6.58 7.62 12.83
3/13/2021 1:00:00 PM 6.33 43.394 0.055 6.57 7.64 12.79
3/13/2021 1:15:00 PM 6.46 43.628 0.055 6.57 7.47 12.76
3/13/2021 1:30:00 PM 6.59 43.862 0.055 6.57 7.39 12.71
3/13/2021 1:45:00 PM 6.71 44.078 0.055 6.58 7.41 12.67
3/13/2021 2:00:00 PM 6.83 44.294 0.055 6.59 7.4 12.63
3/13/2021 2:15:00 PM 6.94 44.492 0.055 6.58 7.4 12.58
3/13/2021 2:30:00 PM 7.06 44.708 0.055 6.58 7.34 12.53
3/13/2021 2:45:00 PM 7.16 44.888 0.055 6.59 7.25 12.49
3/13/2021 3:00:00 PM 7.25 45.05 0.055 6.58 7.29 12.45
3/13/2021 3:15:00 PM 7.34 45.212 0.055 6.57 7.42 12.4
3/13/2021 3:30:00 PM 7.42 45.356 0.055 6.57 7.24 12.35
3/13/2021 3:45:00 PM 7.48 45.464 0.055 6.58 7.29 12.31
3/13/2021 4:00:00 PM 7.53 45.554 0.055 6.57 7.34 12.26
3/13/2021 4:15:00 PM 7.57 45.626 0.055 6.57 7.25 12.22
3/13/2021 4:30:00 PM 7.6 45.68 0.055 6.55 7.19 12.18
3/13/2021 4:45:00 PM 7.62 45.716 0.055 6.55 7.12 12.13
3/13/2021 5:00:00 PM 7.63 45.734 0.055 6.54 7.13 12.08
3/13/2021 5:15:00 PM 7.62 45.716 0.055 6.54 7.49 12.03
3/13/2021 5:30:00 PM 7.6 45.68 0.055 6.54 7.45 11.98
3/13/2021 5:45:00 PM 7.56 45.608 0.055 6.54 7.49 11.93
3/13/2021 6:00:00 PM 7.53 45.554 0.055 6.52 7.46 11.88
3/13/2021 6:15:00 PM 7.48 45.464 0.055 6.51 7.23 11.82
3/13/2021 6:30:00 PM 7.44 45.392 0.055 6.52 7.7 11.77
3/13/2021 6:45:00 PM 7.4 45.32 0.056 6.49 8.37 11.75
3/13/2021 7:00:00 PM 7.35 45.23 0.056 6.51 7.5 11.72
3/13/2021 7:15:00 PM 7.3 45.14 0.056 6.5 7.5 11.71
3/13/2021 7:30:00 PM 7.24 45.032 0.056 6.5 7.61 11.7
3/13/2021 7:45:00 PM 7.17 44.906 0.056 6.49 7.6 11.7
3/13/2021 8:00:00 PM 7.1 44.78 0.056 6.48 7.6 11.71
3/13/2021 8:15:00 PM 7.03 44.654 0.056 6.47 7.74 11.72
3/13/2021 8:30:00 PM 6.96 44.528 0.056 6.46 7.66 11.73
3/13/2021 8:45:00 PM 6.89 44.402 0.056 6.46 7.61 11.75
3/13/2021 9:00:00 PM 6.82 44.276 0.056 6.45 7.57 11.76
3/13/2021 9:15:00 PM 6.74 44.132 0.056 6.46 7.5 11.78
3/13/2021 9:30:00 PM 6.67 44.006 0.057 6.46 7.63 11.8
3/13/2021 9:45:00 PM 6.61 43.898 0.057 6.45 7.33 11.82
3/13/2021 10:00:00 PM 6.54 43.772 0.057 6.45 7.56 11.83
3/13/2021 10:15:00 PM 6.47 43.646 0.057 6.44 7.57 11.84
3/13/2021 10:30:00 PM 6.41 43.538 0.057 6.45 7.39 11.87
3/13/2021 10:45:00 PM 6.34 43.412 0.057 6.46 7.43 11.88
3/13/2021 11:00:00 PM 6.27 43.286 0.057 6.46 7.27 11.91
3/13/2021 11:15:00 PM 6.19 43.142 0.057 6.45 7.45 11.93
3/13/2021 11:30:00 PM 6.11 42.998 0.057 6.45 7.42 11.95
3/13/2021 11:45:00 PM 6.04 42.872 0.057 6.45 7.34 11.97
3/14/2021 12:00:00 AM 5.97 42.746 0.057 6.44 7.41 12
3/14/2021 12:15:00 AM 5.91 42.638 0.057 6.45 7.44 12.01
3/14/2021 12:30:00 AM 5.84 42.512 0.057 6.46 7.26 12.04
3/14/2021 12:45:00 AM 5.77 42.386 0.057 6.45 7.29 12.06
3/14/2021 1:00:00 AM 5.71 42.278 0.057 6.45 7.34 12.08
3/14/2021 1:15:00 AM 5.64 42.152 0.057 6.46 7.06 12.1
3/14/2021 1:30:00 AM 5.57 42.026 0.058 6.46 7.05 12.12
3/14/2021 1:45:00 AM 5.5 41.9 0.058 6.46 7.13 12.14
3/14/2021 3:00:00 AM 5.18 41.324 0.058 6.45 7.04 12.24
3/14/2021 3:15:00 AM 5.12 41.216 0.058 6.46 7.59 12.26
3/14/2021 3:30:00 AM 5.06 41.108 0.058 6.46 7.3 12.27
3/14/2021 3:45:00 AM 5.01 41.018 0.058 6.46 7.37 12.29
3/14/2021 4:00:00 AM 4.96 40.928 0.058 6.44 7.25 12.31
3/14/2021 5:15:00 AM 4.92 40.856 0.058 6.45 7.04 12.32
3/14/2021 5:30:00 AM 4.87 40.766 0.058 6.46 7.1 12.34
3/14/2021 5:45:00 AM 4.82 40.676 0.058 6.47 6.94 12.35
3/14/2021 6:00:00 AM 4.77 40.586 0.058 6.46 6.93 12.36
3/14/2021 6:15:00 AM 4.73 40.514 0.058 6.46 6.72 12.38
3/14/2021 6:30:00 AM 4.68 40.424 0.058 6.48 6.78 12.39
3/14/2021 6:45:00 AM 4.64 40.352 0.058 6.46 6.68 12.41
3/14/2021 7:00:00 AM 4.6 40.28 0.058 6.47 6.8 12.42
3/14/2021 7:15:00 AM 4.56 40.208 0.058 6.48 6.67 12.43
3/14/2021 7:30:00 AM 4.53 40.154 0.058 6.48 6.55 12.45
3/14/2021 7:45:00 AM 4.5 40.1 0.058 6.48 6.69 12.47
3/14/2021 8:00:00 AM 4.48 40.064 0.058 6.48 6.41 12.5
3/14/2021 8:15:00 AM 4.48 40.064 0.058 6.49 6.56 12.54
3/14/2021 8:30:00 AM 4.49 40.082 0.058 6.5 6.31 12.59
3/14/2021 8:45:00 AM 4.51 40.118 0.058 6.5 6.4 12.64
3/14/2021 9:00:00 AM 4.54 40.172 0.058 6.5 6.35 12.69
3/14/2021 9:15:00 AM 4.56 40.208 0.058 6.51 6.25 12.74
3/14/2021 9:30:00 AM 4.62 40.316 0.058 6.52 6.08 12.78
3/14/2021 9:45:00 AM 4.68 40.424 0.058 6.54 6 12.82
3/14/2021 10:00:00 AM 4.77 40.586 0.058 6.54 5.81 12.86
3/14/2021 10:15:00 AM 4.86 40.748 0.058 6.56 6.06 12.9
3/14/2021 10:30:00 AM 4.98 40.964 0.058 6.57 6 12.92
3/14/2021 10:45:00 AM 5.11 41.198 0.058 6.59 6.03 12.92
3/14/2021 11:00:00 AM 5.24 41.432 0.058 6.59 5.71 12.92
3/14/2021 11:15:00 AM 5.38 41.684 0.058 6.59 5.72 12.91
3/14/2021 11:30:00 AM 5.52 41.936 0.058 6.6 5.77 12.91
3/14/2021 11:45:00 AM 5.67 42.206 0.058 6.61 5.67 12.89
3/14/2021 12:00:00 PM 5.83 42.494 0.058 6.61 5.71 12.86
3/14/2021 12:15:00 PM 5.96 42.728 0.058 6.61 5.59 12.85
3/14/2021 12:30:00 PM 6.09 42.962 0.058 6.62 5.5 12.82
3/14/2021 12:45:00 PM 6.23 43.214 0.058 6.62 5.46 12.8
3/14/2021 1:00:00 PM 6.37 43.466 0.058 6.64 5.38 12.77
3/14/2021 1:15:00 PM 6.52 43.736 0.058 6.61 5.25 12.74
3/14/2021 1:30:00 PM 6.63 43.934 0.058 6.62 5.37 12.7
3/14/2021 1:45:00 PM 6.78 44.204 0.058 6.62 5.28 12.67
3/14/2021 2:00:00 PM 6.9 44.42 0.058 6.64 5.37 12.64
3/14/2021 2:15:00 PM 6.96 44.528 0.058 6.6 5.52 12.59
3/14/2021 2:30:00 PM 7.11 44.798 0.058 6.63 5.33 12.56
3/14/2021 2:45:00 PM 7.23 45.014 0.058 6.63 5.31 12.52
3/14/2021 3:00:00 PM 7.34 45.212 0.058 6.62 5.24 12.48
3/14/2021 3:15:00 PM 7.43 45.374 0.058 6.62 5.42 12.44
3/14/2021 3:30:00 PM 7.55 45.59 0.058 6.63 5.31 12.4
3/14/2021 3:45:00 PM 7.63 45.734 0.058 6.63 5.22 12.35
3/14/2021 4:00:00 PM 7.68 45.824 0.058 6.62 5.47 12.32
3/14/2021 4:15:00 PM 7.73 45.914 0.058 6.61 5.35 12.27
3/14/2021 4:30:00 PM 7.76 45.968 0.058 6.6 5.18 12.23
3/14/2021 4:45:00 PM 7.8 46.04 0.058 6.62 5.27 12.22
3/14/2021 5:00:00 PM 7.83 46.094 0.058 6.6 5.34 12.17
3/14/2021 5:15:00 PM 7.84 46.112 0.058 6.6 5.21 12.13
3/14/2021 5:30:00 PM 7.86 46.148 0.058 6.61 5.23 12.09
3/14/2021 5:45:00 PM 7.87 46.166 0.058 6.58 5.47 12.05
3/14/2021 6:00:00 PM 7.86 46.148 0.058 6.58 5.32 12.01
3/14/2021 6:15:00 PM 7.84 46.112 0.058 6.58 5.27 11.96
3/14/2021 6:30:00 PM 7.79 46.022 0.058 6.57 5.32 11.93
3/14/2021 6:45:00 PM 7.7 45.86 0.059 6.57 5.36 11.89
3/14/2021 7:00:00 PM 7.6 45.68 0.059 6.56 5.32 11.85
3/14/2021 7:15:00 PM 7.48 45.464 0.059 6.56 5.31 11.81
3/14/2021 7:30:00 PM 7.37 45.266 0.059 6.53 5.3 11.76
3/14/2021 7:45:00 PM 7.27 45.086 0.059 6.52 5.33 11.73
3/14/2021 8:00:00 PM 7.19 44.942 0.059 6.5 5.46 11.71
3/14/2021 8:15:00 PM 7.1 44.78 0.059 6.49 5.37 11.7
3/14/2021 8:30:00 PM 7.02 44.636 0.059 6.48 5.67 11.7
3/14/2021 8:45:00 PM 6.94 44.492 0.059 6.49 5.59 11.7
3/14/2021 9:00:00 PM 6.85 44.33 0.059 6.47 5.7 11.72
3/14/2021 9:15:00 PM 6.77 44.186 0.059 6.45 5.77 11.73
3/14/2021 9:30:00 PM 6.69 44.042 0.059 6.46 5.48 11.75
3/14/2021 9:45:00 PM 6.6 43.88 0.06 6.46 5.55 11.77
3/14/2021 10:00:00 PM 6.5 43.7 0.06 6.46 5.99 11.8
3/14/2021 10:15:00 PM 6.4 43.52 0.06 6.45 5.75 11.83
3/14/2021 10:30:00 PM 6.29 43.322 0.06 6.44 5.79 11.87
3/14/2021 10:45:00 PM 6.18 43.124 0.06 6.46 5.62 11.9
3/14/2021 11:00:00 PM 6.08 42.944 0.06 6.45 5.52 11.94
3/14/2021 11:15:00 PM 5.98 42.764 0.06 6.44 5.46 11.97
3/14/2021 11:30:00 PM 5.89 42.602 0.06 6.44 5.48 12
3/14/2021 11:45:00 PM 5.78 42.404 0.06 6.45 5.54 12.04
3/15/2021 12:00:00 AM 5.67 42.206 0.06 6.46 5.76 12.08
3/15/2021 12:15:00 AM 5.57 42.026 0.06 6.45 5.66 12.12
3/15/2021 12:30:00 AM 5.46 41.828 0.06 6.43 5.84 12.16
3/15/2021 12:45:00 AM 5.36 41.648 0.061 6.43 5.43 12.19
3/15/2021 1:00:00 AM 5.25 41.45 0.061 6.44 5.52 12.23
3/15/2021 1:15:00 AM 5.15 41.27 0.061 6.44 5.37 12.27
3/15/2021 1:30:00 AM 5.06 41.108 0.061 6.43 5.64 12.3
3/15/2021 1:45:00 AM 4.96 40.928 0.061 6.45 5.34 12.33
3/15/2021 2:00:00 AM 4.87 40.766 0.061 6.43 5.53 12.37
3/15/2021 2:15:00 AM 4.78 40.604 0.061 6.44 5.49 12.4
3/15/2021 2:30:00 AM 4.68 40.424 0.061 6.46 5.39 12.43
3/15/2021 2:45:00 AM 4.6 40.28 0.061 6.45 5.51 12.47
3/15/2021 3:00:00 AM 4.51 40.118 0.061 6.46 5.55 12.5
3/15/2021 3:15:00 AM 4.4 39.92 0.061 6.45 5.29 12.54
3/15/2021 3:30:00 AM 4.31 39.758 0.061 6.44 5.33 12.58
3/15/2021 3:45:00 AM 4.23 39.614 0.061 6.47 5.32 12.61
3/15/2021 4:00:00 AM 4.15 39.47 0.061 6.44 5.37 12.64
3/15/2021 4:15:00 AM 4.08 39.344 0.061 6.47 5.22 12.67
3/15/2021 4:30:00 AM 4.01 39.218 0.062 6.45 5.19 12.69
3/15/2021 4:45:00 AM 3.94 39.092 0.062 6.48 5.37 12.72
3/15/2021 5:00:00 AM 3.87 38.966 0.062 6.46 5.15 12.75
3/15/2021 5:15:00 AM 3.79 38.822 0.062 6.47 5.03 12.78
3/15/2021 5:30:00 AM 3.71 38.678 0.062 6.48 5.35 12.81
3/15/2021 5:45:00 AM 3.62 38.516 0.062 6.49 5.22 12.84
3/15/2021 6:00:00 AM 3.54 38.372 0.062 6.46 5.13 12.87
3/15/2021 6:15:00 AM 3.46 38.228 0.062 6.46 5.22 12.9
3/15/2021 6:30:00 AM 3.39 38.102 0.062 6.47 4.99 12.93
3/15/2021 6:45:00 AM 3.32 37.976 0.062 6.48 5.16 12.97
3/15/2021 7:00:00 AM 3.26 37.868 0.062 6.48 5.01 12.98
3/15/2021 7:15:00 AM 3.19 37.742 0.062 6.48 5.07 13.01
3/15/2021 7:30:00 AM 3.13 37.634 0.062 6.5 5.09 13.04
3/15/2021 7:45:00 AM 3.07 37.526 0.062 6.51 5.16 13.09
3/15/2021 8:00:00 AM 3.02 37.436 0.062 6.53 4.97 13.14
3/15/2021 8:15:00 AM 2.98 37.364 0.062 6.54 4.82 13.21
3/15/2021 8:30:00 AM 2.94 37.292 0.062 6.5 4.81 13.27
3/15/2021 8:45:00 AM 2.91 37.238 0.062 6.52 4.94 13.35
3/15/2021 9:00:00 AM 2.89 37.202 0.062 6.53 4.89 13.42
3/15/2021 9:15:00 AM 2.89 37.202 0.062 6.52 4.86 13.49
3/15/2021 9:30:00 AM 2.93 37.274 0.062 6.56 4.81 13.55
3/15/2021 9:45:00 AM 2.97 37.346 0.062 6.54 4.73 13.62
3/15/2021 10:00:00 AM 3 37.4 0.062 6.54 4.71 13.68
3/15/2021 10:15:00 AM 3.06 37.508 0.062 6.55 4.6 13.72
3/15/2021 10:30:00 AM 3.14 37.652 0.062 6.58 4.78 13.75
3/15/2021 10:45:00 AM 3.23 37.814 0.061 6.6 4.73 13.77
3/15/2021 11:00:00 AM 3.33 37.994 0.062 6.6 4.72 13.78
3/15/2021 11:15:00 AM 3.42 38.156 0.062 6.61 4.58 13.78
3/15/2021 11:30:00 AM 3.52 38.336 0.062 6.62 4.54 13.78
3/15/2021 11:45:00 AM 3.64 38.552 0.061 6.61 4.36 13.77
3/15/2021 12:00:00 PM 3.76 38.768 0.061 6.62 4.52 13.76
3/15/2021 12:15:00 PM 3.89 39.002 0.061 6.65 4.3 13.74
3/15/2021 12:30:00 PM 4.02 39.236 0.061 6.65 4.3 13.71
3/15/2021 12:45:00 PM 4.16 39.488 0.062 6.64 4.37 13.69
3/15/2021 1:00:00 PM 4.28 39.704 0.061 6.67 4.32 13.65
3/15/2021 1:15:00 PM 4.41 39.938 0.061 6.66 4.35 13.62
3/15/2021 1:30:00 PM 4.53 40.154 0.061 6.64 4.41 13.58
3/15/2021 1:45:00 PM 4.65 40.37 0.061 6.67 4.3 13.54
3/15/2021 2:00:00 PM 4.75 40.55 0.061 6.63 4.24 13.5
3/15/2021 2:15:00 PM 4.87 40.766 0.061 6.64 4.34 13.47
3/15/2021 2:30:00 PM 4.99 40.982 0.061 6.66 4.24 13.43
3/15/2021 2:45:00 PM 5.07 41.126 0.061 6.67 4.19 13.39
3/15/2021 3:00:00 PM 5.15 41.27 0.061 6.65 4.45 13.35
3/15/2021 3:15:00 PM 5.25 41.45 0.061 6.63 4.11 13.31
3/15/2021 3:30:00 PM 5.34 41.612 0.061 6.65 4.22 13.27
3/15/2021 3:45:00 PM 5.43 41.774 0.061 6.67 4.2 13.23
3/15/2021 4:00:00 PM 5.51 41.918 0.061 6.64 4.19 13.19
3/15/2021 4:15:00 PM 5.56 42.008 0.061 6.62 4.31 13.14
3/15/2021 4:30:00 PM 5.63 42.134 0.061 6.64 4.3 13.09
3/15/2021 4:45:00 PM 5.68 42.224 0.061 6.62 4.19 13.05
3/15/2021 5:00:00 PM 5.72 42.296 0.061 6.62 4.22 13.01
3/15/2021 5:15:00 PM 5.73 42.314 0.061 6.65 4.23 12.97
3/15/2021 5:30:00 PM 5.74 42.332 0.061 6.62 4.34 12.93
3/15/2021 5:45:00 PM 5.75 42.35 0.061 6.64 4.31 12.89
3/15/2021 6:00:00 PM 5.74 42.332 0.061 6.61 4.1 12.86
3/15/2021 6:15:00 PM 5.74 42.332 0.062 6.59 4.18 12.82
3/15/2021 6:30:00 PM 5.74 42.332 0.061 6.58 4.27 12.77
3/15/2021 6:45:00 PM 5.72 42.296 0.062 6.6 4.25 12.71
3/15/2021 7:00:00 PM 5.69 42.242 0.062 6.59 4.33 12.63
3/15/2021 7:15:00 PM 5.65 42.17 0.062 6.58 4.44 12.56
3/15/2021 7:30:00 PM 5.62 42.116 0.062 6.61 4.44 12.49
3/15/2021 7:45:00 PM 5.58 42.044 0.062 6.59 4.38 12.42
3/15/2021 8:00:00 PM 5.55 41.99 0.062 6.59 4.51 12.36
3/15/2021 8:15:00 PM 5.5 41.9 0.062 6.56 4.42 12.32
3/15/2021 8:30:00 PM 5.46 41.828 0.062 6.59 4.47 12.29
3/15/2021 8:45:00 PM 5.41 41.738 0.063 6.61 4.45 12.27
3/15/2021 9:00:00 PM 5.37 41.666 0.063 6.58 4.41 12.26
3/15/2021 9:15:00 PM 5.32 41.576 0.063 6.61 4.41 12.25
3/15/2021 9:30:00 PM 5.28 41.504 0.063 6.56 4.52 12.25
3/15/2021 9:45:00 PM 5.23 41.414 0.063 6.6 4.38 12.26
3/15/2021 10:00:00 PM 5.19 41.342 0.063 6.55 4.44 12.27
3/15/2021 10:15:00 PM 5.14 41.252 0.063 6.54 4.49 12.28
3/15/2021 10:30:00 PM 5.1 41.18 0.063 6.54 4.46 12.29
3/15/2021 10:45:00 PM 5.06 41.108 0.063 6.57 4.6 12.3
3/15/2021 11:00:00 PM 5.02 41.036 0.063 6.57 4.57 12.32
3/15/2021 11:15:00 PM 4.98 40.964 0.063 6.58 4.47 12.33
3/15/2021 11:30:00 PM 4.94 40.892 0.063 6.55 4.6 12.34
3/15/2021 11:45:00 PM 4.9 40.82 0.064 6.55 4.61 12.35
3/16/2021 12:00:00 AM 4.85 40.73 0.064 6.52 4.58 12.36
3/16/2021 12:15:00 AM 4.8 40.64 0.064 6.55 4.52 12.38
3/16/2021 12:30:00 AM 4.76 40.568 0.064 6.53 4.38 12.4
3/16/2021 12:45:00 AM 4.72 40.496 0.064 6.55 4.78 12.4
3/16/2021 1:00:00 AM 4.67 40.406 0.064 6.53 4.59 12.42
3/16/2021 1:15:00 AM 4.61 40.298 0.064 6.57 4.61 12.43
3/16/2021 1:30:00 AM 4.57 40.226 0.064 6.58 4.43 12.45
3/16/2021 1:45:00 AM 4.53 40.154 0.064 6.54 4.65 12.46
3/16/2021 2:00:00 AM 4.49 40.082 0.064 6.6 4.51 12.47
3/16/2021 2:15:00 AM 4.45 40.01 0.064 6.56 4.53 12.48
3/16/2021 2:30:00 AM 4.43 39.974 0.064 6.56 4.67 12.5
3/16/2021 2:45:00 AM 4.4 39.92 0.065 6.57 4.53 12.5
3/16/2021 3:00:00 AM 4.36 39.848 0.065 6.59 4.5 12.52
3/16/2021 3:15:00 AM 4.34 39.812 0.065 6.61 4.78 12.53
3/16/2021 3:30:00 AM 4.3 39.74 0.065 6.56 4.45 12.54
3/16/2021 3:45:00 AM 4.27 39.686 0.065 6.54 4.34 12.54
3/16/2021 4:00:00 AM 4.24 39.632 0.065 6.59 4.42 12.55
3/16/2021 4:15:00 AM 4.21 39.578 0.065 6.57 4.38 12.57
3/16/2021 4:30:00 AM 4.2 39.56 0.065 6.57 4.47 12.57
3/16/2021 4:45:00 AM 4.16 39.488 0.065 6.58 4.33 12.58
3/16/2021 5:00:00 AM 4.13 39.434 0.065 6.57 4.44 12.59
3/16/2021 5:15:00 AM 4.1 39.38 0.065 6.59 4.31 12.6
3/16/2021 5:30:00 AM 4.08 39.344 0.065 6.6 4.34 12.6
3/16/2021 5:45:00 AM 4.05 39.29 0.065 6.6 4.43 12.61
3/16/2021 6:00:00 AM 4.04 39.272 0.065 6.59 4.35 12.62
3/16/2021 6:15:00 AM 4.02 39.236 0.065 6.61 4.37 12.62
3/16/2021 6:30:00 AM 4 39.2 0.065 6.61 4.18 12.63
3/16/2021 6:45:00 AM 3.97 39.146 0.065 6.58 4.29 12.63
3/16/2021 7:00:00 AM 3.96 39.128 0.065 6.59 4.33 12.65
3/16/2021 7:15:00 AM 3.94 39.092 0.065 6.6 4.12 12.65
3/16/2021 7:30:00 AM 3.93 39.074 0.065 6.58 4.35 12.65
3/16/2021 7:45:00 AM 3.92 39.056 0.066 6.57 4.35 12.66
3/16/2021 8:00:00 AM 3.91 39.038 0.066 6.6 4.45 12.68
3/16/2021 8:15:00 AM 3.89 39.002 0.065 6.56 4.44 12.7
3/16/2021 8:30:00 AM 3.88 38.984 0.066 6.59 4.36 12.72
3/16/2021 8:45:00 AM 3.87 38.966 0.066 6.59 4.32 12.75
3/16/2021 9:00:00 AM 3.86 38.948 0.066 6.57 4.19 12.78
3/16/2021 9:15:00 AM 3.86 38.948 0.065 6.62 4.3 12.84
3/16/2021 9:30:00 AM 3.85 38.93 0.066 6.61 4.23 12.89
3/16/2021 9:45:00 AM 3.86 38.948 0.066 6.61 4.24 12.96
3/16/2021 10:00:00 AM 3.87 38.966 0.065 6.61 4.17 13.03
3/16/2021 10:15:00 AM 3.87 38.966 0.065 6.62 4.15 13.08
3/16/2021 10:30:00 AM 3.88 38.984 0.065 6.61 4.12 13.14
3/16/2021 10:45:00 AM 3.89 39.002 0.065 6.63 3.99 13.18
3/16/2021 11:00:00 AM 3.89 39.002 0.065 6.6 4.02 13.21
3/16/2021 11:15:00 AM 3.9 39.02 0.065 6.61 4 13.25
3/16/2021 11:30:00 AM 3.91 39.038 0.065 6.62 4.09 13.27
3/16/2021 11:45:00 AM 3.93 39.074 0.065 6.61 3.95 13.31
3/16/2021 12:00:00 PM 3.95 39.11 0.065 6.63 4.03 13.34
3/16/2021 12:15:00 PM 4 39.2 0.065 6.63 3.96 13.38
3/16/2021 12:30:00 PM 4.03 39.254 0.065 6.66 3.99 13.41
3/16/2021 12:45:00 PM 4.06 39.308 0.065 6.65 3.99 13.42
3/16/2021 1:00:00 PM 4.1 39.38 0.065 6.61 3.94 13.44
3/16/2021 1:15:00 PM 4.14 39.452 0.065 6.63 3.91 13.44
3/16/2021 1:30:00 PM 4.16 39.488 0.065 6.62 3.78 13.44
3/16/2021 1:45:00 PM 4.2 39.56 0.065 6.64 4.04 13.44
3/16/2021 2:00:00 PM 4.24 39.632 0.065 6.67 3.97 13.44
3/16/2021 2:15:00 PM 4.32 39.776 0.065 6.65 3.82 13.44
3/16/2021 2:30:00 PM 4.36 39.848 0.065 6.64 3.85 13.43
3/16/2021 2:45:00 PM 4.39 39.902 0.065 6.66 3.77 13.42
3/16/2021 3:00:00 PM 4.42 39.956 0.065 6.66 3.73 13.41
3/16/2021 3:15:00 PM 4.45 40.01 0.065 6.67 3.84 13.39
3/16/2021 3:30:00 PM 4.46 40.028 0.065 6.66 3.88 13.36
3/16/2021 3:45:00 PM 4.47 40.046 0.065 6.65 3.83 13.34
3/16/2021 4:00:00 PM 4.47 40.046 0.065 6.65 3.89 13.3
3/16/2021 4:15:00 PM 4.47 40.046 0.065 6.64 3.93 13.28
3/16/2021 4:30:00 PM 4.48 40.064 0.065 6.66 3.84 13.27
3/16/2021 4:45:00 PM 4.49 40.082 0.065 6.62 3.87 13.25
3/16/2021 5:00:00 PM 4.5 40.1 0.065 6.61 3.78 13.23
3/16/2021 5:15:00 PM 4.51 40.118 0.065 6.65 3.81 13.2
3/16/2021 5:30:00 PM 4.53 40.154 0.065 6.65 3.83 13.18
3/16/2021 5:45:00 PM 4.54 40.172 0.065 6.65 3.76 13.12
3/16/2021 6:00:00 PM 4.55 40.19 0.065 6.66 3.82 13.09
3/16/2021 6:15:00 PM 4.56 40.208 0.065 6.69 3.75 13.05
3/16/2021 6:30:00 PM 4.56 40.208 0.065 6.71 3.81 13
3/16/2021 6:45:00 PM 4.56 40.208 0.065 6.71 3.73 12.94
3/16/2021 7:00:00 PM 4.56 40.208 0.065 6.73 3.78 12.89
3/16/2021 7:15:00 PM 4.54 40.172 0.065 6.71 3.91 12.82
3/16/2021 7:30:00 PM 4.53 40.154 0.065 6.72 3.7 12.76
3/16/2021 7:45:00 PM 4.52 40.136 0.065 6.72 3.78 12.7
3/16/2021 8:00:00 PM 4.51 40.118 0.065 6.7 3.75 12.64
3/16/2021 8:15:00 PM 4.51 40.118 0.065 6.71 3.98 12.6
3/16/2021 8:30:00 PM 4.5 40.1 0.066 6.72 3.91 12.56
3/16/2021 8:45:00 PM 4.49 40.082 0.066 6.71 3.79 12.54
3/16/2021 9:00:00 PM 4.48 40.064 0.066 6.7 3.81 12.51
3/16/2021 9:15:00 PM 4.48 40.064 0.066 6.7 3.94 12.5
3/16/2021 9:30:00 PM 4.47 40.046 0.066 6.7 3.79 12.49
3/16/2021 9:45:00 PM 4.47 40.046 0.066 6.71 3.7 12.48
3/16/2021 10:00:00 PM 4.47 40.046 0.066 6.71 3.71 12.46
3/16/2021 10:15:00 PM 4.47 40.046 0.066 6.69 3.81 12.46
3/16/2021 10:30:00 PM 4.47 40.046 0.066 6.69 3.88 12.46
3/16/2021 10:45:00 PM 4.47 40.046 0.066 6.69 3.8 12.46
3/16/2021 11:00:00 PM 4.47 40.046 0.066 6.7 3.67 12.45
3/16/2021 11:15:00 PM 4.47 40.046 0.066 6.71 3.84 12.45
3/16/2021 11:30:00 PM 4.46 40.028 0.066 6.69 3.79 12.45
3/16/2021 11:45:00 PM 4.46 40.028 0.066 6.7 3.87 12.45
3/17/2021 12:00:00 AM 4.46 40.028 0.066 6.7 3.82 12.45
3/17/2021 12:15:00 AM 4.46 40.028 0.066 6.71 3.86 12.45
3/17/2021 12:30:00 AM 4.46 40.028 0.066 6.7 3.73 12.45
3/17/2021 12:45:00 AM 4.46 40.028 0.066 6.7 3.8 12.45
3/17/2021 1:00:00 AM 4.46 40.028 0.066 6.71 3.89 12.45
3/17/2021 1:15:00 AM 4.46 40.028 0.066 6.69 3.82 12.45
3/17/2021 1:30:00 AM 4.46 40.028 0.067 6.69 3.91 12.45
3/17/2021 1:45:00 AM 4.46 40.028 0.067 6.7 3.84 12.45
3/17/2021 2:00:00 AM 4.46 40.028 0.067 6.7 3.66 12.45
3/17/2021 2:15:00 AM 4.45 40.01 0.067 6.69 3.83 12.44
3/17/2021 2:30:00 AM 4.45 40.01 0.067 6.7 3.84 12.45
3/17/2021 2:45:00 AM 4.45 40.01 0.067 6.7 3.79 12.45
3/17/2021 3:00:00 AM 4.44 39.992 0.067 6.69 3.77 12.45
3/17/2021 3:15:00 AM 4.44 39.992 0.067 6.7 3.69 12.45
3/17/2021 3:30:00 AM 4.44 39.992 0.067 6.68 3.81 12.45
3/17/2021 3:45:00 AM 4.44 39.992 0.067 6.7 3.79 12.45
3/17/2021 4:00:00 AM 4.44 39.992 0.067 6.7 3.79 12.45
3/17/2021 4:15:00 AM 4.44 39.992 0.067 6.69 3.81 12.45
3/17/2021 4:30:00 AM 4.44 39.992 0.067 6.7 3.9 12.45
3/17/2021 4:45:00 AM 4.44 39.992 0.067 6.7 3.76 12.45
3/17/2021 5:00:00 AM 4.44 39.992 0.067 6.71 3.79 12.45
3/17/2021 5:15:00 AM 4.44 39.992 0.067 6.7 3.77 12.45
3/17/2021 5:30:00 AM 4.43 39.974 0.067 6.71 3.71 12.45
3/17/2021 5:45:00 AM 4.43 39.974 0.067 6.7 3.75 12.45
3/17/2021 6:00:00 AM 4.43 39.974 0.067 6.69 3.67 12.45
3/17/2021 6:15:00 AM 4.43 39.974 0.067 6.7 3.81 12.45
3/17/2021 6:30:00 AM 4.43 39.974 0.067 6.69 3.67 12.46
3/17/2021 6:45:00 AM 4.43 39.974 0.068 6.69 3.7 12.45
3/17/2021 7:00:00 AM 4.43 39.974 0.068 6.69 3.87 12.46
3/17/2021 7:15:00 AM 4.43 39.974 0.068 6.7 3.69 12.46
3/17/2021 7:30:00 AM 4.43 39.974 0.068 6.71 3.7 12.45
3/17/2021 7:45:00 AM 4.43 39.974 0.068 6.69 3.84 12.47
3/17/2021 8:00:00 AM 4.44 39.992 0.068 6.69 3.74 12.5
3/17/2021 8:15:00 AM 4.45 40.01 0.068 6.7 3.69 12.54
3/17/2021 8:30:00 AM 4.46 40.028 0.068 6.69 3.69 12.6
3/17/2021 8:45:00 AM 4.48 40.064 0.068 6.69 3.7 12.66
3/17/2021 9:00:00 AM 4.5 40.1 0.067 6.69 3.67 12.74
3/17/2021 9:15:00 AM 4.52 40.136 0.067 6.7 3.89 12.81
3/17/2021 9:30:00 AM 4.55 40.19 0.067 6.7 3.72 12.87
3/17/2021 9:45:00 AM 4.58 40.244 0.067 6.69 3.61 12.94
3/17/2021 10:00:00 AM 4.61 40.298 0.067 6.7 3.68 13
3/17/2021 10:15:00 AM 4.66 40.388 0.067 6.71 3.58 13.06
3/17/2021 10:30:00 AM 4.71 40.478 0.067 6.71 3.7 13.12
3/17/2021 10:45:00 AM 4.77 40.586 0.067 6.72 3.71 13.16
3/17/2021 11:00:00 AM 4.83 40.694 0.067 6.72 3.74 13.2
3/17/2021 11:15:00 AM 4.9 40.82 0.067 6.71 3.52 13.24
3/17/2021 11:30:00 AM 4.98 40.964 0.067 6.73 3.65 13.26
3/17/2021 11:45:00 AM 5.07 41.126 0.067 6.71 3.63 13.28
3/17/2021 12:00:00 PM 5.18 41.324 0.067 6.73 3.53 13.28
3/17/2021 12:15:00 PM 5.28 41.504 0.067 6.72 3.58 13.28
3/17/2021 12:30:00 PM 5.38 41.684 0.067 6.75 3.61 13.28
3/17/2021 12:45:00 PM 5.48 41.864 0.067 6.74 3.64 13.26
3/17/2021 1:00:00 PM 5.59 42.062 0.067 6.74 3.64 13.24
3/17/2021 1:15:00 PM 5.74 42.332 0.066 6.74 3.5 13.23
3/17/2021 1:30:00 PM 5.95 42.71 0.066 6.76 3.58 13.21
3/17/2021 1:45:00 PM 6.17 43.106 0.066 6.77 3.68 13.17
3/17/2021 2:00:00 PM 6.35 43.43 0.066 6.77 3.85 13.13
3/17/2021 2:15:00 PM 6.54 43.772 0.066 6.77 3.64 13.07
3/17/2021 2:30:00 PM 6.72 44.096 0.066 6.78 3.5 13.03
3/17/2021 2:45:00 PM 6.89 44.402 0.066 6.78 3.64 12.99
3/17/2021 3:00:00 PM 7.02 44.636 0.066 6.78 3.61 12.94
3/17/2021 3:15:00 PM 7.19 44.942 0.066 6.79 3.65 12.88
3/17/2021 3:30:00 PM 7.31 45.158 0.066 6.78 3.68 12.84
3/17/2021 3:45:00 PM 7.4 45.32 0.066 6.78 3.58 12.81
3/17/2021 4:00:00 PM 7.46 45.428 0.066 6.78 3.64 12.77
3/17/2021 4:15:00 PM 7.51 45.518 0.066 6.77 3.58 12.73
3/17/2021 4:30:00 PM 7.57 45.626 0.066 6.76 3.5 12.69
3/17/2021 4:45:00 PM 7.63 45.734 0.066 6.75 3.65 12.64
3/17/2021 5:00:00 PM 7.69 45.842 0.066 6.76 3.56 12.6
3/17/2021 5:15:00 PM 7.75 45.95 0.066 6.76 3.52 12.54
3/17/2021 5:30:00 PM 7.77 45.986 0.066 6.77 3.6 12.49
3/17/2021 5:45:00 PM 7.77 45.986 0.066 6.76 3.73 12.45
3/17/2021 6:00:00 PM 7.75 45.95 0.066 6.73 3.7 12.41
3/17/2021 6:15:00 PM 7.73 45.914 0.067 6.73 4 12.36
3/17/2021 6:30:00 PM 7.69 45.842 0.066 6.73 3.67 12.28
3/17/2021 6:45:00 PM 7.65 45.77 0.066 6.71 3.82 12.2
3/17/2021 7:00:00 PM 7.62 45.716 0.066 6.72 3.75 12.11
3/17/2021 7:15:00 PM 7.59 45.662 0.066 6.73 3.6 12.01
3/17/2021 7:30:00 PM 7.56 45.608 0.067 6.7 3.65 11.91
3/17/2021 7:45:00 PM 7.53 45.554 0.067 6.71 3.71 11.81
3/17/2021 8:00:00 PM 7.5 45.5 0.067 6.7 3.65 11.72
3/17/2021 8:15:00 PM 7.46 45.428 0.067 6.71 3.84 11.64
3/17/2021 8:30:00 PM 7.43 45.374 0.067 6.68 3.66 11.58
3/17/2021 8:45:00 PM 7.39 45.302 0.067 6.7 3.82 11.54
3/17/2021 9:00:00 PM 7.35 45.23 0.067 6.7 3.84 11.51
3/17/2021 9:15:00 PM 7.3 45.14 0.067 6.69 3.86 11.49
3/17/2021 9:30:00 PM 7.25 45.05 0.067 6.68 3.86 11.49
3/17/2021 9:45:00 PM 7.2 44.96 0.068 6.69 3.86 11.48
3/17/2021 10:00:00 PM 7.14 44.852 0.068 6.69 3.85 11.49
3/17/2021 10:15:00 PM 7.09 44.762 0.068 6.69 3.88 11.49
3/17/2021 10:30:00 PM 7.03 44.654 0.068 6.67 3.88 11.5
3/17/2021 10:45:00 PM 6.97 44.546 0.068 6.66 3.95 11.51
3/17/2021 11:00:00 PM 6.9 44.42 0.068 6.67 3.73 11.53
3/17/2021 11:15:00 PM 6.84 44.312 0.068 6.67 3.89 11.54
3/17/2021 11:30:00 PM 6.77 44.186 0.068 6.67 3.94 11.56
3/17/2021 11:45:00 PM 6.73 44.114 0.068 6.63 3.83 11.58
3/18/2021 12:00:00 AM 6.68 44.024 0.068 6.66 3.84 11.59
3/18/2021 12:15:00 AM 6.65 43.97 0.068 6.65 3.82 11.6
3/18/2021 12:30:00 AM 6.62 43.916 0.068 6.66 3.88 11.61
3/18/2021 12:45:00 AM 6.59 43.862 0.068 6.68 3.86 11.62
3/18/2021 1:00:00 AM 6.57 43.826 0.068 6.66 3.81 11.63
3/18/2021 1:15:00 AM 6.55 43.79 0.068 6.66 3.72 11.65
3/18/2021 1:30:00 AM 6.52 43.736 0.069 6.66 3.83 11.66
3/18/2021 1:45:00 AM 6.49 43.682 0.069 6.66 3.85 11.66
3/18/2021 2:00:00 AM 6.47 43.646 0.069 6.67 3.83 11.67
3/18/2021 2:15:00 AM 6.44 43.592 0.069 6.68 3.82 11.69
3/18/2021 2:30:00 AM 6.41 43.538 0.069 6.68 3.9 11.69
3/18/2021 2:45:00 AM 6.39 43.502 0.069 6.66 3.84 11.7
3/18/2021 3:00:00 AM 6.36 43.448 0.069 6.66 3.96 11.71
3/18/2021 3:15:00 AM 6.33 43.394 0.069 6.66 3.93 11.72
3/18/2021 3:30:00 AM 6.31 43.358 0.069 6.67 3.95 11.73
3/18/2021 3:45:00 AM 6.28 43.304 0.069 6.67 3.86 11.73
3/18/2021 4:00:00 AM 6.26 43.268 0.069 6.67 3.85 11.74
3/18/2021 4:15:00 AM 6.24 43.232 0.069 6.68 3.93 11.75
3/18/2021 4:30:00 AM 6.22 43.196 0.07 6.69 3.76 11.75
3/18/2021 4:45:00 AM 6.2 43.16 0.07 6.68 3.71 11.76
3/18/2021 5:00:00 AM 6.17 43.106 0.07 6.68 3.85 11.77
3/18/2021 5:15:00 AM 6.16 43.088 0.07 6.68 3.76 11.77
3/18/2021 5:30:00 AM 6.14 43.052 0.07 6.69 3.8 11.77
3/18/2021 5:45:00 AM 6.11 42.998 0.07 6.67 3.65 11.78
3/18/2021 6:00:00 AM 6.1 42.98 0.07 6.67 3.73 11.79
3/18/2021 6:15:00 AM 6.08 42.944 0.07 6.69 3.74 11.79
3/18/2021 6:30:00 AM 6.06 42.908 0.07 6.69 3.83 11.8
3/18/2021 6:45:00 AM 6.04 42.872 0.07 6.68 3.98 11.8
3/18/2021 7:00:00 AM 6.02 42.836 0.07 6.68 3.77 11.81
3/18/2021 7:15:00 AM 6 42.8 0.07 6.7 3.81 11.81
3/18/2021 7:30:00 AM 5.99 42.782 0.07 6.67 3.88 11.81
3/18/2021 7:45:00 AM 5.97 42.746 0.07 6.68 3.91 11.82
3/18/2021 8:00:00 AM 5.96 42.728 0.07 6.69 3.79 11.83
3/18/2021 8:15:00 AM 5.94 42.692 0.07 6.69 3.97 11.86
3/18/2021 8:30:00 AM 5.93 42.674 0.07 6.67 3.91 11.89
3/18/2021 8:45:00 AM 5.92 42.656 0.07 6.67 3.94 11.93
3/18/2021 9:00:00 AM 5.92 42.656 0.07 6.69 3.73 11.97
3/18/2021 9:15:00 AM 5.92 42.656 0.07 6.69 3.91 12.02
3/18/2021 9:30:00 AM 5.91 42.638 0.07 6.7 3.91 12.06
3/18/2021 9:45:00 AM 5.91 42.638 0.07 6.69 3.9 12.1
3/18/2021 10:00:00 AM 5.92 42.656 0.07 6.69 3.98 12.15
3/18/2021 10:15:00 AM 5.92 42.656 0.07 6.69 4.04 12.19
3/18/2021 10:30:00 AM 5.94 42.692 0.071 6.67 4.04 12.27
3/18/2021 10:45:00 AM 5.96 42.728 0.071 6.68 4.16 12.35
3/18/2021 11:00:00 AM 5.98 42.764 0.071 6.7 4.5 12.42
3/18/2021 11:15:00 AM 6 42.8 0.072 6.7 5.27 12.49
3/18/2021 11:30:00 AM 6.05 42.89 0.072 6.69 5.75 12.57
3/18/2021 11:45:00 AM 6.09 42.962 0.073 6.71 5.58 12.63
3/18/2021 12:00:00 PM 6.13 43.034 0.073 6.71 5.59 12.67
3/18/2021 12:15:00 PM 6.17 43.106 0.074 6.69 6.18 12.69
3/18/2021 12:30:00 PM 6.2 43.16 0.075 6.69 6.51 12.72
3/18/2021 12:45:00 PM 6.26 43.268 0.078 6.69 6.54 12.74
3/18/2021 1:00:00 PM 6.3 43.34 0.082 6.65 6.95 12.74
3/18/2021 1:15:00 PM 6.33 43.394 0.086 6.64 7.06 12.72
3/18/2021 1:30:00 PM 6.37 43.466 0.089 6.61 7.24 12.71
3/18/2021 1:45:00 PM 6.43 43.574 0.09 6.66 7.02 12.73
3/18/2021 2:00:00 PM 6.47 43.646 0.09 6.6 6.65 12.74
3/18/2021 2:15:00 PM 6.49 43.682 0.089 6.62 6.91 12.71
3/18/2021 2:30:00 PM 6.52 43.736 0.088 6.6 7.08 12.69
3/18/2021 2:45:00 PM 6.56 43.808 0.086 6.63 7.12 12.68
3/18/2021 3:00:00 PM 6.6 43.88 0.086 6.61 7.48 12.65
3/18/2021 3:15:00 PM 6.62 43.916 0.085 6.59 7.39 12.6
3/18/2021 3:30:00 PM 6.64 43.952 0.085 6.62 7.26 12.54
3/18/2021 3:45:00 PM 6.67 44.006 0.085 6.62 6.95 12.47
3/18/2021 4:00:00 PM 6.68 44.024 0.086 6.59 6.83 12.41
3/18/2021 4:15:00 PM 6.7 44.06 0.086 6.59 6.82 12.4
3/18/2021 4:30:00 PM 6.71 44.078 0.086 6.61 6.82 12.38
3/18/2021 4:45:00 PM 6.7 44.06 0.086 6.57 6.93 12.34
3/18/2021 5:00:00 PM 6.71 44.078 0.086 6.59 7.26 12.33
3/18/2021 5:15:00 PM 6.71 44.078 0.087 6.61 6.99 12.26
3/18/2021 5:30:00 PM 6.7 44.06 0.088 6.6 7.18 12.19
3/18/2021 5:45:00 PM 6.69 44.042 0.087 6.57 6.8 12.12
3/18/2021 6:00:00 PM 6.67 44.006 0.088 6.62 6.74 12.05
3/18/2021 6:15:00 PM 6.66 43.988 0.087 6.55 6.65 12
3/18/2021 6:30:00 PM 6.63 43.934 0.089 6.6 6.92 11.94
3/18/2021 6:45:00 PM 6.61 43.898 0.088 6.59 7.44 11.9
3/18/2021 7:00:00 PM 6.58 43.844 0.088 6.58 7.51 11.86
3/18/2021 7:15:00 PM 6.54 43.772 0.089 6.55 8.01 11.82
3/18/2021 7:30:00 PM 6.51 43.718 0.09 6.55 8.31 11.78
3/18/2021 7:45:00 PM 6.47 43.646 0.09 6.55 10.33 11.75
3/18/2021 8:00:00 PM 6.43 43.574 0.092 6.56 11.39 11.73
3/18/2021 8:15:00 PM 6.4 43.52 0.093 6.53 11.22 11.71
3/18/2021 8:30:00 PM 6.35 43.43 0.095 6.56 11.56 11.69
3/18/2021 8:45:00 PM 6.32 43.376 0.097 6.54 12.04 11.68
3/18/2021 9:00:00 PM 6.29 43.322 0.097 6.56 11.98 11.68
3/18/2021 9:15:00 PM 6.25 43.25 0.099 6.52 12.29 11.67
3/18/2021 9:30:00 PM 6.22 43.196 0.1 6.51 12 11.68
3/18/2021 9:45:00 PM 6.19 43.142 0.101 6.52 11.8 11.69
3/18/2021 10:00:00 PM 6.16 43.088 0.102 6.53 12.67 11.7
3/18/2021 10:15:00 PM 6.13 43.034 0.099 6.52 12.21 11.72
3/18/2021 10:30:00 PM 6.1 42.98 0.098 6.52 12.71 11.74
3/18/2021 10:45:00 PM 6.07 42.926 0.096 6.54 12.92 11.76
3/18/2021 11:00:00 PM 6.03 42.854 0.097 6.5 15.27 11.77
3/18/2021 11:15:00 PM 6 42.8 0.096 6.51 16.89 11.79
3/18/2021 11:30:00 PM 5.96 42.728 0.094 6.52 15.72 11.81
3/18/2021 11:45:00 PM 5.92 42.656 0.094 6.52 13.08 11.82
3/19/2021 12:00:00 AM 5.88 42.584 0.094 6.54 12.57 11.84
3/19/2021 12:15:00 AM 5.84 42.512 0.094 6.5 11.53 11.85
3/19/2021 12:30:00 AM 5.8 42.44 0.093 6.53 12.55 11.87
3/19/2021 12:45:00 AM 5.75 42.35 0.094 6.54 12.92 11.89
3/19/2021 1:00:00 AM 5.69 42.242 0.093 6.52 14.18 11.9
3/19/2021 1:15:00 AM 5.65 42.17 0.094 6.52 13.67 11.92
3/19/2021 1:30:00 AM 5.6 42.08 0.093 6.52 14.24 11.94
3/19/2021 1:45:00 AM 5.56 42.008 0.093 6.54 14.11 11.96
3/19/2021 2:00:00 AM 5.51 41.918 0.093 6.54 13.52 11.97
3/19/2021 2:15:00 AM 5.46 41.828 0.092 6.54 12.34 11.99
3/19/2021 2:30:00 AM 5.4 41.72 0.092 6.53 11.69 12.02
3/19/2021 2:45:00 AM 5.34 41.612 0.091 6.54 11.02 12.04
3/19/2021 3:00:00 AM 5.27 41.486 0.092 6.51 10.41 12.06
3/19/2021 3:15:00 AM 5.2 41.36 0.091 6.53 9.91 12.08
3/19/2021 3:30:00 AM 5.12 41.216 0.091 6.51 9.69 12.11
3/19/2021 3:45:00 AM 5.04 41.072 0.09 6.53 9.3 12.14
3/19/2021 4:00:00 AM 4.95 40.91 0.09 6.51 9.02 12.16
3/19/2021 4:15:00 AM 4.87 40.766 0.091 6.52 8.73 12.19
3/19/2021 4:30:00 AM 4.76 40.568 0.091 6.53 8.37 12.22
3/19/2021 4:45:00 AM 4.7 40.46 0.091 6.5 8.66 12.25
3/19/2021 5:00:00 AM 4.61 40.298 0.091 6.52 8.54 12.28
3/19/2021 5:15:00 AM 4.52 40.136 0.092 6.51 8.29 12.31
3/19/2021 5:30:00 AM 4.44 39.992 0.092 6.5 8.32 12.34
3/19/2021 5:45:00 AM 4.35 39.83 0.092 6.53 8.3 12.37
3/19/2021 6:00:00 AM 4.28 39.704 0.092 6.53 7.95 12.4
3/19/2021 6:15:00 AM 4.22 39.596 0.092 6.51 8.09 12.43
3/19/2021 6:30:00 AM 4.15 39.47 0.092 6.55 7.88 12.47
3/19/2021 6:45:00 AM 4.07 39.326 0.092 6.52 8 12.5
3/19/2021 7:00:00 AM 4 39.2 0.092 6.53 7.92 12.53
3/19/2021 7:15:00 AM 3.92 39.056 0.091 6.52 25.41 12.56
3/19/2021 7:30:00 AM 3.85 38.93 0.091 6.51 7.71 12.6
3/19/2021 7:45:00 AM 3.79 38.822 0.091 6.54 7.46 12.65
3/19/2021 8:00:00 AM 3.75 38.75 0.091 6.53 7.45 12.73
3/19/2021 8:15:00 AM 3.71 38.678 0.09 6.55 6.98 12.82
3/19/2021 8:30:00 AM 3.67 38.606 0.09 6.54 7.17 12.92
3/19/2021 8:45:00 AM 3.66 38.588 0.09 6.54 6.85 13.03
3/19/2021 9:00:00 AM 3.63 38.534 0.089 6.55 6.65 13.15
3/19/2021 9:15:00 AM 3.62 38.516 0.089 6.55 6.45 13.23
3/19/2021 9:30:00 AM 3.66 38.588 0.089 6.55 6.57 13.32
3/19/2021 9:45:00 AM 3.68 38.624 0.088 6.57 6.33 13.42
3/19/2021 10:00:00 AM 3.73 38.714 0.088 6.59 6.06 13.49
3/19/2021 10:15:00 AM 3.8 38.84 0.088 6.59 6.26 13.57
3/19/2021 10:30:00 AM 3.87 38.966 0.088 6.59 6.31 13.64
3/19/2021 10:45:00 AM 3.98 39.164 0.087 6.62 6.38 13.68
3/19/2021 11:00:00 AM 4.09 39.362 0.087 6.63 6.15 13.7
3/19/2021 11:15:00 AM 4.22 39.596 0.086 6.65 5.94 13.72
3/19/2021 11:30:00 AM 4.35 39.83 0.087 6.66 5.81 13.73
3/19/2021 11:45:00 AM 4.48 40.064 0.086 6.66 5.8 13.74
3/19/2021 12:00:00 PM 4.61 40.298 0.086 6.65 5.84 13.73
3/19/2021 12:15:00 PM 4.76 40.568 0.086 6.68 5.67 13.71
3/19/2021 12:30:00 PM 4.9 40.82 0.085 6.66 6.07 13.7
3/19/2021 12:45:00 PM 5.07 41.126 0.085 6.67 5.85 13.67
3/19/2021 1:00:00 PM 5.25 41.45 0.086 6.72 5.83 13.64
3/19/2021 1:15:00 PM 5.4 41.72 0.085 6.68 5.61 13.61
3/19/2021 1:30:00 PM 5.55 41.99 0.085 6.69 5.59 13.58
3/19/2021 1:45:00 PM 5.66 42.188 0.084 6.68 5.78 13.55
3/19/2021 2:00:00 PM 5.79 42.422 0.085 6.69 5.78 13.52
3/19/2021 2:15:00 PM 5.9 42.62 0.084 6.69 5.95 13.49
3/19/2021 2:30:00 PM 6.01 42.818 0.084 6.7 5.65 13.45
3/19/2021 2:45:00 PM 6.1 42.98 0.083 6.68 5.55 13.42
3/19/2021 3:00:00 PM 6.19 43.142 0.083 6.68 5.56 13.38
3/19/2021 3:15:00 PM 6.28 43.304 0.083 6.67 5.48 13.34
3/19/2021 3:30:00 PM 6.36 43.448 0.083 6.67 5.67 13.3
3/19/2021 3:45:00 PM 6.43 43.574 0.082 6.69 5.4 13.25
3/19/2021 4:00:00 PM 6.48 43.664 0.082 6.68 5.64 13.21
3/19/2021 4:15:00 PM 6.52 43.736 0.082 6.67 5.54 13.17
3/19/2021 4:30:00 PM 6.56 43.808 0.081 6.64 5.29 13.13
3/19/2021 4:45:00 PM 6.6 43.88 0.081 6.68 5.26 13.07
3/19/2021 5:00:00 PM 6.64 43.952 0.081 6.67 5.13 13.02
3/19/2021 5:15:00 PM 6.66 43.988 0.081 6.64 5.01 12.97
3/19/2021 5:30:00 PM 6.65 43.97 0.081 6.7 4.89 12.92
3/19/2021 5:45:00 PM 6.63 43.934 0.08 6.62 4.92 12.88
3/19/2021 6:00:00 PM 6.61 43.898 0.081 6.65 4.86 12.8
3/19/2021 6:15:00 PM 6.58 43.844 0.08 6.63 4.68 12.74
3/19/2021 6:30:00 PM 6.55 43.79 0.08 6.63 4.66 12.67
3/19/2021 6:45:00 PM 6.51 43.718 0.08 6.65 4.88 12.6
3/19/2021 7:00:00 PM 6.46 43.628 0.079 6.67 5.13 12.51
3/19/2021 7:15:00 PM 6.39 43.502 0.079 6.63 4.7 12.42
3/19/2021 7:30:00 PM 6.33 43.394 0.08 6.63 4.69 12.34
3/19/2021 7:45:00 PM 6.27 43.286 0.079 6.65 4.57 12.25
3/19/2021 8:00:00 PM 6.2 43.16 0.079 6.66 4.61 12.18
3/19/2021 8:15:00 PM 6.14 43.052 0.08 6.64 4.62 12.12
3/19/2021 8:30:00 PM 6.07 42.926 0.079 6.67 4.56 12.09
3/19/2021 8:45:00 PM 6 42.8 0.079 6.67 6.02 12.06
3/19/2021 9:00:00 PM 5.92 42.656 0.079 6.67 6.81 12.05
3/19/2021 9:15:00 PM 5.84 42.512 0.079 6.67 7.27 12.06
3/19/2021 9:30:00 PM 5.76 42.368 0.079 6.57 7.35 12.06
3/19/2021 9:45:00 PM 5.69 42.242 0.079 6.6 6.59 12.07
3/19/2021 10:00:00 PM 5.61 42.098 0.079 6.59 5.98 12.08
3/19/2021 10:15:00 PM 5.53 41.954 0.079 6.63 6.18 12.11
3/19/2021 10:30:00 PM 5.45 41.81 0.079 6.63 7.62 12.13
3/19/2021 10:45:00 PM 5.36 41.648 0.079 6.64 8.28 12.16
3/19/2021 11:00:00 PM 5.28 41.504 0.079 6.57 10.3 12.18
3/19/2021 11:15:00 PM 5.2 41.36 0.079 6.58 9.49 12.21
3/19/2021 11:30:00 PM 5.11 41.198 0.079 6.57 9.39 12.24
3/19/2021 11:45:00 PM 5.03 41.054 0.079 6.57 9.32 12.27
3/20/2021 12:00:00 AM 4.95 40.91 0.079 6.52 9.27 12.3
3/20/2021 12:15:00 AM 4.86 40.748 0.079 6.57 8.74 12.34
3/20/2021 12:30:00 AM 4.78 40.604 0.079 6.61 9.59 12.36
3/20/2021 12:45:00 AM 4.7 40.46 0.078 6.58 9.42 12.39
3/20/2021 1:00:00 AM 4.62 40.316 0.078 6.59 8.78 12.43
3/20/2021 1:15:00 AM 4.53 40.154 0.079 6.62 8.7 12.45
3/20/2021 1:30:00 AM 4.45 40.01 0.078 6.61 4.9 12.49
3/20/2021 1:45:00 AM 4.37 39.866 0.078 6.53 5.05 12.52
3/20/2021 2:00:00 AM 4.28 39.704 0.078 6.58 4.68 12.56
3/20/2021 2:15:00 AM 4.2 39.56 0.078 6.59 4.48 12.59
3/20/2021 2:30:00 AM 4.11 39.398 0.078 6.6 5.13 12.62
3/20/2021 2:45:00 AM 4.03 39.254 0.078 6.62 4.99 12.66
3/20/2021 3:00:00 AM 3.95 39.11 0.078 6.62 5.26 12.69
3/20/2021 3:15:00 AM 3.87 38.966 0.078 6.6 4.32 12.72
3/20/2021 3:30:00 AM 3.8 38.84 0.078 6.61 4.55 12.75
3/20/2021 3:45:00 AM 3.72 38.696 0.078 6.61 4.63 12.78
3/20/2021 4:00:00 AM 3.65 38.57 0.078 6.61 4.91 12.81
3/20/2021 4:15:00 AM 3.57 38.426 0.078 6.62 4.44 12.84
3/20/2021 4:30:00 AM 3.49 38.282 0.078 6.62 4.46 12.87
3/20/2021 4:45:00 AM 3.43 38.174 0.078 6.63 4.63 12.9
3/20/2021 5:00:00 AM 3.36 38.048 0.078 6.56 4.36 12.93
3/20/2021 5:15:00 AM 3.29 37.922 0.078 6.59 4.46 12.95
3/20/2021 5:30:00 AM 3.23 37.814 0.078 6.58 4.45 12.98
3/20/2021 5:45:00 AM 3.16 37.688 0.078 6.58 4.41 13
3/20/2021 6:00:00 AM 3.1 37.58 0.078 6.6 4.49 13.03
3/20/2021 6:15:00 AM 3.04 37.472 0.077 6.6 4.21 13.06
3/20/2021 6:30:00 AM 2.98 37.364 0.077 6.6 4.09 13.08
3/20/2021 6:45:00 AM 2.92 37.256 0.077 6.62 4.22 13.1
3/20/2021 7:00:00 AM 2.86 37.148 0.077 6.62 5.05 13.13
3/20/2021 7:15:00 AM 2.8 37.04 0.077 6.61 4.17 13.16
3/20/2021 7:30:00 AM 2.75 36.95 0.077 6.6 4.39 13.2
3/20/2021 7:45:00 AM 2.7 36.86 0.077 6.6 4.15 13.26
3/20/2021 8:00:00 AM 2.67 36.806 0.077 6.6 4.35 13.33
3/20/2021 8:15:00 AM 2.64 36.752 0.077 6.63 4.18 13.42
3/20/2021 8:30:00 AM 2.63 36.734 0.077 6.64 4.19 13.52
3/20/2021 8:45:00 AM 2.63 36.734 0.077 6.62 4.21 13.62
3/20/2021 9:00:00 AM 2.65 36.77 0.077 6.65 4.12 13.71
3/20/2021 9:15:00 AM 2.67 36.806 0.076 6.67 3.99 13.81
3/20/2021 9:30:00 AM 2.75 36.95 0.076 6.66 4.09 13.88
3/20/2021 9:45:00 AM 2.81 37.058 0.076 6.66 4.13 13.97
3/20/2021 10:00:00 AM 2.9 37.22 0.076 6.67 4.08 14.04
3/20/2021 10:15:00 AM 3.02 37.436 0.076 6.7 3.87 14.08
3/20/2021 10:30:00 AM 3.15 37.67 0.075 6.7 3.98 14.11
3/20/2021 10:45:00 AM 3.3 37.94 0.076 6.72 3.92 14.12
3/20/2021 11:00:00 AM 3.46 38.228 0.075 6.72 3.9 14.13
3/20/2021 11:15:00 AM 3.63 38.534 0.075 6.74 4.04 14.12
3/20/2021 11:30:00 AM 3.8 38.84 0.075 6.74 3.83 14.09
3/20/2021 11:45:00 AM 3.99 39.182 0.075 6.74 4.05 14.07
3/20/2021 12:00:00 PM 4.19 39.542 0.075 6.75 3.84 14.03
3/20/2021 12:15:00 PM 4.39 39.902 0.075 6.75 3.73 13.99
3/20/2021 12:30:00 PM 4.6 40.28 0.075 6.75 3.82 13.94
3/20/2021 12:45:00 PM 4.81 40.658 0.075 6.76 3.89 13.89
3/20/2021 1:00:00 PM 5.02 41.036 0.075 6.76 3.8 13.84
3/20/2021 1:15:00 PM 5.22 41.396 0.075 6.76 3.82 13.78
3/20/2021 1:30:00 PM 5.43 41.774 0.075 6.77 3.85 13.72
3/20/2021 1:45:00 PM 5.62 42.116 0.075 6.77 3.73 13.67
3/20/2021 2:00:00 PM 5.8 42.44 0.074 6.78 3.77 13.61
3/20/2021 2:15:00 PM 5.97 42.746 0.074 6.77 3.74 13.55
3/20/2021 2:30:00 PM 6.15 43.07 0.074 6.77 3.83 13.49
3/20/2021 2:45:00 PM 6.3 43.34 0.074 6.76 3.93 13.43
3/20/2021 3:00:00 PM 6.45 43.61 0.074 6.76 3.74 13.36
3/20/2021 3:15:00 PM 6.59 43.862 0.074 6.77 3.79 13.31
3/20/2021 3:30:00 PM 6.72 44.096 0.074 6.76 3.86 13.25
3/20/2021 3:45:00 PM 6.83 44.294 0.074 6.76 3.84 13.19
3/20/2021 4:00:00 PM 6.93 44.474 0.074 6.75 3.8 13.13
3/20/2021 4:15:00 PM 7.03 44.654 0.074 6.76 3.82 13.07
3/20/2021 4:30:00 PM 7.12 44.816 0.074 6.75 3.9 13.02
3/20/2021 4:45:00 PM 7.19 44.942 0.074 6.76 3.72 12.96
3/20/2021 5:00:00 PM 7.26 45.068 0.073 6.75 3.78 12.9
3/20/2021 5:15:00 PM 7.32 45.176 0.073 6.75 3.86 12.84
3/20/2021 5:30:00 PM 7.37 45.266 0.073 6.74 3.81 12.77
3/20/2021 5:45:00 PM 7.4 45.32 0.073 6.75 3.87 12.7
3/20/2021 6:00:00 PM 7.41 45.338 0.073 6.74 3.75 12.63
3/20/2021 6:15:00 PM 7.43 45.374 0.073 6.73 4.04 12.55
3/20/2021 6:30:00 PM 7.43 45.374 0.073 6.72 3.92 12.47
3/20/2021 6:45:00 PM 7.42 45.356 0.073 6.72 3.91 12.37
3/20/2021 7:00:00 PM 7.4 45.32 0.073 6.72 4.02 12.28
3/20/2021 7:15:00 PM 7.36 45.248 0.073 6.72 3.9 12.17
3/20/2021 7:30:00 PM 7.33 45.194 0.073 6.71 3.95 12.07
3/20/2021 7:45:00 PM 7.28 45.104 0.073 6.72 3.96 11.97
3/20/2021 8:00:00 PM 7.22 44.996 0.074 6.71 4.12 11.88
3/20/2021 8:15:00 PM 7.18 44.924 0.074 6.68 4.09 11.82
3/20/2021 8:30:00 PM 7.13 44.834 0.074 6.69 4.17 11.77
3/20/2021 8:45:00 PM 7.08 44.744 0.074 6.68 4.26 11.74
3/20/2021 9:00:00 PM 7.02 44.636 0.074 6.67 4.27 11.71
3/20/2021 9:15:00 PM 6.95 44.51 0.074 6.67 3.94 11.7
3/20/2021 9:30:00 PM 6.88 44.384 0.074 6.67 4.36 11.7
3/20/2021 9:45:00 PM 6.82 44.276 0.074 6.68 4.06 11.71
3/20/2021 10:00:00 PM 6.75 44.15 0.074 6.68 4.03 11.71
3/20/2021 10:15:00 PM 6.69 44.042 0.074 6.67 4.03 11.73
3/20/2021 10:30:00 PM 6.61 43.898 0.074 6.67 3.99 11.74
3/20/2021 10:45:00 PM 6.53 43.754 0.074 6.67 4.1 11.77
3/20/2021 11:00:00 PM 6.46 43.628 0.074 6.65 4.04 11.79
3/20/2021 11:15:00 PM 6.37 43.466 0.074 6.65 4.19 11.81
3/20/2021 11:30:00 PM 6.3 43.34 0.074 6.65 3.89 11.84
3/20/2021 11:45:00 PM 6.22 43.196 0.074 6.62 4.02 11.87
3/21/2021 12:00:00 AM 6.13 43.034 0.074 6.62 3.97 11.89
3/21/2021 12:15:00 AM 6.04 42.872 0.074 6.61 3.95 11.93
3/21/2021 12:30:00 AM 5.96 42.728 0.075 6.6 4.01 11.95
3/21/2021 12:45:00 AM 5.87 42.566 0.074 6.61 3.89 11.99
3/21/2021 1:00:00 AM 5.78 42.404 0.074 6.6 3.96 12.01
3/21/2021 1:15:00 AM 5.69 42.242 0.075 6.61 3.87 12.04
3/21/2021 1:30:00 AM 5.6 42.08 0.074 6.62 3.98 12.08
3/21/2021 1:45:00 AM 5.51 41.918 0.075 6.6 3.89 12.11
3/21/2021 2:00:00 AM 5.42 41.756 0.075 6.61 4.03 12.14
3/21/2021 2:15:00 AM 5.34 41.612 0.074 6.6 4.03 12.17
3/21/2021 2:30:00 AM 5.25 41.45 0.075 6.62 3.87 12.19
3/21/2021 2:45:00 AM 5.16 41.288 0.075 6.62 3.85 12.23
3/21/2021 3:00:00 AM 5.08 41.144 0.075 6.62 4.07 12.26
3/21/2021 3:15:00 AM 5 41 0.075 6.6 3.98 12.29
3/21/2021 3:30:00 AM 4.92 40.856 0.075 6.59 3.88 12.32
3/21/2021 3:45:00 AM 4.83 40.694 0.075 6.6 3.8 12.35
3/21/2021 4:00:00 AM 4.76 40.568 0.075 6.62 4.27 12.38
3/21/2021 4:15:00 AM 4.68 40.424 0.075 6.6 4.19 12.4
3/21/2021 4:30:00 AM 4.6 40.28 0.075 6.62 4.02 12.44
3/21/2021 4:45:00 AM 4.52 40.136 0.075 6.63 3.97 12.46
3/21/2021 5:00:00 AM 4.44 39.992 0.075 6.62 3.95 12.5
3/21/2021 5:15:00 AM 4.36 39.848 0.075 6.62 3.97 12.52
3/21/2021 5:30:00 AM 4.29 39.722 0.075 6.6 4.12 12.55
3/21/2021 5:45:00 AM 4.21 39.578 0.075 6.59 4.02 12.59
3/21/2021 6:00:00 AM 4.14 39.452 0.075 6.61 4.02 12.61
3/21/2021 6:15:00 AM 4.06 39.308 0.075 6.62 4.05 12.64
3/21/2021 6:30:00 AM 3.99 39.182 0.075 6.63 3.98 12.67
3/21/2021 6:45:00 AM 3.91 39.038 0.075 6.61 3.73 12.7
3/21/2021 7:00:00 AM 3.85 38.93 0.075 6.59 4 12.73
3/21/2021 7:15:00 AM 3.78 38.804 0.074 6.62 3.9 12.76
3/21/2021 7:30:00 AM 3.71 38.678 0.075 6.62 3.93 12.81
3/21/2021 7:45:00 AM 3.65 38.57 0.075 6.6 3.95 12.87
3/21/2021 8:00:00 AM 3.61 38.498 0.075 6.6 3.95 12.96
3/21/2021 8:15:00 AM 3.57 38.426 0.074 6.62 3.74 13.06
3/21/2021 8:30:00 AM 3.55 38.39 0.075 6.62 4 13.16
3/21/2021 8:45:00 AM 3.55 38.39 0.074 6.61 3.92 13.26
3/21/2021 9:00:00 AM 3.56 38.408 0.074 6.62 3.81 13.38
3/21/2021 9:15:00 AM 3.57 38.426 0.074 6.64 3.83 13.48
3/21/2021 9:30:00 AM 3.64 38.552 0.074 6.64 3.78 13.58
3/21/2021 9:45:00 AM 3.72 38.696 0.074 6.65 3.82 13.65
3/21/2021 10:00:00 AM 3.79 38.822 0.074 6.66 3.69 13.74
3/21/2021 10:15:00 AM 3.91 39.038 0.074 6.67 3.78 13.79
3/21/2021 10:30:00 AM 4.04 39.272 0.073 6.7 3.56 13.83
3/21/2021 10:45:00 AM 4.2 39.56 0.073 6.71 3.78 13.85
3/21/2021 11:00:00 AM 4.36 39.848 0.073 6.73 3.82 13.86
3/21/2021 11:15:00 AM 4.53 40.154 0.073 6.73 3.94 13.86
3/21/2021 11:30:00 AM 4.72 40.496 0.073 6.73 3.75 13.83
3/21/2021 11:45:00 AM 4.91 40.838 0.073 6.75 3.7 13.82
3/21/2021 12:00:00 PM 5.12 41.216 0.073 6.75 3.68 13.78
3/21/2021 12:15:00 PM 5.33 41.594 0.073 6.74 3.79 13.74
3/21/2021 12:30:00 PM 5.55 41.99 0.073 6.75 3.68 13.7
3/21/2021 12:45:00 PM 5.77 42.386 0.073 6.76 3.68 13.65
3/21/2021 1:00:00 PM 6 42.8 0.073 6.76 3.66 13.6
3/21/2021 1:15:00 PM 6.21 43.178 0.073 6.76 3.72 13.54
3/21/2021 1:30:00 PM 6.42 43.556 0.073 6.77 3.66 13.49
3/21/2021 1:45:00 PM 6.62 43.916 0.073 6.76 3.65 13.43
3/21/2021 2:00:00 PM 6.82 44.276 0.073 6.77 3.64 13.37
3/21/2021 2:15:00 PM 6.98 44.564 0.072 6.76 3.68 13.32
3/21/2021 2:30:00 PM 7.16 44.888 0.072 6.77 3.68 13.25
3/21/2021 2:45:00 PM 7.33 45.194 0.073 6.76 3.72 13.2
3/21/2021 3:00:00 PM 7.47 45.446 0.073 6.76 3.7 13.13
3/21/2021 3:15:00 PM 7.61 45.698 0.072 6.77 3.57 13.08
3/21/2021 3:30:00 PM 7.75 45.95 0.072 6.77 3.57 13.02
3/21/2021 3:45:00 PM 7.87 46.166 0.072 6.76 3.71 12.96
3/21/2021 4:00:00 PM 7.98 46.364 0.072 6.76 3.69 12.89
3/21/2021 4:15:00 PM 8.08 46.544 0.072 6.76 3.63 12.84
3/21/2021 4:30:00 PM 8.17 46.706 0.072 6.76 3.61 12.78
3/21/2021 4:45:00 PM 8.25 46.85 0.072 6.75 3.69 12.71
3/21/2021 5:00:00 PM 8.32 46.976 0.072 6.75 3.64 12.65
3/21/2021 5:15:00 PM 8.38 47.084 0.072 6.75 3.73 12.58
3/21/2021 5:30:00 PM 8.43 47.174 0.072 6.74 3.53 12.51
3/21/2021 5:45:00 PM 8.47 47.246 0.072 6.74 3.58 12.45
3/21/2021 6:00:00 PM 8.49 47.282 0.072 6.74 3.73 12.36
3/21/2021 6:15:00 PM 8.5 47.3 0.072 6.73 3.74 12.28
3/21/2021 6:30:00 PM 8.5 47.3 0.072 6.72 3.71 12.2
3/21/2021 6:45:00 PM 8.49 47.282 0.072 6.71 3.71 12.1
3/21/2021 7:00:00 PM 8.47 47.246 0.072 6.72 3.83 11.99
3/21/2021 7:15:00 PM 8.44 47.192 0.072 6.71 3.88 11.87
3/21/2021 7:30:00 PM 8.41 47.138 0.072 6.69 3.78 11.76
3/21/2021 7:45:00 PM 8.36 47.048 0.072 6.69 3.92 11.65
3/21/2021 8:00:00 PM 8.3 46.94 0.072 6.7 3.95 11.55
3/21/2021 8:15:00 PM 8.24 46.832 0.073 6.69 3.97 11.46
3/21/2021 8:30:00 PM 8.19 46.742 0.073 6.69 3.98 11.41
3/21/2021 8:45:00 PM 8.13 46.634 0.073 6.67 3.88 11.36
3/21/2021 9:00:00 PM 8.08 46.544 0.073 6.69 4 11.34
3/21/2021 9:15:00 PM 8.02 46.436 0.073 6.68 3.99 11.33
3/21/2021 9:30:00 PM 7.94 46.292 0.073 6.67 3.9 11.32
3/21/2021 9:45:00 PM 7.86 46.148 0.073 6.65 3.93 11.33
3/21/2021 10:00:00 PM 7.78 46.004 0.073 6.65 3.95 11.33
3/21/2021 10:15:00 PM 7.7 45.86 0.073 6.65 3.89 11.35
3/21/2021 10:30:00 PM 7.62 45.716 0.073 6.66 3.94 11.38
3/21/2021 10:45:00 PM 7.54 45.572 0.073 6.63 3.96 11.4
3/21/2021 11:00:00 PM 7.46 45.428 0.073 6.64 3.96 11.41
3/21/2021 11:15:00 PM 7.37 45.266 0.073 6.63 3.91 11.43
3/21/2021 11:30:00 PM 7.28 45.104 0.073 6.63 4.11 11.45
3/21/2021 11:45:00 PM 7.19 44.942 0.073 6.63 3.82 11.49
3/22/2021 12:00:00 AM 7.09 44.762 0.073 6.6 3.94 11.52
3/22/2021 12:15:00 AM 6.99 44.582 0.073 6.61 3.8 11.55
3/22/2021 12:30:00 AM 6.9 44.42 0.073 6.62 3.88 11.58
3/22/2021 12:45:00 AM 6.8 44.24 0.074 6.62 4.09 11.61
3/22/2021 1:00:00 AM 6.7 44.06 0.074 6.6 4.08 11.64
3/22/2021 1:15:00 AM 6.61 43.898 0.074 6.6 3.85 11.67
3/22/2021 1:30:00 AM 6.51 43.718 0.074 6.6 3.73 11.7
3/22/2021 1:45:00 AM 6.4 43.52 0.074 6.6 3.97 11.74
3/22/2021 2:00:00 AM 6.3 43.34 0.074 6.59 4.01 11.77
3/22/2021 2:15:00 AM 6.21 43.178 0.074 6.59 3.93 11.8
3/22/2021 2:30:00 AM 6.1 42.98 0.074 6.59 3.94 11.84
3/22/2021 2:45:00 AM 6 42.8 0.074 6.6 4.04 11.88
3/22/2021 3:00:00 AM 5.91 42.638 0.074 6.59 3.78 11.91
3/22/2021 3:15:00 AM 5.81 42.458 0.074 6.59 3.96 11.94
3/22/2021 3:30:00 AM 5.72 42.296 0.074 6.58 3.91 11.97
3/22/2021 3:45:00 AM 5.62 42.116 0.074 6.56 4 12
3/22/2021 4:00:00 AM 5.53 41.954 0.074 6.59 4.17 12.04
3/22/2021 4:15:00 AM 5.44 41.792 0.074 6.6 3.81 12.07
3/22/2021 4:30:00 AM 5.35 41.63 0.074 6.61 3.99 12.1
3/22/2021 4:45:00 AM 5.27 41.486 0.074 6.61 3.86 12.13
3/22/2021 5:00:00 AM 5.18 41.324 0.074 6.59 3.83 12.16
3/22/2021 5:15:00 AM 5.09 41.162 0.074 6.6 3.84 12.19
3/22/2021 5:30:00 AM 5.01 41.018 0.074 6.59 3.76 12.23
3/22/2021 5:45:00 AM 4.92 40.856 0.074 6.61 3.87 12.25
3/22/2021 6:00:00 AM 4.84 40.712 0.074 6.62 3.83 12.29
3/22/2021 6:15:00 AM 4.76 40.568 0.074 6.61 3.74 12.32
3/22/2021 6:30:00 AM 4.68 40.424 0.074 6.6 3.98 12.35
3/22/2021 6:45:00 AM 4.6 40.28 0.074 6.6 3.71 12.37
3/22/2021 7:00:00 AM 4.52 40.136 0.075 6.6 3.99 12.4
3/22/2021 7:15:00 AM 4.44 39.992 0.075 6.59 3.87 12.44
3/22/2021 7:30:00 AM 4.36 39.848 0.075 6.59 3.91 12.5
3/22/2021 7:45:00 AM 4.3 39.74 0.075 6.6 3.9 12.57
3/22/2021 8:00:00 AM 4.26 39.668 0.075 6.6 3.8 12.67
3/22/2021 8:15:00 AM 4.22 39.596 0.075 6.63 3.81 12.78
3/22/2021 8:30:00 AM 4.19 39.542 0.075 6.62 3.78 12.9
3/22/2021 8:45:00 AM 4.18 39.524 0.075 6.64 3.9 13.02
3/22/2021 9:00:00 AM 4.19 39.542 0.075 6.62 3.8 13.14
3/22/2021 9:15:00 AM 4.2 39.56 0.074 6.63 3.85 13.26
3/22/2021 9:30:00 AM 4.27 39.686 0.074 6.66 3.77 13.37
3/22/2021 9:45:00 AM 4.33 39.794 0.074 6.66 3.63 13.46
3/22/2021 10:00:00 AM 4.41 39.938 0.074 6.68 3.77 13.54
3/22/2021 10:15:00 AM 4.53 40.154 0.073 6.69 3.72 13.62
3/22/2021 10:30:00 AM 4.66 40.388 0.073 6.71 3.78 13.66
3/22/2021 10:45:00 AM 4.82 40.676 0.073 6.71 3.75 13.69
3/22/2021 11:00:00 AM 4.99 40.982 0.073 6.72 3.79 13.69
3/22/2021 11:15:00 AM 5.17 41.306 0.073 6.74 3.79 13.69
3/22/2021 11:30:00 AM 5.36 41.648 0.073 6.73 3.65 13.68
3/22/2021 11:45:00 AM 5.57 42.026 0.073 6.74 3.74 13.65
3/22/2021 12:00:00 PM 5.78 42.404 0.074 6.75 3.76 13.62
3/22/2021 12:15:00 PM 6 42.8 0.074 6.76 3.7 13.58
3/22/2021 12:30:00 PM 6.22 43.196 0.074 6.76 3.6 13.54
3/22/2021 12:45:00 PM 6.45 43.61 0.074 6.76 4.23 13.49
3/22/2021 1:00:00 PM 6.67 44.006 0.074 6.77 3.66 13.43
3/22/2021 1:15:00 PM 6.89 44.402 0.074 6.77 3.61 13.38
3/22/2021 1:30:00 PM 7.1 44.78 0.073 6.77 3.6 13.33
3/22/2021 1:45:00 PM 7.31 45.158 0.073 6.76 3.68 13.28
3/22/2021 2:00:00 PM 7.5 45.5 0.073 6.77 3.69 13.22
3/22/2021 2:15:00 PM 7.68 45.824 0.073 6.77 3.67 13.17
3/22/2021 2:30:00 PM 7.84 46.112 0.073 6.77 3.73 13.11
3/22/2021 2:45:00 PM 7.99 46.382 0.073 6.77 3.72 13.06
3/22/2021 3:00:00 PM 8.13 46.634 0.073 6.76 3.62 13
3/22/2021 3:15:00 PM 8.28 46.904 0.073 6.77 3.67 12.95
3/22/2021 3:30:00 PM 8.39 47.102 0.072 6.76 3.67 12.89
3/22/2021 3:45:00 PM 8.51 47.318 0.072 6.76 3.8 12.83
3/22/2021 4:00:00 PM 8.61 47.498 0.072 6.76 3.71 12.77
3/22/2021 4:15:00 PM 8.69 47.642 0.072 6.76 3.71 12.71
3/22/2021 4:30:00 PM 8.77 47.786 0.072 6.75 5.18 12.66
3/22/2021 4:45:00 PM 8.83 47.894 0.072 6.75 4.98 12.6
3/22/2021 5:00:00 PM 8.89 48.002 0.072 6.75 4.54 12.55
3/22/2021 5:15:00 PM 8.94 48.092 0.072 6.74 4.74 12.47
3/22/2021 5:30:00 PM 8.98 48.164 0.072 6.73 5.36 12.41
3/22/2021 5:45:00 PM 9 48.2 0.072 6.74 4.46 12.33
3/22/2021 6:00:00 PM 9.01 48.218 0.072 6.74 3.89 12.25
3/22/2021 6:15:00 PM 9.01 48.218 0.072 6.72 3.82 12.17
3/22/2021 6:30:00 PM 9 48.2 0.072 6.72 3.9 12.08
3/22/2021 6:45:00 PM 8.98 48.164 0.072 6.72 3.77 11.97
3/22/2021 7:00:00 PM 8.95 48.11 0.072 6.72 3.74 11.87
3/22/2021 7:15:00 PM 8.91 48.038 0.072 6.71 3.78 11.74
3/22/2021 7:30:00 PM 8.88 47.984 0.072 6.7 3.81 11.61
3/22/2021 7:45:00 PM 8.84 47.912 0.072 6.71 3.89 11.49
3/22/2021 8:00:00 PM 8.79 47.822 0.073 6.69 4.02 11.37
3/22/2021 8:15:00 PM 8.73 47.714 0.073 6.68 3.82 11.28
3/22/2021 8:30:00 PM 8.68 47.624 0.073 6.67 3.97 11.21
3/22/2021 8:45:00 PM 8.62 47.516 0.073 6.68 3.82 11.17
3/22/2021 9:00:00 PM 8.56 47.408 0.073 6.67 3.83 11.13
3/22/2021 9:15:00 PM 8.5 47.3 0.073 6.67 3.95 11.11
3/22/2021 9:30:00 PM 8.42 47.156 0.073 6.67 3.93 11.1
3/22/2021 9:45:00 PM 8.35 47.03 0.073 6.68 3.71 11.1
3/22/2021 10:00:00 PM 8.27 46.886 0.073 6.65 3.83 11.1
3/22/2021 10:15:00 PM 8.18 46.724 0.073 6.64 3.93 11.12
3/22/2021 10:30:00 PM 8.1 46.58 0.073 6.65 3.89 11.13
3/22/2021 10:45:00 PM 8.02 46.436 0.073 6.64 3.94 11.15
3/22/2021 11:00:00 PM 7.94 46.292 0.073 6.63 3.83 11.18
3/22/2021 11:15:00 PM 7.86 46.148 0.073 6.63 3.9 11.2
3/22/2021 11:30:00 PM 7.77 45.986 0.073 6.63 3.93 11.22
3/22/2021 11:45:00 PM 7.69 45.842 0.073 6.62 3.92 11.25
3/23/2021 12:00:00 AM 7.6 45.68 0.073 6.62 3.85 11.27
3/23/2021 12:15:00 AM 7.5 45.5 0.074 6.62 4.05 11.3
3/23/2021 12:30:00 AM 7.41 45.338 0.073 6.63 3.95 11.34
3/23/2021 12:45:00 AM 7.32 45.176 0.074 6.62 3.89 11.37
3/23/2021 1:00:00 AM 7.23 45.014 0.074 6.61 4.01 11.4
3/23/2021 1:15:00 AM 7.14 44.852 0.074 6.61 3.85 11.43
3/23/2021 1:30:00 AM 7.04 44.672 0.074 6.62 3.84 11.46
3/23/2021 1:45:00 AM 6.95 44.51 0.074 6.6 3.9 11.48
3/23/2021 2:00:00 AM 6.85 44.33 0.074 6.61 3.93 11.52
3/23/2021 2:15:00 AM 6.77 44.186 0.074 6.61 4 11.55
3/23/2021 2:30:00 AM 6.66 43.988 0.074 6.61 3.86 11.59
3/23/2021 2:45:00 AM 6.57 43.826 0.074 6.59 3.93 11.62
3/23/2021 3:00:00 AM 6.48 43.664 0.074 6.6 3.95 11.64
3/23/2021 3:15:00 AM 6.38 43.484 0.074 6.61 3.83 11.67
3/23/2021 3:30:00 AM 6.28 43.304 0.075 6.6 3.89 11.71
3/23/2021 3:45:00 AM 6.2 43.16 0.074 6.6 3.88 11.74
3/23/2021 4:00:00 AM 6.09 42.962 0.075 6.6 3.92 11.78
3/23/2021 4:15:00 AM 6 42.8 0.075 6.6 3.94 11.8
3/23/2021 4:30:00 AM 5.91 42.638 0.075 6.61 3.85 11.84
3/23/2021 4:45:00 AM 5.82 42.476 0.075 6.62 3.83 11.87
3/23/2021 5:00:00 AM 5.73 42.314 0.075 6.59 3.99 11.9
3/23/2021 5:15:00 AM 5.64 42.152 0.075 6.59 3.75 11.94
3/23/2021 5:30:00 AM 5.55 41.99 0.075 6.61 3.93 11.96
3/23/2021 5:45:00 AM 5.47 41.846 0.075 6.59 3.93 11.99
3/23/2021 6:00:00 AM 5.38 41.684 0.075 6.61 4.03 12.03
3/23/2021 6:15:00 AM 5.31 41.558 0.075 6.6 3.97 12.05
3/23/2021 6:30:00 AM 5.22 41.396 0.075 6.61 3.83 12.08
3/23/2021 6:45:00 AM 5.14 41.252 0.075 6.61 3.93 12.12
3/23/2021 7:00:00 AM 5.07 41.126 0.075 6.61 3.99 12.14
3/23/2021 7:15:00 AM 4.98 40.964 0.075 6.6 3.76 12.18
3/23/2021 7:30:00 AM 4.91 40.838 0.075 6.61 3.88 12.25
3/23/2021 7:45:00 AM 4.86 40.748 0.075 6.62 3.84 12.33
3/23/2021 8:00:00 AM 4.81 40.658 0.075 6.61 3.97 12.45
3/23/2021 8:15:00 AM 4.78 40.604 0.075 6.62 4.08 12.58
3/23/2021 8:30:00 AM 4.75 40.55 0.075 6.63 3.97 12.72
3/23/2021 8:45:00 AM 4.74 40.532 0.074 6.64 3.83 12.85
3/23/2021 9:00:00 AM 4.75 40.55 0.074 6.64 3.9 12.98
3/23/2021 9:15:00 AM 4.77 40.586 0.074 6.65 3.87 13.1
3/23/2021 9:30:00 AM 4.84 40.712 0.074 6.66 4.07 13.21
3/23/2021 9:45:00 AM 4.9 40.82 0.074 6.68 3.89 13.34
3/23/2021 10:00:00 AM 4.96 40.928 0.074 6.69 3.95 13.42
3/23/2021 10:15:00 AM 5.07 41.126 0.073 6.69 3.87 13.51
3/23/2021 10:30:00 AM 5.19 41.342 0.074 6.71 3.87 13.55
3/23/2021 10:45:00 AM 5.33 41.594 0.073 6.72 3.83 13.59
3/23/2021 11:00:00 AM 5.51 41.918 0.073 6.73 4.03 13.61
3/23/2021 11:15:00 AM 5.71 42.278 0.073 6.75 3.91 13.62
3/23/2021 11:30:00 AM 5.88 42.584 0.073 6.76 3.79 13.6
3/23/2021 11:45:00 AM 6.09 42.962 0.073 6.76 3.77 13.58
3/23/2021 12:00:00 PM 6.25 43.25 0.073 6.76 3.76 13.55
3/23/2021 12:15:00 PM 6.44 43.592 0.073 6.76 3.84 13.53
3/23/2021 12:30:00 PM 6.67 44.006 0.073 6.77 3.86 13.5
3/23/2021 12:45:00 PM 6.9 44.42 0.073 6.77 3.72 13.45
3/23/2021 1:00:00 PM 7.01 44.618 0.073 6.77 3.66 13.41
3/23/2021 1:15:00 PM 7.16 44.888 0.073 6.77 4.4 13.36
3/23/2021 1:30:00 PM 7.31 45.158 0.073 6.77 3.87 13.33
3/23/2021 1:45:00 PM 7.53 45.554 0.073 6.77 10.64 13.26
3/23/2021 2:00:00 PM 7.6 45.68 0.073 6.77 3.97 13.25
3/23/2021 2:15:00 PM 7.72 45.896 0.073 6.76 3.83 13.21
3/23/2021 2:30:00 PM 7.89 46.202 0.073 6.77 3.84 13.17
3/23/2021 2:45:00 PM 7.97 46.346 0.073 6.76 3.79 13.12
3/23/2021 3:00:00 PM 8.04 46.472 0.073 6.76 3.92 13.07
3/23/2021 3:15:00 PM 8.12 46.616 0.073 6.75 3.96 13.01
3/23/2021 3:30:00 PM 8.2 46.76 0.073 6.75 3.83 12.96
3/23/2021 3:45:00 PM 8.27 46.886 0.073 6.75 3.82 12.91
3/23/2021 4:00:00 PM 8.34 47.012 0.072 6.74 3.82 12.86
3/23/2021 4:15:00 PM 8.38 47.084 0.073 6.75 3.91 12.79
3/23/2021 4:30:00 PM 8.41 47.138 0.072 6.74 3.87 12.75
3/23/2021 4:45:00 PM 8.48 47.264 0.073 6.74 3.82 12.72
3/23/2021 5:00:00 PM 8.55 47.39 0.072 6.74 4.86 12.68
3/23/2021 5:15:00 PM 8.59 47.462 0.072 6.74 3.93 12.61
3/23/2021 5:30:00 PM 8.63 47.534 0.072 6.73 3.89 12.55
3/23/2021 5:45:00 PM 8.69 47.642 0.072 6.73 3.91 12.49
3/23/2021 6:00:00 PM 8.74 47.732 0.072 6.73 3.99 12.44
3/23/2021 6:15:00 PM 8.79 47.822 0.072 6.73 3.85 12.39
3/23/2021 6:30:00 PM 8.81 47.858 0.072 6.73 3.68 12.32
3/23/2021 6:45:00 PM 8.81 47.858 0.072 6.72 3.9 12.22
3/23/2021 7:00:00 PM 8.81 47.858 0.072 6.72 3.8 12.11
3/23/2021 7:15:00 PM 8.8 47.84 0.072 6.72 3.82 11.96
3/23/2021 7:30:00 PM 8.78 47.804 0.073 6.7 3.84 11.8
3/23/2021 7:45:00 PM 8.76 47.768 0.073 6.7 3.91 11.65
3/23/2021 8:00:00 PM 8.73 47.714 0.073 6.7 4.01 11.5
3/23/2021 8:15:00 PM 8.69 47.642 0.073 6.71 3.99 11.39
3/23/2021 8:30:00 PM 8.66 47.588 0.073 6.7 3.93 11.29
3/23/2021 8:45:00 PM 8.63 47.534 0.073 6.7 4.01 11.21
3/23/2021 9:00:00 PM 8.6 47.48 0.073 6.68 3.99 11.15
3/23/2021 9:15:00 PM 8.57 47.426 0.073 6.69 3.99 11.1
3/23/2021 9:30:00 PM 8.54 47.372 0.074 6.68 3.96 11.07
3/23/2021 9:45:00 PM 8.51 47.318 0.074 6.67 3.9 11.05
3/23/2021 10:00:00 PM 8.47 47.246 0.074 6.68 3.87 11.04
3/23/2021 10:15:00 PM 8.43 47.174 0.074 6.67 3.97 11.03
3/23/2021 10:30:00 PM 8.4 47.12 0.074 6.68 3.88 11.03
3/23/2021 10:45:00 PM 8.37 47.066 0.074 6.69 3.89 11.02
3/23/2021 11:00:00 PM 8.32 46.976 0.074 6.68 3.84 11.03
3/23/2021 11:15:00 PM 8.28 46.904 0.074 6.66 4.77 11.04
3/23/2021 11:30:00 PM 8.24 46.832 0.074 6.68 4.27 11.04
3/23/2021 11:45:00 PM 8.2 46.76 0.074 6.68 4.11 11.05
3/24/2021 12:00:00 AM 8.16 46.688 0.074 6.67 4.08 11.06
3/24/2021 12:15:00 AM 8.13 46.634 0.074 6.68 4.08 11.07
3/24/2021 12:30:00 AM 8.09 46.562 0.074 6.67 4.22 11.08
3/24/2021 12:45:00 AM 8.06 46.508 0.074 6.67 3.82 11.08
3/24/2021 1:00:00 AM 8.02 46.436 0.074 6.64 4.07 11.1
3/24/2021 1:15:00 AM 7.99 46.382 0.074 6.67 3.94 11.11
3/24/2021 1:30:00 AM 7.96 46.328 0.074 6.68 3.97 11.12
3/24/2021 1:45:00 AM 7.94 46.292 0.074 6.68 4.09 11.13
3/24/2021 2:00:00 AM 7.92 46.256 0.074 6.68 3.9 11.15
3/24/2021 2:15:00 AM 7.89 46.202 0.075 6.69 4.04 11.16
3/24/2021 2:30:00 AM 7.86 46.148 0.075 6.68 4.01 11.17
3/24/2021 2:45:00 AM 7.85 46.13 0.075 6.68 3.89 11.18
3/24/2021 3:00:00 AM 7.83 46.094 0.075 6.68 3.95 11.19
3/24/2021 3:15:00 AM 7.82 46.076 0.075 6.68 3.99 11.19
3/24/2021 3:30:00 AM 7.82 46.076 0.075 6.68 3.82 11.19
3/24/2021 3:45:00 AM 7.81 46.058 0.075 6.68 4 11.18
3/24/2021 4:00:00 AM 7.81 46.058 0.075 6.69 3.93 11.21
3/24/2021 4:15:00 AM 7.81 46.058 0.075 6.69 3.79 11.2
3/24/2021 4:30:00 AM 7.8 46.04 0.076 6.69 3.92 11.22
3/24/2021 4:45:00 AM 7.8 46.04 0.075 6.68 3.95 11.21
3/24/2021 5:00:00 AM 7.79 46.022 0.075 6.68 3.98 11.21
3/24/2021 5:15:00 AM 7.78 46.004 0.076 6.69 3.95 11.21
3/24/2021 5:30:00 AM 7.78 46.004 0.076 6.7 3.93 11.22
3/24/2021 5:45:00 AM 7.77 45.986 0.076 6.69 4.02 11.23
3/24/2021 6:00:00 AM 7.76 45.968 0.076 6.68 3.79 11.23
3/24/2021 6:15:00 AM 7.76 45.968 0.076 6.69 3.97 11.22
3/24/2021 6:30:00 AM 7.75 45.95 0.076 6.68 3.97 11.22
3/24/2021 6:45:00 AM 7.74 45.932 0.076 6.69 4.07 11.22
3/24/2021 7:00:00 AM 7.74 45.932 0.076 6.69 4.11 11.22
3/24/2021 7:15:00 AM 7.73 45.914 0.076 6.7 3.8 11.23
3/24/2021 7:30:00 AM 7.73 45.914 0.076 6.7 3.99 11.23
3/24/2021 7:45:00 AM 7.73 45.914 0.076 6.7 4.02 11.25
3/24/2021 8:00:00 AM 7.73 45.914 0.076 6.7 4.05 11.25
3/24/2021 8:15:00 AM 7.73 45.914 0.076 6.69 4.05 11.28
3/24/2021 8:30:00 AM 7.73 45.914 0.076 6.7 4.18 11.3
3/24/2021 8:45:00 AM 7.74 45.932 0.076 6.69 4.48 11.34
3/24/2021 9:00:00 AM 7.75 45.95 0.076 6.69 4.86 11.38
3/24/2021 9:15:00 AM 7.75 45.95 0.077 6.7 10.43 11.41
3/24/2021 9:30:00 AM 7.75 45.95 0.079 6.69 29.53 11.42
3/24/2021 9:45:00 AM 7.76 45.968 0.081 6.69 17.79 11.48
3/24/2021 10:00:00 AM 7.77 45.986 0.085 6.68 14.56 11.58
3/24/2021 10:15:00 AM 7.78 46.004 0.087 6.68 15.69 11.65
3/24/2021 10:30:00 AM 7.79 46.022 0.088 6.69 19.2 11.74
3/24/2021 10:45:00 AM 7.81 46.058 0.088 6.69 18.71 11.8
3/24/2021 11:00:00 AM 7.85 46.13 0.09 6.69 16.87 11.89
3/24/2021 11:15:00 AM 7.88 46.184 0.095 6.68 15.35 11.93
3/24/2021 11:30:00 AM 7.93 46.274 0.104 6.68 13.98 12.06
3/24/2021 11:45:00 AM 8 46.4 0.106 6.68 13.3 12.16
3/24/2021 12:00:00 PM 8.06 46.508 0.101 6.71 13.86 12.24
3/24/2021 12:15:00 PM 8.13 46.634 0.097 6.7 15.35 12.28
3/24/2021 12:30:00 PM 8.18 46.724 0.094 6.7 15.66 12.28
3/24/2021 12:45:00 PM 8.23 46.814 0.093 6.67 15.72 12.27
3/24/2021 1:00:00 PM 8.28 46.904 0.091 6.67 16.05 12.27
3/24/2021 1:15:00 PM 8.33 46.994 0.091 6.65 17.86 12.26
3/24/2021 1:30:00 PM 8.36 47.048 0.089 6.64 12.66 12.26
3/24/2021 1:45:00 PM 8.4 47.12 0.088 6.66 11.56 12.23
3/24/2021 2:00:00 PM 8.44 47.192 0.088 6.64 16.41 12.2
3/24/2021 2:15:00 PM 8.49 47.282 0.089 6.63 13.66 12.21
3/24/2021 2:30:00 PM 8.55 47.39 0.089 6.63 10.82 12.22
3/24/2021 2:45:00 PM 8.61 47.498 0.088 6.65 10.58 12.24
3/24/2021 3:00:00 PM 8.66 47.588 0.089 6.63 10.65 12.22
3/24/2021 3:15:00 PM 8.71 47.678 0.088 6.7 10.16 12.2
3/24/2021 3:30:00 PM 8.75 47.75 0.088 6.64 10.56 12.18
3/24/2021 3:45:00 PM 8.79 47.822 0.087 6.65 9.32 12.18
3/24/2021 4:00:00 PM 8.83 47.894 0.088 6.65 8.71 12.14
3/24/2021 4:15:00 PM 8.85 47.93 0.088 6.68 8.33 12.11
3/24/2021 4:30:00 PM 8.88 47.984 0.088 6.71 8.28 12.06
3/24/2021 4:45:00 PM 8.9 48.02 0.087 6.7 7.71 12.02
3/24/2021 5:00:00 PM 8.92 48.056 0.087 6.7 7.84 11.95
3/24/2021 5:15:00 PM 8.95 48.11 0.087 6.73 7.97 11.92
3/24/2021 5:30:00 PM 8.98 48.164 0.087 6.72 7.43 11.92
3/24/2021 5:45:00 PM 9.01 48.218 0.088 6.73 7.05 11.9
3/24/2021 6:00:00 PM 9.03 48.254 0.088 6.72 7.15 11.88
3/24/2021 6:15:00 PM 9.05 48.29 0.088 6.72 7.15 11.82
3/24/2021 6:30:00 PM 9.07 48.326 0.088 6.71 6.96 11.76
3/24/2021 6:45:00 PM 9.09 48.362 0.088 6.71 6.74 11.71
3/24/2021 7:00:00 PM 9.11 48.398 0.089 6.7 6.91 11.63
3/24/2021 7:15:00 PM 9.11 48.398 0.088 6.71 6.59 11.53
3/24/2021 7:30:00 PM 9.1 48.38 0.088 6.7 6.42 11.4
3/24/2021 7:45:00 PM 9.09 48.362 0.088 6.72 6.55 11.28
3/24/2021 8:00:00 PM 9.08 48.344 0.089 6.72 6.46 11.17
3/24/2021 8:15:00 PM 9.07 48.326 0.089 6.72 6.77 11.09
3/24/2021 8:30:00 PM 9.05 48.29 0.089 6.69 6.62 11.02
3/24/2021 8:45:00 PM 9.04 48.272 0.089 6.69 6.37 10.96
3/24/2021 9:00:00 PM 9.03 48.254 0.09 6.7 6.39 10.92
3/24/2021 9:15:00 PM 9.02 48.236 0.09 6.7 6.69 10.88
3/24/2021 9:30:00 PM 9.01 48.218 0.09 6.69 6.86 10.87
3/24/2021 9:45:00 PM 9 48.2 0.09 6.68 6.64 10.84
3/24/2021 10:00:00 PM 9 48.2 0.09 6.7 6.43 10.84
3/24/2021 10:15:00 PM 8.98 48.164 0.09 6.71 6.66 10.83
3/24/2021 10:30:00 PM 8.98 48.164 0.091 6.69 6.99 10.83
3/24/2021 10:45:00 PM 8.97 48.146 0.09 6.68 6.52 10.83
3/24/2021 11:00:00 PM 8.96 48.128 0.09 6.69 6.52 10.82
3/24/2021 11:15:00 PM 8.95 48.11 0.09 6.67 6.38 10.82
3/24/2021 11:30:00 PM 8.94 48.092 0.09 6.69 5.92 10.82
3/24/2021 11:45:00 PM 8.93 48.074 0.09 6.7 5.81 10.82
3/25/2021 12:00:00 AM 8.92 48.056 0.089 6.7 5.72 10.82
3/25/2021 12:15:00 AM 8.91 48.038 0.089 6.7 5.92 10.83
3/25/2021 12:30:00 AM 8.9 48.02 0.09 6.67 5.87 10.82
3/25/2021 12:45:00 AM 8.89 48.002 0.089 6.69 5.58 10.83
3/25/2021 1:00:00 AM 8.88 47.984 0.09 6.69 5.75 10.83
3/25/2021 1:15:00 AM 8.87 47.966 0.089 6.68 5.36 10.84
3/25/2021 1:30:00 AM 8.86 47.948 0.089 6.68 5.49 10.84
3/25/2021 1:45:00 AM 8.84 47.912 0.09 6.69 5.5 10.83
3/25/2021 2:00:00 AM 8.83 47.894 0.089 6.69 5.34 10.84
3/25/2021 2:15:00 AM 8.82 47.876 0.09 6.7 5.5 10.85
3/25/2021 2:30:00 AM 8.81 47.858 0.089 6.69 5.27 10.85
3/25/2021 2:45:00 AM 8.81 47.858 0.089 6.69 5.06 10.86
3/25/2021 3:00:00 AM 8.8 47.84 0.09 6.69 5.43 10.86
3/25/2021 3:15:00 AM 8.79 47.822 0.09 6.69 5.38 10.86
3/25/2021 3:30:00 AM 8.78 47.804 0.09 6.68 5.48 10.87
3/25/2021 3:45:00 AM 8.77 47.786 0.089 6.7 5.26 10.87
3/25/2021 4:00:00 AM 8.76 47.768 0.09 6.66 5.19 10.88
3/25/2021 4:15:00 AM 8.75 47.75 0.09 6.69 5.19 10.87
3/25/2021 4:30:00 AM 8.74 47.732 0.09 6.68 5.06 10.88
3/25/2021 4:45:00 AM 8.72 47.696 0.09 6.68 5.1 10.89
3/25/2021 5:00:00 AM 8.71 47.678 0.09 6.67 4.97 10.88
3/25/2021 5:15:00 AM 8.7 47.66 0.09 6.68 4.88 10.89
3/25/2021 5:30:00 AM 8.69 47.642 0.089 6.66 4.8 10.9
3/25/2021 5:45:00 AM 8.68 47.624 0.09 6.68 4.87 10.91
3/25/2021 6:00:00 AM 8.67 47.606 0.09 6.67 4.84 10.91
3/25/2021 6:15:00 AM 8.66 47.588 0.09 6.68 5.14 10.91
3/25/2021 6:30:00 AM 8.65 47.57 0.09 6.69 4.86 10.92
3/25/2021 6:45:00 AM 8.64 47.552 0.09 6.69 4.87 10.92
3/25/2021 7:00:00 AM 8.63 47.534 0.09 6.69 4.69 10.93
3/25/2021 7:15:00 AM 8.62 47.516 0.089 6.69 4.61 10.94
3/25/2021 7:30:00 AM 8.62 47.516 0.089 6.69 4.75 10.95
3/25/2021 7:45:00 AM 8.61 47.498 0.09 6.68 4.59 10.98
3/25/2021 8:00:00 AM 8.62 47.516 0.089 6.68 4.88 11.04
3/25/2021 8:15:00 AM 8.62 47.516 0.09 6.68 4.64 11.12
3/25/2021 8:30:00 AM 8.63 47.534 0.089 6.69 4.83 11.21
3/25/2021 8:45:00 AM 8.64 47.552 0.089 6.69 4.52 11.31
3/25/2021 9:00:00 AM 8.66 47.588 0.089 6.68 4.75 11.43
3/25/2021 9:15:00 AM 8.7 47.66 0.088 6.7 4.66 11.58
3/25/2021 9:30:00 AM 8.74 47.732 0.088 6.7 4.49 11.71
3/25/2021 9:45:00 AM 8.79 47.822 0.088 6.7 4.58 11.88
3/25/2021 10:00:00 AM 8.84 47.912 0.088 6.7 4.5 12
3/25/2021 10:15:00 AM 8.92 48.056 0.088 6.69 4.51 12.12
3/25/2021 10:30:00 AM 9 48.2 0.087 6.72 4.68 12.25
3/25/2021 10:45:00 AM 9.15 48.47 0.087 6.73 4.57 12.37
3/25/2021 11:00:00 AM 9.28 48.704 0.087 6.72 4.56 12.46
3/25/2021 11:15:00 AM 9.52 49.136 0.087 6.74 4.52 12.52
3/25/2021 11:30:00 AM 9.69 49.442 0.087 6.75 4.39 12.54
3/25/2021 11:45:00 AM 9.92 49.856 0.086 6.76 4.41 12.58
3/25/2021 12:00:00 PM 10.13 50.234 0.086 6.77 4.48 12.58
3/25/2021 12:15:00 PM 10.34 50.612 0.086 6.77 4.22 12.57
3/25/2021 12:30:00 PM 10.56 51.008 0.086 6.78 4.41 12.55
3/25/2021 12:45:00 PM 10.74 51.332 0.086 6.77 4.49 12.53
3/25/2021 1:00:00 PM 11 51.8 0.086 6.79 4.59 12.49
3/25/2021 1:15:00 PM 11.21 52.178 0.085 6.79 4.27 12.47
3/25/2021 1:30:00 PM 11.4 52.52 0.085 6.78 4.49 12.45
3/25/2021 1:45:00 PM 11.53 52.754 0.086 6.79 4.31 12.4
3/25/2021 2:00:00 PM 11.62 52.916 0.085 6.77 4.19 12.38
3/25/2021 2:15:00 PM 11.72 53.096 0.085 6.77 4.23 12.35
3/25/2021 2:30:00 PM 11.81 53.258 0.085 6.78 4.44 12.33
3/25/2021 2:45:00 PM 11.92 53.456 0.085 6.77 4.34 12.29
3/25/2021 3:00:00 PM 12.02 53.636 0.084 6.76 4.4 12.24
3/25/2021 3:15:00 PM 12.13 53.834 0.085 6.77 4.46 12.18
3/25/2021 3:30:00 PM 12.2 53.96 0.084 6.75 4.49 12.13
3/25/2021 3:45:00 PM 12.26 54.068 0.084 6.76 4.55 12.09
3/25/2021 4:00:00 PM 12.31 54.158 0.085 6.75 4.51 12.03
3/25/2021 4:15:00 PM 12.34 54.212 0.084 6.75 4.39 11.98
3/25/2021 4:30:00 PM 12.34 54.212 0.084 6.74 4.27 11.92
3/25/2021 4:45:00 PM 12.33 54.194 0.084 6.74 4.46 11.85
3/25/2021 5:00:00 PM 12.33 54.194 0.084 6.74 4.54 11.75
3/25/2021 5:15:00 PM 12.34 54.212 0.084 6.72 4.32 11.65
3/25/2021 5:30:00 PM 12.36 54.248 0.084 6.72 4.47 11.55
3/25/2021 5:45:00 PM 12.36 54.248 0.084 6.73 4.32 11.43
3/25/2021 6:00:00 PM 12.36 54.248 0.084 6.7 4.38 11.32
3/25/2021 6:15:00 PM 12.35 54.23 0.084 6.71 4.56 11.21
3/25/2021 6:30:00 PM 12.33 54.194 0.084 6.71 4.48 11.05
3/25/2021 6:45:00 PM 12.31 54.158 0.084 6.7 4.22 10.88
3/25/2021 7:00:00 PM 12.28 54.104 0.084 6.7 4.43 10.74
3/25/2021 7:15:00 PM 12.25 54.05 0.084 6.68 4.38 10.6
3/25/2021 7:30:00 PM 12.22 53.996 0.084 6.7 4.43 10.47
3/25/2021 7:45:00 PM 12.18 53.924 0.084 6.69 4.41 10.35
3/25/2021 8:00:00 PM 12.14 53.852 0.085 6.7 4.35 10.24
3/25/2021 8:15:00 PM 12.1 53.78 0.085 6.69 4.27 10.16
3/25/2021 8:30:00 PM 12.07 53.726 0.085 6.67 4.45 10.1
3/25/2021 8:45:00 PM 12.04 53.672 0.084 6.67 4.48 10.05
3/25/2021 9:00:00 PM 12.01 53.618 0.084 6.68 4.36 10.01
3/25/2021 9:15:00 PM 11.98 53.564 0.084 6.68 4.38 9.99
3/25/2021 9:30:00 PM 11.95 53.51 0.084 6.68 4.27 9.96
3/25/2021 9:45:00 PM 11.92 53.456 0.084 6.66 4.44 9.95
3/25/2021 10:00:00 PM 11.89 53.402 0.084 6.7 4.38 9.94
3/25/2021 10:15:00 PM 11.86 53.348 0.084 6.67 4.66 9.93
3/25/2021 10:30:00 PM 11.84 53.312 0.084 6.69 4.45 9.93
3/25/2021 10:45:00 PM 11.81 53.258 0.084 6.68 4.62 9.93
3/25/2021 11:00:00 PM 11.79 53.222 0.084 6.67 4.33 9.93
3/25/2021 11:15:00 PM 11.77 53.186 0.084 6.68 4.39 9.93
3/25/2021 11:30:00 PM 11.76 53.168 0.084 6.68 4.45 9.94
3/25/2021 11:45:00 PM 11.75 53.15 0.084 6.67 4.41 9.94
3/26/2021 12:00:00 AM 11.72 53.096 0.084 6.69 4.34 9.94
3/26/2021 12:15:00 AM 11.69 53.042 0.085 6.67 4.48 9.94
3/26/2021 12:30:00 AM 11.66 52.988 0.084 6.68 4.78 9.96
3/26/2021 12:45:00 AM 11.63 52.934 0.085 6.69 4.6 9.95
3/26/2021 1:00:00 AM 11.6 52.88 0.085 6.68 4.47 9.96
3/26/2021 1:15:00 AM 11.56 52.808 0.085 6.68 4.3 9.97
3/26/2021 1:30:00 AM 11.52 52.736 0.085 6.66 4.49 9.97
3/26/2021 1:45:00 AM 11.48 52.664 0.085 6.68 4.74 9.98
3/26/2021 2:00:00 AM 11.46 52.628 0.085 6.67 4.36 9.99
3/26/2021 2:15:00 AM 11.43 52.574 0.086 6.68 4.7 10
3/26/2021 2:30:00 AM 11.39 52.502 0.085 6.68 4.65 10
3/26/2021 2:45:00 AM 11.35 52.43 0.085 6.68 4.66 10.01
3/26/2021 3:00:00 AM 11.32 52.376 0.086 6.67 4.57 10.02
3/26/2021 3:15:00 AM 11.3 52.34 0.086 6.68 4.6 10.02
3/26/2021 3:30:00 AM 11.27 52.286 0.086 6.69 4.56 10.04
3/26/2021 3:45:00 AM 11.24 52.232 0.086 6.69 4.65 10.05
3/26/2021 4:00:00 AM 11.2 52.16 0.086 6.67 4.4 10.05
3/26/2021 4:15:00 AM 11.16 52.088 0.086 6.69 4.49 10.06
3/26/2021 4:30:00 AM 11.12 52.016 0.086 6.68 4.62 10.07
3/26/2021 4:45:00 AM 11.09 51.962 0.086 6.68 4.76 10.07
3/26/2021 5:00:00 AM 11.05 51.89 0.086 6.68 4.38 10.08
3/26/2021 5:15:00 AM 11.01 51.818 0.086 6.7 4.65 10.08
3/26/2021 5:30:00 AM 10.97 51.746 0.086 6.68 4.55 10.1
3/26/2021 5:45:00 AM 10.94 51.692 0.086 6.69 4.55 10.11
3/26/2021 6:00:00 AM 10.91 51.638 0.086 6.69 4.83 10.12
3/26/2021 6:15:00 AM 10.86 51.548 0.087 6.69 4.88 10.12
3/26/2021 6:30:00 AM 10.82 51.476 0.087 6.69 5.36 10.13
3/26/2021 6:45:00 AM 10.78 51.404 0.087 6.68 5.74 10.15
3/26/2021 7:00:00 AM 10.74 51.332 0.087 6.69 4.88 10.15
3/26/2021 7:15:00 AM 10.7 51.26 0.087 6.67 4.6 10.17
3/26/2021 7:30:00 AM 10.67 51.206 0.087 6.67 4.74 10.2
3/26/2021 7:45:00 AM 10.65 51.17 0.087 6.68 4.78 10.3
3/26/2021 8:00:00 AM 10.62 51.116 0.087 6.66 5.03 10.37
3/26/2021 8:15:00 AM 10.6 51.08 0.087 6.68 4.42 10.5
3/26/2021 8:30:00 AM 10.58 51.044 0.087 6.71 4.47 10.66
3/26/2021 8:45:00 AM 10.6 51.08 0.087 6.68 4.21 10.8
3/26/2021 9:00:00 AM 10.67 51.206 0.086 6.71 4.4 10.97
3/26/2021 9:15:00 AM 10.71 51.278 0.086 6.71 4.4 11.13
3/26/2021 9:30:00 AM 10.79 51.422 0.086 6.72 4.27 11.22
3/26/2021 9:45:00 AM 10.91 51.638 0.086 6.73 4.24 11.38
3/26/2021 10:00:00 AM 11 51.8 0.086 6.76 4.25 11.51
3/26/2021 10:15:00 AM 11.19 52.142 0.086 6.76 4.3 11.64
3/26/2021 10:30:00 AM 11.31 52.358 0.086 6.76 4.42 11.73
3/26/2021 10:45:00 AM 11.48 52.664 0.086 6.77 4.31 11.77
3/26/2021 11:00:00 AM 11.63 52.934 0.086 6.79 4.46 11.81
3/26/2021 11:15:00 AM 11.72 53.096 0.085 6.78 4.41 11.81
3/26/2021 11:30:00 AM 11.77 53.186 0.085 6.77 4.38 11.82
3/26/2021 11:45:00 AM 11.83 53.294 0.085 6.78 4.27 11.8
3/26/2021 12:00:00 PM 11.85 53.33 0.085 6.76 4.28 11.71
3/26/2021 12:15:00 PM 11.92 53.456 0.085 6.76 4.34 11.69
3/26/2021 12:30:00 PM 11.99 53.582 0.084 6.76 4.26 11.64
3/26/2021 12:45:00 PM 12.08 53.744 0.084 6.77 4.47 11.71
3/26/2021 1:00:00 PM 12.14 53.852 0.084 6.76 4.52 11.74
3/26/2021 1:15:00 PM 12.15 53.87 0.084 6.76 4.49 11.74
3/26/2021 1:30:00 PM 12.2 53.96 0.084 6.75 4.4 11.76
3/26/2021 1:45:00 PM 12.27 54.086 0.084 6.76 5.24 11.79
3/26/2021 2:00:00 PM 12.42 54.356 0.084 6.77 4.45 11.8
3/26/2021 2:15:00 PM 12.58 54.644 0.084 6.76 4.34 11.82
3/26/2021 2:30:00 PM 12.6 54.68 0.084 6.76 4.38 11.81
3/26/2021 2:45:00 PM 12.65 54.77 0.083 6.76 4.3 11.78
3/26/2021 3:00:00 PM 12.69 54.842 0.084 6.77 4.29 11.77
3/26/2021 3:15:00 PM 12.71 54.878 0.083 6.75 4.48 11.75
3/26/2021 3:30:00 PM 12.7 54.86 0.083 6.75 4.29 11.74
3/26/2021 3:45:00 PM 12.71 54.878 0.083 6.74 4.4 11.72
3/26/2021 4:00:00 PM 12.69 54.842 0.083 6.75 4.3 11.69
3/26/2021 4:15:00 PM 12.65 54.77 0.083 6.72 4.47 11.61
3/26/2021 4:30:00 PM 12.62 54.716 0.083 6.74 4.52 11.56
3/26/2021 4:45:00 PM 12.57 54.626 0.083 6.72 4.45 11.48
3/26/2021 5:00:00 PM 12.53 54.554 0.083 6.73 4.48 11.47
3/26/2021 5:15:00 PM 12.5 54.5 0.083 6.74 4.41 11.45
3/26/2021 5:30:00 PM 12.46 54.428 0.083 6.71 4.58 11.42
3/26/2021 5:45:00 PM 12.41 54.338 0.083 6.71 4.26 11.38
3/26/2021 6:00:00 PM 12.38 54.284 0.083 6.71 4.52 11.38
3/26/2021 6:15:00 PM 12.34 54.212 0.082 6.7 4.55 11.31
3/26/2021 6:30:00 PM 12.29 54.122 0.082 6.7 4.42 11.21
3/26/2021 6:45:00 PM 12.24 54.032 0.083 6.7 4.49 11.12
3/26/2021 7:00:00 PM 12.2 53.96 0.083 6.7 4.51 10.96
3/26/2021 7:15:00 PM 12.16 53.888 0.083 6.71 4.33 10.81
3/26/2021 7:30:00 PM 12.1 53.78 0.083 6.68 4.56 10.67
3/26/2021 7:45:00 PM 12.04 53.672 0.083 6.69 4.58 10.52
3/26/2021 8:00:00 PM 11.97 53.546 0.083 6.69 4.46 10.39
3/26/2021 8:15:00 PM 11.91 53.438 0.083 6.69 4.43 10.29
3/26/2021 8:30:00 PM 11.83 53.294 0.083 6.69 4.31 10.22
3/26/2021 8:45:00 PM 11.76 53.168 0.083 6.67 4.18 10.15
3/26/2021 9:00:00 PM 11.69 53.042 0.083 6.67 4.32 10.12
3/26/2021 9:15:00 PM 11.63 52.934 0.083 6.68 4.31 10.09
3/26/2021 9:30:00 PM 11.56 52.808 0.083 6.67 4.56 10.08
3/26/2021 9:45:00 PM 11.5 52.7 0.083 6.68 4.79 10.07
3/26/2021 10:00:00 PM 11.44 52.592 0.083 6.66 4.78 10.08
3/26/2021 10:15:00 PM 11.39 52.502 0.084 6.69 4.72 10.08
3/26/2021 10:30:00 PM 11.35 52.43 0.083 6.69 5.26 10.09
3/26/2021 10:45:00 PM 11.3 52.34 0.083 6.7 5.72 10.1
3/26/2021 11:00:00 PM 11.25 52.25 0.083 6.68 6.43 10.1
3/26/2021 11:15:00 PM 11.21 52.178 0.083 6.7 5.4 10.12
3/26/2021 11:30:00 PM 11.16 52.088 0.083 6.71 4.84 10.13
3/26/2021 11:45:00 PM 11.09 51.962 0.083 6.72 4.69 10.15
3/27/2021 12:00:00 AM 11.01 51.818 0.083 6.7 4.75 10.16
3/27/2021 12:15:00 AM 10.93 51.674 0.083 6.69 4.5 10.17
3/27/2021 12:30:00 AM 10.83 51.494 0.083 6.68 4.38 10.21
3/27/2021 12:45:00 AM 10.73 51.314 0.083 6.69 4.44 10.23
3/27/2021 1:00:00 AM 10.66 51.188 0.084 6.68 4.55 10.25
3/27/2021 1:15:00 AM 10.59 51.062 0.083 6.66 4.56 10.27
3/27/2021 1:30:00 AM 10.51 50.918 0.084 6.65 4.51 10.3
3/27/2021 1:45:00 AM 10.43 50.774 0.084 6.67 4.56 10.32
3/27/2021 2:00:00 AM 10.35 50.63 0.084 6.68 4.61 10.33
3/27/2021 2:15:00 AM 10.27 50.486 0.084 6.67 4.37 10.35
3/27/2021 2:30:00 AM 10.2 50.36 0.084 6.69 4.7 10.38
3/27/2021 2:45:00 AM 10.14 50.252 0.084 6.7 4.67 10.41
3/27/2021 3:00:00 AM 10.04 50.072 0.084 6.68 4.57 10.43
3/27/2021 3:15:00 AM 9.97 49.946 0.084 6.68 4.57 10.44
3/27/2021 3:30:00 AM 9.88 49.784 0.084 6.67 4.69 10.47
3/27/2021 3:45:00 AM 9.79 49.622 0.084 6.66 4.62 10.5
3/27/2021 4:00:00 AM 9.71 49.478 0.084 6.66 4.41 10.52
3/27/2021 4:15:00 AM 9.63 49.334 0.084 6.67 4.4 10.54
3/27/2021 4:30:00 AM 9.56 49.208 0.084 6.68 4.45 10.57
3/27/2021 4:45:00 AM 9.49 49.082 0.084 6.68 4.37 10.58
3/27/2021 5:00:00 AM 9.41 48.938 0.085 6.67 4.44 10.62
3/27/2021 5:15:00 AM 9.35 48.83 0.084 6.69 4.4 10.64
3/27/2021 5:30:00 AM 9.29 48.722 0.084 6.7 4.63 10.67
3/27/2021 5:45:00 AM 9.23 48.614 0.084 6.68 4.35 10.68
3/27/2021 6:00:00 AM 9.18 48.524 0.085 6.67 4.48 10.7
3/27/2021 6:15:00 AM 9.11 48.398 0.084 6.67 4.43 10.73
3/27/2021 6:30:00 AM 9.04 48.272 0.084 6.67 4.41 10.75
3/27/2021 6:45:00 AM 8.97 48.146 0.084 6.7 4.72 10.77
3/27/2021 7:00:00 AM 8.89 48.002 0.085 6.67 4.25 10.79
3/27/2021 7:15:00 AM 8.82 47.876 0.084 6.68 4.2 10.83
3/27/2021 7:30:00 AM 8.75 47.75 0.084 6.69 4.19 10.91
3/27/2021 7:45:00 AM 8.7 47.66 0.085 6.69 4.06 11.02
3/27/2021 8:00:00 AM 8.67 47.606 0.084 6.69 4.25 11.15
3/27/2021 8:15:00 AM 8.63 47.534 0.084 6.71 4.27 11.29
3/27/2021 8:30:00 AM 8.6 47.48 0.084 6.71 4.21 11.44
3/27/2021 8:45:00 AM 8.61 47.498 0.084 6.71 4.04 11.61
3/27/2021 9:00:00 AM 8.63 47.534 0.084 6.71 3.88 11.77
3/27/2021 9:15:00 AM 8.66 47.588 0.084 6.73 3.97 11.91
3/27/2021 9:30:00 AM 8.73 47.714 0.083 6.72 4.08 12.07
3/27/2021 9:45:00 AM 8.81 47.858 0.083 6.73 4.06 12.22
3/27/2021 10:00:00 AM 8.89 48.002 0.083 6.74 4.19 12.35
3/27/2021 10:15:00 AM 8.99 48.182 0.083 6.76 4.09 12.41
3/27/2021 10:30:00 AM 9.17 48.506 0.083 6.77 4.08 12.51
3/27/2021 10:45:00 AM 9.26 48.668 0.083 6.79 4.02 12.56
3/27/2021 11:00:00 AM 9.4 48.92 0.083 6.77 4.09 12.6
3/27/2021 11:15:00 AM 9.57 49.226 0.082 6.79 3.86 12.61
3/27/2021 11:30:00 AM 9.77 49.586 0.082 6.8 4.01 12.64
3/27/2021 11:45:00 AM 9.97 49.946 0.082 6.8 3.91 12.62
3/27/2021 12:00:00 PM 10.09 50.162 0.082 6.79 3.98 12.6
3/27/2021 12:15:00 PM 10.29 50.522 0.082 6.8 4.14 12.6
3/27/2021 12:30:00 PM 10.5 50.9 0.082 6.81 3.96 12.58
3/27/2021 12:45:00 PM 10.68 51.224 0.082 6.81 4.02 12.55
3/27/2021 1:00:00 PM 10.86 51.548 0.082 6.8 4.13 12.53
3/27/2021 1:15:00 PM 11.1 51.98 0.082 6.82 4.13 12.49
3/27/2021 1:30:00 PM 11.34 52.412 0.082 6.82 4.12 12.45
3/27/2021 1:45:00 PM 11.51 52.718 0.082 6.82 4.06 12.41
3/27/2021 2:00:00 PM 11.65 52.97 0.082 6.82 3.88 12.38
3/27/2021 2:15:00 PM 11.79 53.222 0.082 6.81 3.9 12.34
3/27/2021 2:30:00 PM 11.86 53.348 0.082 6.8 3.96 12.31
3/27/2021 2:45:00 PM 11.93 53.474 0.082 6.81 4.05 12.28
3/27/2021 3:00:00 PM 11.98 53.564 0.082 6.78 4.11 12.23
3/27/2021 3:15:00 PM 12.05 53.69 0.082 6.79 4.11 12.17
3/27/2021 3:30:00 PM 12.1 53.78 0.082 6.79 4.18 12.12
3/27/2021 3:45:00 PM 12.13 53.834 0.082 6.78 3.94 12.06
3/27/2021 4:00:00 PM 12.14 53.852 0.082 6.79 4.09 12.02
3/27/2021 4:15:00 PM 12.15 53.87 0.081 6.78 4.13 11.96
3/27/2021 4:30:00 PM 12.13 53.834 0.081 6.77 4.08 11.9
3/27/2021 4:45:00 PM 12.11 53.798 0.082 6.76 3.98 11.85
3/27/2021 5:00:00 PM 12.09 53.762 0.082 6.75 4.1 11.8
3/27/2021 5:15:00 PM 12.1 53.78 0.082 6.76 4.08 11.75
3/27/2021 5:30:00 PM 12.11 53.798 0.081 6.77 3.92 11.7
3/27/2021 5:45:00 PM 12.11 53.798 0.081 6.75 4.1 11.63
3/27/2021 6:00:00 PM 12.13 53.834 0.081 6.74 4.09 11.57
3/27/2021 6:15:00 PM 12.13 53.834 0.081 6.75 4.17 11.51
3/27/2021 6:30:00 PM 12.14 53.852 0.081 6.75 3.97 11.42
3/27/2021 6:45:00 PM 12.13 53.834 0.081 6.74 3.99 11.34
3/27/2021 7:00:00 PM 12.1 53.78 0.081 6.75 4.01 11.2
3/27/2021 7:15:00 PM 12.06 53.708 0.082 6.72 4 11.02
3/27/2021 7:30:00 PM 12.01 53.618 0.082 6.74 4.07 10.85
3/27/2021 7:45:00 PM 11.97 53.546 0.082 6.73 4.07 10.69
3/27/2021 8:00:00 PM 11.91 53.438 0.082 6.73 4.06 10.55
3/27/2021 8:15:00 PM 11.83 53.294 0.082 6.73 4.13 10.42
3/27/2021 8:30:00 PM 11.74 53.132 0.082 6.72 4.13 10.31
3/27/2021 8:45:00 PM 11.64 52.952 0.082 6.7 4.17 10.23
3/27/2021 9:00:00 PM 11.55 52.79 0.083 6.71 4.29 10.17
3/27/2021 9:15:00 PM 11.48 52.664 0.083 6.69 4.2 10.12
3/27/2021 9:30:00 PM 11.41 52.538 0.083 6.69 4.14 10.11
3/27/2021 9:45:00 PM 11.35 52.43 0.083 6.7 4.07 10.08
3/27/2021 10:00:00 PM 11.3 52.34 0.083 6.71 4.16 10.07
3/27/2021 10:15:00 PM 11.23 52.214 0.083 6.7 4.1 10.07
3/27/2021 10:30:00 PM 11.16 52.088 0.083 6.7 4.22 10.07
3/27/2021 10:45:00 PM 11.08 51.944 0.083 6.71 4.3 10.08
3/27/2021 11:00:00 PM 11.02 51.836 0.083 6.69 4.15 10.08
3/27/2021 11:15:00 PM 10.95 51.71 0.083 6.7 4.16 10.09
3/27/2021 11:30:00 PM 10.88 51.584 0.082 6.7 3.99 10.11
3/27/2021 11:45:00 PM 10.82 51.476 0.082 6.7 4.14 10.12
3/28/2021 12:00:00 AM 10.75 51.35 0.082 6.71 4.15 10.14
3/28/2021 12:15:00 AM 10.68 51.224 0.083 6.69 4.06 10.15
3/28/2021 12:30:00 AM 10.62 51.116 0.082 6.7 4.08 10.16
3/28/2021 12:45:00 AM 10.55 50.99 0.083 6.7 4.14 10.19
3/28/2021 1:00:00 AM 10.48 50.864 0.083 6.7 4.13 10.2
3/28/2021 1:15:00 AM 10.4 50.72 0.083 6.7 4.24 10.22
3/28/2021 1:30:00 AM 10.33 50.594 0.083 6.7 4.16 10.25
3/28/2021 1:45:00 AM 10.26 50.468 0.083 6.7 4.15 10.25
3/28/2021 2:00:00 AM 10.19 50.342 0.083 6.7 4.09 10.27
3/28/2021 2:15:00 AM 10.12 50.216 0.083 6.7 4.07 10.29
3/28/2021 2:30:00 AM 10.04 50.072 0.084 6.7 4.2 10.32
3/28/2021 2:45:00 AM 9.98 49.964 0.083 6.71 4.16 10.34
3/28/2021 3:00:00 AM 9.91 49.838 0.084 6.68 4.07 10.35
3/28/2021 3:15:00 AM 9.84 49.712 0.084 6.7 4.18 10.37
3/28/2021 3:30:00 AM 9.77 49.586 0.084 6.69 4.11 10.39
3/28/2021 3:45:00 AM 9.72 49.496 0.084 6.69 4.23 10.41
3/28/2021 4:00:00 AM 9.66 49.388 0.084 6.71 4.12 10.43
3/28/2021 4:15:00 AM 9.59 49.262 0.084 6.69 4.07 10.44
3/28/2021 4:30:00 AM 9.54 49.172 0.084 6.7 4.07 10.46
3/28/2021 4:45:00 AM 9.49 49.082 0.084 6.7 4.05 10.47
3/28/2021 5:00:00 AM 9.43 48.974 0.084 6.7 4.32 10.49
3/28/2021 5:15:00 AM 9.37 48.866 0.084 6.71 4.18 10.51
3/28/2021 5:30:00 AM 9.32 48.776 0.084 6.7 4.15 10.53
3/28/2021 5:45:00 AM 9.28 48.704 0.084 6.7 4.16 10.54
3/28/2021 6:00:00 AM 9.24 48.632 0.084 6.71 4.09 10.55
3/28/2021 6:15:00 AM 9.2 48.56 0.085 6.72 4.16 10.57
3/28/2021 6:30:00 AM 9.16 48.488 0.085 6.7 4.21 10.58
3/28/2021 6:45:00 AM 9.13 48.434 0.085 6.71 4.04 10.58
3/28/2021 7:00:00 AM 9.1 48.38 0.084 6.73 4.06 10.61
3/28/2021 7:15:00 AM 9.07 48.326 0.084 6.72 4.17 10.62
3/28/2021 7:30:00 AM 9.04 48.272 0.084 6.73 4.29 10.64
3/28/2021 7:45:00 AM 9.02 48.236 0.084 6.72 4.16 10.67
3/28/2021 8:00:00 AM 9.01 48.218 0.084 6.73 4.03 10.7
3/28/2021 8:15:00 AM 8.99 48.182 0.084 6.72 4.09 10.76
3/28/2021 8:30:00 AM 8.98 48.164 0.084 6.74 4.25 10.82
3/28/2021 8:45:00 AM 8.97 48.146 0.084 6.74 4.23 10.88
3/28/2021 9:00:00 AM 8.97 48.146 0.084 6.73 4.58 10.94
3/28/2021 9:15:00 AM 8.96 48.128 0.084 6.75 4.18 10.99
3/28/2021 9:30:00 AM 8.95 48.11 0.084 6.74 4.12 11
3/28/2021 9:45:00 AM 8.94 48.092 0.084 6.75 4.02 11
3/28/2021 10:00:00 AM 8.95 48.11 0.084 6.74 4.12 11.05
3/28/2021 10:15:00 AM 8.94 48.092 0.084 6.74 4.07 11.11
3/28/2021 10:30:00 AM 8.95 48.11 0.084 6.74 4.25 11.16
3/28/2021 10:45:00 AM 8.98 48.164 0.084 6.75 4.22 11.33
3/28/2021 11:00:00 AM 9 48.2 0.084 6.74 5.2 11.44
3/28/2021 11:15:00 AM 9.01 48.218 0.084 6.75 4.34 11.46
3/28/2021 11:30:00 AM 9.05 48.29 0.083 6.75 4.08 11.53
3/28/2021 11:45:00 AM 9.08 48.344 0.084 6.77 4.11 11.59
3/28/2021 12:00:00 PM 9.1 48.38 0.083 6.77 4.06 11.63
3/28/2021 12:15:00 PM 9.12 48.416 0.083 6.76 4.09 11.65
3/28/2021 12:30:00 PM 9.16 48.488 0.083 6.76 4.23 11.7
3/28/2021 12:45:00 PM 9.18 48.524 0.084 6.77 4.31 11.71
3/28/2021 1:00:00 PM 9.21 48.578 0.084 6.75 4.11 11.72
3/28/2021 1:15:00 PM 9.24 48.632 0.084 6.76 4.1 11.7
3/28/2021 1:30:00 PM 9.29 48.722 0.083 6.77 4.21 11.73
3/28/2021 1:45:00 PM 9.33 48.794 0.084 6.76 4.33 11.71
3/28/2021 2:00:00 PM 9.35 48.83 0.083 6.77 4.33 11.59
3/28/2021 2:15:00 PM 9.38 48.884 0.083 6.77 4.32 11.54
3/28/2021 2:30:00 PM 9.42 48.956 0.083 6.77 4.27 11.53
3/28/2021 2:45:00 PM 9.47 49.046 0.084 6.79 4.16 11.55
3/28/2021 3:00:00 PM 9.52 49.136 0.083 6.76 4.27 11.57
3/28/2021 3:15:00 PM 9.6 49.28 0.083 6.77 5.04 11.53
3/28/2021 3:30:00 PM 9.64 49.352 0.084 6.78 4.99 11.54
3/28/2021 3:45:00 PM 9.68 49.424 0.084 6.78 5.36 11.48
3/28/2021 4:00:00 PM 9.77 49.586 0.084 6.79 9.45 11.59
3/28/2021 4:15:00 PM 9.77 49.586 0.084 6.78 6.26 11.5
3/28/2021 4:30:00 PM 9.77 49.586 0.084 6.78 7.44 11.39
3/28/2021 4:45:00 PM 9.79 49.622 0.085 6.77 7.13 11.43
3/28/2021 5:00:00 PM 9.79 49.622 0.086 6.75 6.41 11.4
3/28/2021 5:15:00 PM 9.81 49.658 0.087 6.76 6.64 11.47
3/28/2021 5:30:00 PM 9.83 49.694 0.087 6.76 6.77 11.52
3/28/2021 5:45:00 PM 9.88 49.784 0.087 6.75 6.38 11.57
3/28/2021 6:00:00 PM 9.89 49.802 0.088 6.76 6.96 11.61
3/28/2021 6:15:00 PM 9.87 49.766 0.088 6.77 6.72 11.58
3/28/2021 6:30:00 PM 9.86 49.748 0.089 6.76 6.62 11.47
3/28/2021 6:45:00 PM 9.88 49.784 0.09 6.77 6.55 11.38
3/28/2021 7:00:00 PM 9.87 49.766 0.092 6.76 6.31 11.33
3/28/2021 7:15:00 PM 9.84 49.712 0.093 6.76 6.54 11.19
3/28/2021 7:30:00 PM 9.8 49.64 0.093 6.75 7.13 11.07
3/28/2021 7:45:00 PM 9.72 49.496 0.094 6.74 7.7 10.95
3/28/2021 8:00:00 PM 9.65 49.37 0.093 6.73 7.8 10.84
3/28/2021 8:15:00 PM 9.58 49.244 0.093 6.71 8.35 10.76
3/28/2021 8:30:00 PM 9.51 49.118 0.093 6.72 7.95 10.7
3/28/2021 8:45:00 PM 9.43 48.974 0.092 6.71 8.18 10.66
3/28/2021 9:00:00 PM 9.35 48.83 0.092 6.71 7.36 10.64
3/28/2021 9:15:00 PM 9.28 48.704 0.091 6.7 6.93 10.63
3/28/2021 9:30:00 PM 9.21 48.578 0.091 6.71 6.77 10.62
3/28/2021 9:45:00 PM 9.14 48.452 0.09 6.7 6.56 10.63
3/28/2021 10:00:00 PM 9.04 48.272 0.091 6.7 6.18 10.64
3/28/2021 10:15:00 PM 8.97 48.146 0.091 6.7 6.3 10.65
3/28/2021 10:30:00 PM 8.9 48.02 0.09 6.7 6.06 10.67
3/28/2021 10:45:00 PM 8.82 47.876 0.09 6.7 5.94 10.68
3/28/2021 11:00:00 PM 8.75 47.75 0.09 6.71 6.04 10.71
3/28/2021 11:15:00 PM 8.69 47.642 0.09 6.71 5.87 10.74
3/28/2021 11:30:00 PM 8.64 47.552 0.09 6.71 5.97 10.74
3/28/2021 11:45:00 PM 8.58 47.444 0.09 6.7 6.05 10.77
3/29/2021 12:00:00 AM 8.53 47.354 0.09 6.69 6 10.78
3/29/2021 12:15:00 AM 8.47 47.246 0.09 6.69 5.89 10.81
3/29/2021 12:30:00 AM 8.41 47.138 0.09 6.69 5.93 10.82
3/29/2021 12:45:00 AM 8.33 46.994 0.09 6.69 6.4 10.85
3/29/2021 1:00:00 AM 8.25 46.85 0.09 6.71 5.78 10.87
3/29/2021 1:15:00 AM 8.18 46.724 0.09 6.7 5.59 10.9
3/29/2021 1:30:00 AM 8.12 46.616 0.09 6.71 5.92 10.92
3/29/2021 1:45:00 AM 8.06 46.508 0.09 6.71 5.59 10.94
3/29/2021 2:00:00 AM 7.99 46.382 0.091 6.7 5.52 10.96
3/29/2021 2:15:00 AM 7.92 46.256 0.09 6.7 5.45 10.99
3/29/2021 2:30:00 AM 7.86 46.148 0.091 6.7 5.31 11.01
3/29/2021 2:45:00 AM 7.81 46.058 0.09 6.7 5.5 11.03
3/29/2021 3:00:00 AM 7.76 45.968 0.09 6.7 5.47 11.05
3/29/2021 3:15:00 AM 7.72 45.896 0.09 6.7 5.35 11.07
3/29/2021 3:30:00 AM 7.68 45.824 0.09 6.72 5.45 11.08
3/29/2021 3:45:00 AM 7.62 45.716 0.091 6.72 5.6 11.1
3/29/2021 4:00:00 AM 7.57 45.626 0.091 6.72 5.44 11.12
3/29/2021 4:15:00 AM 7.51 45.518 0.091 6.72 5.62 11.15
3/29/2021 4:30:00 AM 7.45 45.41 0.091 6.71 5.27 11.17
3/29/2021 4:45:00 AM 7.39 45.302 0.091 6.72 5.43 11.19
3/29/2021 5:00:00 AM 7.32 45.176 0.091 6.71 5.31 11.21
3/29/2021 5:15:00 AM 7.25 45.05 0.091 6.7 5.32 11.23
3/29/2021 5:30:00 AM 7.19 44.942 0.091 6.7 5.29 11.26
3/29/2021 5:45:00 AM 7.13 44.834 0.091 6.7 5.39 11.29
3/29/2021 6:00:00 AM 7.08 44.744 0.091 6.7 5.37 11.31
3/29/2021 6:15:00 AM 7.02 44.636 0.091 6.7 5.38 11.33
3/29/2021 6:30:00 AM 6.95 44.51 0.091 6.71 5.46 11.35
3/29/2021 6:45:00 AM 6.9 44.42 0.092 6.72 5.36 11.38
3/29/2021 7:00:00 AM 6.85 44.33 0.091 6.72 5.31 11.4
3/29/2021 7:15:00 AM 6.8 44.24 0.092 6.72 5.43 11.42
3/29/2021 7:30:00 AM 6.75 44.15 0.092 6.72 5.47 11.47
3/29/2021 7:45:00 AM 6.7 44.06 0.092 6.72 5.12 11.53
3/29/2021 8:00:00 AM 6.66 43.988 0.092 6.71 5.22 11.62
3/29/2021 8:15:00 AM 6.62 43.916 0.092 6.73 5.31 11.67
3/29/2021 8:30:00 AM 6.58 43.844 0.092 6.72 5.22 11.76
3/29/2021 8:45:00 AM 6.55 43.79 0.091 6.71 5.22 11.87
3/29/2021 9:00:00 AM 6.53 43.754 0.091 6.72 5.06 12
3/29/2021 9:15:00 AM 6.5 43.7 0.091 6.72 5.11 12.11
3/29/2021 9:30:00 AM 6.48 43.664 0.091 6.71 5.09 12.23
3/29/2021 9:45:00 AM 6.48 43.664 0.091 6.73 5.1 12.36
3/29/2021 10:00:00 AM 6.48 43.664 0.091 6.73 5.14 12.48
3/29/2021 10:15:00 AM 6.48 43.664 0.09 6.73 4.94 12.58
3/29/2021 10:30:00 AM 6.5 43.7 0.09 6.73 4.91 12.68
3/29/2021 10:45:00 AM 6.53 43.754 0.09 6.72 4.93 12.81
3/29/2021 11:00:00 AM 6.58 43.844 0.09 6.73 4.83 12.91
3/29/2021 11:15:00 AM 6.66 43.988 0.09 6.76 4.89 13
3/29/2021 11:30:00 AM 6.76 44.168 0.09 6.76 4.96 13.08
3/29/2021 11:45:00 AM 6.87 44.366 0.09 6.78 4.83 13.14
3/29/2021 12:00:00 PM 7.1 44.78 0.09 6.77 4.87 13.19
3/29/2021 12:15:00 PM 7.34 45.212 0.09 6.8 4.88 13.2
3/29/2021 12:30:00 PM 7.49 45.482 0.09 6.8 4.75 13.2
3/29/2021 12:45:00 PM 7.61 45.698 0.09 6.8 4.91 13.16
3/29/2021 1:00:00 PM 7.93 46.274 0.09 6.81 4.68 13.15
3/29/2021 1:15:00 PM 8.13 46.634 0.09 6.82 4.81 13.11
3/29/2021 1:30:00 PM 8.32 46.976 0.09 6.82 4.79 13.05
3/29/2021 1:45:00 PM 8.48 47.264 0.09 6.82 4.77 13.01
3/29/2021 2:00:00 PM 8.71 47.678 0.09 6.82 4.63 12.96
3/29/2021 2:15:00 PM 8.94 48.092 0.09 6.82 4.74 12.92
3/29/2021 2:30:00 PM 9.11 48.398 0.09 6.82 4.64 12.86
3/29/2021 2:45:00 PM 9.25 48.65 0.09 6.82 4.58 12.81
3/29/2021 3:00:00 PM 9.39 48.902 0.09 6.81 4.63 12.77
3/29/2021 3:15:00 PM 9.46 49.028 0.09 6.81 4.62 12.73
3/29/2021 3:30:00 PM 9.53 49.154 0.09 6.81 4.69 12.7
3/29/2021 3:45:00 PM 9.58 49.244 0.09 6.8 4.55 12.65
3/29/2021 4:00:00 PM 9.63 49.334 0.09 6.8 4.77 12.61
3/29/2021 4:15:00 PM 9.65 49.37 0.09 6.79 4.7 12.55
3/29/2021 4:30:00 PM 9.68 49.424 0.09 6.79 4.49 12.5
3/29/2021 4:45:00 PM 9.68 49.424 0.09 6.79 4.61 12.46
3/29/2021 5:00:00 PM 9.67 49.406 0.09 6.78 4.54 12.4
3/29/2021 5:15:00 PM 9.66 49.388 0.09 6.78 4.64 12.35
3/29/2021 5:30:00 PM 9.64 49.352 0.09 6.76 4.56 12.28
3/29/2021 5:45:00 PM 9.62 49.316 0.089 6.77 4.61 12.21
3/29/2021 6:00:00 PM 9.59 49.262 0.089 6.77 4.51 12.14
3/29/2021 6:15:00 PM 9.55 49.19 0.09 6.75 4.4 12.04
3/29/2021 6:30:00 PM 9.5 49.1 0.09 6.75 4.7 11.94
3/29/2021 6:45:00 PM 9.45 49.01 0.09 6.73 4.37 11.82
3/29/2021 7:00:00 PM 9.38 48.884 0.09 6.74 4.65 11.72
3/29/2021 7:15:00 PM 9.28 48.704 0.09 6.74 4.55 11.6
3/29/2021 7:30:00 PM 9.19 48.542 0.09 6.72 4.55 11.49
3/29/2021 7:45:00 PM 9.09 48.362 0.09 6.72 4.58 11.38
3/29/2021 8:00:00 PM 8.99 48.182 0.09 6.7 4.47 11.27
3/29/2021 8:15:00 PM 8.89 48.002 0.09 6.7 4.43 11.19
3/29/2021 8:30:00 PM 8.8 47.84 0.09 6.7 4.56 11.11
3/29/2021 8:45:00 PM 8.71 47.678 0.09 6.69 4.62 11.06
3/29/2021 9:00:00 PM 8.63 47.534 0.09 6.69 4.45 11.03
3/29/2021 9:15:00 PM 8.56 47.408 0.09 6.72 4.52 11
3/29/2021 9:30:00 PM 8.48 47.264 0.09 6.7 4.5 10.98
3/29/2021 9:45:00 PM 8.39 47.102 0.089 6.69 4.46 10.99
3/29/2021 10:00:00 PM 8.31 46.958 0.09 6.68 4.45 10.99
3/29/2021 10:15:00 PM 8.22 46.796 0.089 6.69 4.46 11.02
3/29/2021 10:30:00 PM 8.13 46.634 0.089 6.69 4.44 11.03
3/29/2021 10:45:00 PM 8.02 46.436 0.09 6.7 4.62 11.05
3/29/2021 11:00:00 PM 7.93 46.274 0.089 6.67 4.37 11.08
3/29/2021 11:15:00 PM 7.84 46.112 0.089 6.69 4.63 11.11
3/29/2021 11:30:00 PM 7.75 45.95 0.089 6.68 4.51 11.13
3/29/2021 11:45:00 PM 7.66 45.788 0.089 6.69 4.49 11.16
3/30/2021 12:00:00 AM 7.56 45.608 0.089 6.68 4.6 11.2
3/30/2021 12:15:00 AM 7.46 45.428 0.089 6.67 4.63 11.22
3/30/2021 12:30:00 AM 7.37 45.266 0.089 6.69 4.47 11.25
3/30/2021 12:45:00 AM 7.28 45.104 0.089 6.7 4.36 11.29
3/30/2021 1:00:00 AM 7.19 44.942 0.089 6.67 4.44 11.31
3/30/2021 1:15:00 AM 7.1 44.78 0.089 6.67 4.48 11.34
3/30/2021 1:30:00 AM 7.01 44.618 0.089 6.69 4.53 11.37
3/30/2021 1:45:00 AM 6.92 44.456 0.089 6.68 4.5 11.39
3/30/2021 2:00:00 AM 6.84 44.312 0.089 6.68 4.38 11.42
3/30/2021 2:15:00 AM 6.75 44.15 0.089 6.69 4.44 11.45
3/30/2021 2:30:00 AM 6.65 43.97 0.09 6.69 4.4 11.49
3/30/2021 2:45:00 AM 6.57 43.826 0.09 6.69 4.55 11.51
3/30/2021 3:00:00 AM 6.49 43.682 0.089 6.7 4.43 11.54
3/30/2021 3:15:00 AM 6.4 43.52 0.09 6.71 4.46 11.58
3/30/2021 3:30:00 AM 6.31 43.358 0.09 6.66 4.48 11.59
3/30/2021 3:45:00 AM 6.23 43.214 0.09 6.65 4.52 11.63
3/30/2021 4:00:00 AM 6.14 43.052 0.09 6.67 4.41 11.66
3/30/2021 4:15:00 AM 6.06 42.908 0.09 6.67 4.64 11.69
3/30/2021 4:30:00 AM 5.98 42.764 0.09 6.68 4.39 11.72
3/30/2021 4:45:00 AM 5.9 42.62 0.09 6.68 4.5 11.76
3/30/2021 5:00:00 AM 5.82 42.476 0.09 6.68 4.54 11.78
3/30/2021 5:15:00 AM 5.74 42.332 0.09 6.67 4.37 11.81
3/30/2021 5:30:00 AM 5.66 42.188 0.09 6.68 4.5 11.84
3/30/2021 5:45:00 AM 5.58 42.044 0.09 6.7 4.64 11.86
3/30/2021 6:00:00 AM 5.5 41.9 0.09 6.69 4.32 11.89
3/30/2021 6:15:00 AM 5.42 41.756 0.09 6.68 4.46 11.93
3/30/2021 6:30:00 AM 5.35 41.63 0.09 6.68 4.38 11.96
3/30/2021 6:45:00 AM 5.28 41.504 0.09 6.69 4.41 11.98
3/30/2021 7:00:00 AM 5.2 41.36 0.09 6.68 4.57 12.01
3/30/2021 7:15:00 AM 5.14 41.252 0.09 6.69 4.52 12.07
3/30/2021 7:30:00 AM 5.07 41.126 0.09 6.69 4.23 12.15
3/30/2021 7:45:00 AM 5.03 41.054 0.09 6.69 4.45 12.26
3/30/2021 8:00:00 AM 4.99 40.982 0.09 6.69 4.41 12.39
3/30/2021 8:15:00 AM 4.96 40.928 0.09 6.69 4.17 12.5
3/30/2021 8:30:00 AM 4.94 40.892 0.089 6.71 4.51 12.64
3/30/2021 8:45:00 AM 4.94 40.892 0.089 6.71 4.38 12.78
3/30/2021 9:00:00 AM 4.96 40.928 0.089 6.72 4.48 12.91
3/30/2021 9:15:00 AM 5.01 41.018 0.089 6.71 4.33 13.03
3/30/2021 9:30:00 AM 5.07 41.126 0.089 6.72 4.38 13.15
3/30/2021 9:45:00 AM 5.15 41.27 0.089 6.74 4.37 13.25
3/30/2021 10:00:00 AM 5.27 41.486 0.089 6.76 4.34 13.34
3/30/2021 10:15:00 AM 5.41 41.738 0.088 6.77 4.24 13.4
3/30/2021 10:30:00 AM 5.57 42.026 0.088 6.78 4.29 13.44
3/30/2021 10:45:00 AM 5.76 42.368 0.088 6.8 4.3 13.47
3/30/2021 11:00:00 AM 5.99 42.782 0.088 6.79 4.14 13.46
3/30/2021 11:15:00 AM 6.21 43.178 0.088 6.81 4.22 13.46
3/30/2021 11:30:00 AM 6.44 43.592 0.088 6.81 4.11 13.44
3/30/2021 11:45:00 AM 6.7 44.06 0.088 6.82 4.09 13.41
3/30/2021 12:00:00 PM 6.96 44.528 0.088 6.82 4.15 13.37
3/30/2021 12:15:00 PM 7.24 45.032 0.088 6.82 4.16 13.32
3/30/2021 12:30:00 PM 7.52 45.536 0.088 6.84 4.29 13.27
3/30/2021 12:45:00 PM 7.81 46.058 0.088 6.82 4.28 13.22
3/30/2021 1:00:00 PM 8.09 46.562 0.088 6.83 4.16 13.15
3/30/2021 1:15:00 PM 8.36 47.048 0.088 6.84 4.12 13.1
3/30/2021 1:30:00 PM 8.64 47.552 0.088 6.84 4.2 13.04
3/30/2021 1:45:00 PM 8.88 47.984 0.088 6.84 4.17 12.97
3/30/2021 2:00:00 PM 9.13 48.434 0.088 6.84 4.2 12.9
3/30/2021 2:15:00 PM 9.34 48.812 0.088 6.85 4.07 12.84
3/30/2021 2:30:00 PM 9.54 49.172 0.088 6.83 4.09 12.78
3/30/2021 2:45:00 PM 9.74 49.532 0.088 6.83 4.13 12.7
3/30/2021 3:00:00 PM 9.9 49.82 0.087 6.83 4.04 12.65
3/30/2021 3:15:00 PM 10.04 50.072 0.087 6.83 4.12 12.6
3/30/2021 3:30:00 PM 10.16 50.288 0.087 6.82 4.59 12.55
3/30/2021 3:45:00 PM 10.28 50.504 0.087 6.82 4.14 12.49
3/30/2021 4:00:00 PM 10.37 50.666 0.087 6.81 4.12 12.43
3/30/2021 4:15:00 PM 10.44 50.792 0.087 6.81 4.12 12.38
3/30/2021 4:30:00 PM 10.46 50.828 0.087 6.8 4.21 12.29
3/30/2021 4:45:00 PM 10.54 50.972 0.087 6.79 4.13 12.26
3/30/2021 5:00:00 PM 10.6 51.08 0.087 6.79 4.18 12.21
3/30/2021 5:15:00 PM 10.62 51.116 0.087 6.78 4.17 12.13
3/30/2021 5:30:00 PM 10.64 51.152 0.087 6.79 4.12 12.06
3/30/2021 5:45:00 PM 10.65 51.17 0.087 6.78 4.14 12.01
3/30/2021 6:00:00 PM 10.64 51.152 0.087 6.77 4.09 11.89
3/30/2021 6:15:00 PM 10.63 51.134 0.087 6.78 4.19 11.81
3/30/2021 6:30:00 PM 10.63 51.134 0.087 6.78 4.07 11.72
3/30/2021 6:45:00 PM 10.62 51.116 0.087 6.77 4.48 11.59
3/30/2021 7:00:00 PM 10.58 51.044 0.087 6.76 4 11.43
3/30/2021 7:15:00 PM 10.53 50.954 0.087 6.76 4.21 11.28
3/30/2021 7:30:00 PM 10.49 50.882 0.087 6.76 4.11 11.14
3/30/2021 7:45:00 PM 10.44 50.792 0.087 6.75 4.3 10.97
3/30/2021 8:00:00 PM 10.4 50.72 0.088 6.73 4.32 10.85
3/30/2021 8:15:00 PM 10.36 50.648 0.087 6.76 4.13 10.75
3/30/2021 8:30:00 PM 10.31 50.558 0.088 6.75 4.19 10.65
3/30/2021 8:45:00 PM 10.27 50.486 0.088 6.75 4.22 10.58
3/30/2021 9:00:00 PM 10.23 50.414 0.088 6.73 4.29 10.52
3/30/2021 9:15:00 PM 10.19 50.342 0.088 6.74 4.24 10.48
3/30/2021 9:30:00 PM 10.16 50.288 0.088 6.74 4.37 10.44
3/30/2021 9:45:00 PM 10.12 50.216 0.088 6.74 4.24 10.44
3/30/2021 10:00:00 PM 10.08 50.144 0.088 6.75 4.29 10.43
3/30/2021 10:15:00 PM 10.04 50.072 0.088 6.75 4.33 10.42
3/30/2021 10:30:00 PM 10 50 0.088 6.75 4.31 10.43
3/30/2021 10:45:00 PM 9.96 49.928 0.088 6.72 4.4 10.43
3/30/2021 11:00:00 PM 9.91 49.838 0.088 6.71 4.26 10.44
3/30/2021 11:15:00 PM 9.86 49.748 0.088 6.74 4.25 10.47
3/30/2021 11:30:00 PM 9.8 49.64 0.088 6.75 4.35 10.47
3/30/2021 11:45:00 PM 9.76 49.568 0.088 6.74 4.29 10.47
3/31/2021 12:00:00 AM 9.71 49.478 0.088 6.75 4.38 10.47
3/31/2021 12:15:00 AM 9.66 49.388 0.088 6.73 4.51 10.5
3/31/2021 12:30:00 AM 9.61 49.298 0.087 6.73 4.31 10.52
3/31/2021 12:45:00 AM 9.56 49.208 0.088 6.73 4.23 10.54
3/31/2021 1:00:00 AM 9.5 49.1 0.088 6.73 4.37 10.55
3/31/2021 1:15:00 AM 9.46 49.028 0.088 6.74 4.27 10.56
3/31/2021 1:30:00 AM 9.41 48.938 0.088 6.73 4.35 10.57
3/31/2021 1:45:00 AM 9.37 48.866 0.088 6.74 4.37 10.59
3/31/2021 2:00:00 AM 9.31 48.758 0.088 6.73 4.24 10.58
3/31/2021 2:15:00 AM 9.26 48.668 0.088 6.73 4.43 10.63
3/31/2021 2:30:00 AM 9.21 48.578 0.088 6.72 4.5 10.63
3/31/2021 2:45:00 AM 9.15 48.47 0.088 6.71 4.23 10.64
3/31/2021 3:00:00 AM 9.1 48.38 0.088 6.73 4.2 10.66
3/31/2021 3:15:00 AM 9.05 48.29 0.088 6.74 4.23 10.66
3/31/2021 3:30:00 AM 9.01 48.218 0.088 6.73 4.33 10.68
3/31/2021 3:45:00 AM 8.97 48.146 0.088 6.72 4.33 10.7
3/31/2021 4:00:00 AM 8.94 48.092 0.088 6.73 4.32 10.7
3/31/2021 4:15:00 AM 8.9 48.02 0.089 6.75 4.23 10.72
3/31/2021 4:30:00 AM 8.86 47.948 0.089 6.73 4.26 10.73
3/31/2021 4:45:00 AM 8.83 47.894 0.089 6.73 4.26 10.74
3/31/2021 5:00:00 AM 8.8 47.84 0.089 6.74 4.34 10.74
3/31/2021 5:15:00 AM 8.77 47.786 0.089 6.74 4.36 10.75
3/31/2021 5:30:00 AM 8.74 47.732 0.089 6.73 4.32 10.76
3/31/2021 5:45:00 AM 8.71 47.678 0.089 6.73 4.44 10.78
3/31/2021 6:00:00 AM 8.67 47.606 0.089 6.73 4.27 10.78
3/31/2021 6:15:00 AM 8.65 47.57 0.089 6.73 4.17 10.78
3/31/2021 6:30:00 AM 8.61 47.498 0.089 6.74 4.28 10.81
3/31/2021 6:45:00 AM 8.58 47.444 0.089 6.74 4.35 10.81
3/31/2021 7:00:00 AM 8.54 47.372 0.089 6.74 4.42 10.83
3/31/2021 7:15:00 AM 8.51 47.318 0.089 6.74 4.37 10.86
3/31/2021 7:30:00 AM 8.48 47.264 0.089 6.74 4.44 10.92
3/31/2021 7:45:00 AM 8.46 47.228 0.089 6.74 4.3 11
3/31/2021 8:00:00 AM 8.44 47.192 0.089 6.73 4.36 11.11
3/31/2021 8:15:00 AM 8.42 47.156 0.089 6.73 4.37 11.22
3/31/2021 8:30:00 AM 8.4 47.12 0.089 6.75 4.32 11.3
3/31/2021 8:45:00 AM 8.39 47.102 0.088 6.73 4.26 11.42
3/31/2021 9:00:00 AM 8.4 47.12 0.088 6.75 4.35 11.54
3/31/2021 9:15:00 AM 8.4 47.12 0.088 6.75 4.43 11.62
3/31/2021 9:30:00 AM 8.4 47.12 0.088 6.75 4.23 11.71
3/31/2021 9:45:00 AM 8.39 47.102 0.088 6.76 4.21 11.7
3/31/2021 10:00:00 AM 8.38 47.084 0.088 6.76 4.31 11.68
3/31/2021 10:15:00 AM 8.38 47.084 0.088 6.75 4.48 11.66
3/31/2021 10:30:00 AM 8.37 47.066 0.088 6.76 4.33 11.65
3/31/2021 10:45:00 AM 8.36 47.048 0.089 6.76 4.47 11.63
3/31/2021 11:00:00 AM 8.36 47.048 0.088 6.76 4.62 11.67
3/31/2021 11:15:00 AM 8.36 47.048 0.088 6.75 4.91 11.74
3/31/2021 11:30:00 AM 8.37 47.066 0.088 6.76 6.62 11.79
3/31/2021 11:45:00 AM 8.38 47.084 0.088 6.76 6.56 11.87
3/31/2021 12:00:00 PM 8.4 47.12 0.088 6.77 5.64 11.94
3/31/2021 12:15:00 PM 8.42 47.156 0.089 6.75 5.45 11.99
3/31/2021